Darstellungsparameter: Aktuell verwendete Einstellungen:
Skalierung der Graphiken ... ?
xyx+y,   Skalierungsfaktor:      Skalierung: Modus: x, Faktor: 1
Darstellungszeitraum ... ?
Vom - - bis: - -   Zeitraum: 28.08.2018 - 27.02.2019
Min/Max/Avg-Anzeige ... ?
Zeige MMA aktuell
Zeige MMA Monat
Zeige MMA alles
Zeige --A aktuell
Zeige --A Monat
Zeige --A alles
Keine MMA-Anzeige
MMA:
Minimum Maximum Average (ber die Originaldaten)
MMA-Basis: 28.08.2018 - 27.02.2019
Quicknavigation für Darstellung... ?
Tage:      1T, 2T, 3T, 5T -1T -2T -3T -5T +1T +2T +3T +5T
Wochen: 1W, 2W, 3W -1W -2W -3W +1W +2W +3W
Monate: 1M, 3M, 6M -1M -3M -6M +1M +3M +6M
Jahre:    1J, 3J, 5J, 10J -1J -3J -5J -10J +1J +3J +5J +10J
Nutze für die Darstellung ... ?
Originaldaten oder Mittelwerte auf ...
Stundenbasis Tagesbasis Wochenbasis
Monatsbasis Jahresbasis      Datenbasis: Original-Daten
Darstellen als:
Statistik (Auto) Statistik J:M      Darstellung:
Zur Graphik,    zurück zur Übersicht aller Sensoren.
 
Tabellarische Datenbersicht: ?
 
Sensor: Nr:Datum:Temp:Feuchte:Taupunkt:
Aussen-T/F 1 28-08-2018 00:00:00 15.7 C 76 % 11.48 C
2 28-08-2018 00:05:00 15.7 C 76 % 11.48 C
3 28-08-2018 00:10:00 15.8 C 77 % 11.78 C
4 28-08-2018 00:15:00 15.8 C 77 % 11.78 C
5 28-08-2018 00:20:00 15.8 C 77 % 11.78 C
6 28-08-2018 00:25:00 15.9 C 77 % 11.88 C
7 28-08-2018 00:30:00 15.9 C 77 % 11.88 C
8 28-08-2018 00:35:00 15.9 C 77 % 11.88 C
9 28-08-2018 00:40:00 15.9 C 77 % 11.88 C
10 28-08-2018 00:45:00 15.9 C 77 % 11.88 C
11 28-08-2018 00:50:00 15.9 C 77 % 11.88 C
12 28-08-2018 00:55:00 15.8 C 77 % 11.78 C
13 28-08-2018 01:00:00 15.8 C 77 % 11.78 C
14 28-08-2018 01:05:00 15.8 C 77 % 11.78 C
15 28-08-2018 01:10:00 15.7 C 77 % 11.68 C
16 28-08-2018 01:15:00 15.8 C 77 % 11.78 C
17 28-08-2018 01:20:00 15.8 C 77 % 11.78 C
18 28-08-2018 01:25:00 15.8 C 78 % 11.97 C
19 28-08-2018 01:30:00 15.8 C 77 % 11.78 C
20 28-08-2018 01:35:00 15.8 C 77 % 11.78 C
21 28-08-2018 01:40:00 15.7 C 77 % 11.68 C
22 28-08-2018 01:45:00 15.7 C 77 % 11.68 C
23 28-08-2018 01:50:00 15.7 C 77 % 11.68 C
24 28-08-2018 01:55:00 15.7 C 77 % 11.68 C
25 28-08-2018 02:00:00 15.7 C 78 % 11.88 C
Sensor: Nr:Datum:Temp:Feuchte:Taupunkt:
Aussen-T/F 26 28-08-2018 02:05:00 15.7 C 78 % 11.88 C
27 28-08-2018 02:10:00 15.6 C 78 % 11.78 C
28 28-08-2018 02:15:00 15.6 C 78 % 11.78 C
29 28-08-2018 02:20:00 15.6 C 78 % 11.78 C
30 28-08-2018 02:25:00 15.6 C 78 % 11.78 C
31 28-08-2018 02:30:00 15.6 C 77 % 11.59 C
32 28-08-2018 02:35:00 15.5 C 78 % 11.68 C
33 28-08-2018 02:40:00 15.5 C 77 % 11.49 C
34 28-08-2018 02:45:00 15.5 C 78 % 11.68 C
35 28-08-2018 02:50:00 15.4 C 78 % 11.59 C
36 28-08-2018 02:55:00 15.3 C 77 % 11.3 C
37 28-08-2018 03:00:00 15.1 C 78 % 11.3 C
38 28-08-2018 03:05:00 14.8 C 78 % 11 C
39 28-08-2018 03:10:00 14.6 C 79 % 11 C
40 28-08-2018 03:15:00 14.4 C 80 % 11 C
41 28-08-2018 03:20:00 14.2 C 80 % 10.8 C
42 28-08-2018 03:25:00 14 C 81 % 10.79 C
43 28-08-2018 03:30:00 13.8 C 81 % 10.6 C
44 28-08-2018 03:35:00 13.6 C 81 % 10.4 C
45 28-08-2018 03:40:00 13.4 C 82 % 10.39 C
46 28-08-2018 03:45:00 13.3 C 83 % 10.48 C
47 28-08-2018 03:50:00 13.2 C 83 % 10.38 C
48 28-08-2018 03:55:00 13.1 C 84 % 10.46 C
49 28-08-2018 04:00:00 13 C 84 % 10.36 C
50 28-08-2018 04:05:00 12.9 C 84 % 10.26 C
Sensor: Nr:Datum:Temp:Feuchte:Taupunkt:
Aussen-T/F 51 28-08-2018 04:10:00 12.8 C 84 % 10.17 C
52 28-08-2018 04:15:00 12.7 C 85 % 10.25 C
53 28-08-2018 04:20:00 12.6 C 85 % 10.15 C
54 28-08-2018 04:25:00 12.4 C 85 % 9.95 C
55 28-08-2018 04:30:00 12.3 C 85 % 9.85 C
56 28-08-2018 04:35:00 12.3 C 86 % 10.03 C
57 28-08-2018 04:40:00 12.2 C 86 % 9.93 C
58 28-08-2018 04:45:00 12.1 C 86 % 9.83 C
59 28-08-2018 04:50:00 12.1 C 87 % 10 C
60 28-08-2018 04:55:00 12.1 C 87 % 10 C
61 28-08-2018 05:00:00 12.1 C 87 % 10 C
62 28-08-2018 05:05:00 12.2 C 88 % 10.27 C
63 28-08-2018 05:10:00 12.2 C 88 % 10.27 C
64 28-08-2018 05:15:00 12.3 C 88 % 10.37 C
65 28-08-2018 05:20:00 12.3 C 88 % 10.37 C
66 28-08-2018 05:25:00 12.4 C 88 % 10.47 C
67 28-08-2018 05:30:00 12.5 C 87 % 10.4 C
68 28-08-2018 05:35:00 12.6 C 87 % 10.5 C
69 28-08-2018 05:40:00 12.7 C 87 % 10.59 C
70 28-08-2018 05:45:00 12.7 C 87 % 10.59 C
71 28-08-2018 05:50:00 12.7 C 87 % 10.59 C
72 28-08-2018 05:55:00 12.7 C 87 % 10.59 C
73 28-08-2018 06:00:00 12.8 C 86 % 10.52 C
74 28-08-2018 06:05:00 12.8 C 86 % 10.52 C
75 28-08-2018 06:10:00 12.8 C 86 % 10.52 C
Sensor: Nr:Datum:Temp:Feuchte:Taupunkt:
Aussen-T/F 76 28-08-2018 06:15:00 12.8 C 86 % 10.52 C
77 28-08-2018 06:20:00 12.8 C 86 % 10.52 C
78 28-08-2018 06:25:00 12.8 C 86 % 10.52 C
79 28-08-2018 06:30:00 12.8 C 86 % 10.52 C
80 28-08-2018 06:35:00 12.8 C 86 % 10.52 C
81 28-08-2018 06:40:00 12.8 C 86 % 10.52 C
82 28-08-2018 06:45:00 12.8 C 86 % 10.52 C
83 28-08-2018 06:50:00 12.8 C 86 % 10.52 C
84 28-08-2018 06:55:00 12.8 C 86 % 10.52 C
85 28-08-2018 07:00:00 12.9 C 86 % 10.62 C
86 28-08-2018 07:05:00 12.9 C 86 % 10.62 C
87 28-08-2018 07:10:00 12.9 C 86 % 10.62 C
88 28-08-2018 07:15:00 12.9 C 86 % 10.62 C
89 28-08-2018 07:20:00 13 C 86 % 10.72 C
90 28-08-2018 07:25:00 13 C 86 % 10.72 C
91 28-08-2018 07:30:00 13.1 C 86 % 10.81 C
92 28-08-2018 07:35:00 13.1 C 86 % 10.81 C
93 28-08-2018 07:40:00 13.2 C 86 % 10.91 C
94 28-08-2018 07:45:00 13.2 C 86 % 10.91 C
95 28-08-2018 07:50:00 13.3 C 86 % 11.01 C
96 28-08-2018 07:55:00 13.3 C 85 % 10.83 C
97 28-08-2018 08:00:00 13.4 C 84 % 10.75 C
98 28-08-2018 08:05:00 13.6 C 84 % 10.95 C
99 28-08-2018 08:10:00 13.6 C 84 % 10.95 C
100 28-08-2018 08:15:00 13.7 C 83 % 10.87 C
Sensor: Nr:Datum:Temp:Feuchte:Taupunkt:
Aussen-T/F 101 28-08-2018 08:20:00 13.7 C 83 % 10.87 C
102 28-08-2018 08:25:00 13.7 C 83 % 10.87 C
103 28-08-2018 08:30:00 13.7 C 84 % 11.05 C
104 28-08-2018 08:35:00 13.8 C 84 % 11.15 C
105 28-08-2018 08:40:00 13.8 C 84 % 11.15 C
106 28-08-2018 08:45:00 13.8 C 83 % 10.97 C
107 28-08-2018 08:50:00 13.8 C 83 % 10.97 C
108 28-08-2018 08:55:00 13.9 C 83 % 11.06 C
109 28-08-2018 09:00:00 13.9 C 83 % 11.06 C
110 28-08-2018 09:05:00 14 C 83 % 11.16 C
111 28-08-2018 09:10:00 14.1 C 83 % 11.26 C
112 28-08-2018 09:15:00 14.2 C 83 % 11.36 C
113 28-08-2018 09:20:00 14.2 C 83 % 11.36 C
114 28-08-2018 09:25:00 14.3 C 83 % 11.45 C
115 28-08-2018 09:30:00 14.3 C 83 % 11.45 C
116 28-08-2018 09:35:00 14.4 C 83 % 11.55 C
117 28-08-2018 09:40:00 14.6 C 84 % 11.93 C
118 28-08-2018 09:45:00 14.6 C 84 % 11.93 C
119 28-08-2018 09:50:00 14.7 C 84 % 12.03 C
120 28-08-2018 09:55:00 14.8 C 84 % 12.12 C
121 28-08-2018 10:00:00 14.8 C 82 % 11.76 C
122 28-08-2018 10:05:00 14.9 C 83 % 12.04 C
123 28-08-2018 10:10:00 15.1 C 83 % 12.24 C
124 28-08-2018 10:15:00 15.3 C 81 % 12.06 C
125 28-08-2018 10:20:00 15.4 C 81 % 12.16 C
Sensor: Nr:Datum:Temp:Feuchte:Taupunkt:
Aussen-T/F 126 28-08-2018 10:25:00 15.8 C 80 % 12.36 C
127 28-08-2018 10:30:00 16.1 C 79 % 12.46 C
128 28-08-2018 10:35:00 16.5 C 78 % 12.65 C
129 28-08-2018 10:40:00 17 C 77 % 12.94 C
130 28-08-2018 10:45:00 17.3 C 75 % 12.83 C
131 28-08-2018 10:50:00 17.5 C 74 % 12.82 C
132 28-08-2018 10:55:00 17.8 C 73 % 12.9 C
133 28-08-2018 11:00:00 18 C 71 % 12.67 C
134 28-08-2018 11:05:00 18.2 C 70 % 12.64 C
135 28-08-2018 11:10:00 18.4 C 69 % 12.61 C
136 28-08-2018 11:15:00 18.5 C 69 % 12.71 C
137 28-08-2018 11:20:00 18.7 C 66 % 12.22 C
138 28-08-2018 11:25:00 18.8 C 67 % 12.55 C
139 28-08-2018 11:30:00 18.9 C 67 % 12.64 C
140 28-08-2018 11:35:00 19 C 66 % 12.51 C
141 28-08-2018 11:40:00 19.1 C 65 % 12.37 C
142 28-08-2018 11:45:00 19.2 C 65 % 12.47 C
143 28-08-2018 11:50:00 19.3 C 64 % 12.32 C
144 28-08-2018 11:55:00 19.3 C 64 % 12.32 C
145 28-08-2018 12:00:00 19.3 C 63 % 12.09 C
146 28-08-2018 12:05:00 19.5 C 63 % 12.27 C
147 28-08-2018 12:10:00 19.6 C 62 % 12.13 C
148 28-08-2018 12:15:00 19.6 C 62 % 12.13 C
149 28-08-2018 12:20:00 19.7 C 62 % 12.22 C
150 28-08-2018 12:25:00 19.8 C 61 % 12.07 C
Sensor: Nr:Datum:Temp:Feuchte:Taupunkt:
Aussen-T/F 151 28-08-2018 12:30:00 19.9 C 60 % 11.91 C
152 28-08-2018 12:35:00 19.9 C 61 % 12.16 C
153 28-08-2018 12:40:00 20 C 60 % 12 C
154 28-08-2018 12:45:00 20.1 C 60 % 12.1 C
155 28-08-2018 12:50:00 20.3 C 59 % 12.03 C
156 28-08-2018 12:55:00 20.4 C 59 % 12.12 C
157 28-08-2018 13:00:00 20.4 C 59 % 12.12 C
158 28-08-2018 13:05:00 20.5 C 59 % 12.22 C
159 28-08-2018 13:10:00 20.6 C 58 % 12.05 C
160 28-08-2018 13:15:00 20.7 C 56 % 11.61 C
161 28-08-2018 13:20:00 20.7 C 56 % 11.61 C
162 28-08-2018 13:25:00 20.8 C 57 % 11.97 C
163 28-08-2018 13:30:00 20.9 C 56 % 11.8 C
164 28-08-2018 13:35:00 21 C 56 % 11.89 C
165 28-08-2018 13:40:00 21.1 C 56 % 11.99 C
166 28-08-2018 13:45:00 21.4 C 55 % 11.99 C
167 28-08-2018 13:50:00 21.7 C 54 % 11.99 C
168 28-08-2018 13:55:00 21.9 C 54 % 12.18 C
169 28-08-2018 14:00:00 22.1 C 53 % 12.08 C
170 28-08-2018 14:05:00 22.3 C 53 % 12.26 C
171 28-08-2018 14:10:00 22.4 C 52 % 12.07 C
172 28-08-2018 14:15:00 22.4 C 52 % 12.07 C
173 28-08-2018 14:20:00 22.5 C 52 % 12.16 C
174 28-08-2018 14:25:00 22.5 C 52 % 12.16 C
175 28-08-2018 14:30:00 22.6 C 53 % 12.54 C
Sensor: Nr:Datum:Temp:Feuchte:Taupunkt:
Aussen-T/F 176 28-08-2018 14:35:00 22.7 C 51 % 12.05 C
177 28-08-2018 14:40:00 22.8 C 50 % 11.84 C
178 28-08-2018 14:45:00 23 C 50 % 12.02 C
179 28-08-2018 14:50:00 23.2 C 50 % 12.21 C
180 28-08-2018 14:55:00 23.3 C 50 % 12.3 C
181 28-08-2018 15:00:00 23.3 C 49 % 11.99 C
182 28-08-2018 15:05:00 23.6 C 49 % 12.27 C
183 28-08-2018 15:10:00 23.7 C 48 % 12.04 C
184 28-08-2018 15:15:00 23.7 C 49 % 12.36 C
185 28-08-2018 15:20:00 23.6 C 48 % 11.95 C
186 28-08-2018 15:25:00 23.6 C 49 % 12.27 C
187 28-08-2018 15:30:00 23.8 C 48 % 12.14 C
188 28-08-2018 15:35:00 23.8 C 48 % 12.14 C
189 28-08-2018 15:40:00 23.8 C 48 % 12.14 C
190 28-08-2018 15:45:00 23.9 C 48 % 12.23 C
191 28-08-2018 15:50:00 23.9 C 48 % 12.23 C
192 28-08-2018 15:55:00 24 C 47 % 12 C
193 28-08-2018 16:00:00 24.1 C 46 % 11.76 C
194 28-08-2018 16:05:00 24.1 C 47 % 12.09 C
195 28-08-2018 16:10:00 24.2 C 46 % 11.85 C
196 28-08-2018 16:15:00 24.2 C 46 % 11.85 C
197 28-08-2018 16:20:00 24.3 C 47 % 12.27 C
198 28-08-2018 16:25:00 24.8 C 47 % 12.73 C
199 28-08-2018 16:30:00 25.3 C 44 % 12.18 C
200 28-08-2018 16:35:00 25.7 C 43 % 12.19 C
Sensor: Nr:Datum:Temp:Feuchte:Taupunkt:
Aussen-T/F 201 28-08-2018 16:40:00 26.1 C 42 % 12.19 C
202 28-08-2018 16:45:00 26.2 C 42 % 12.28 C
203 28-08-2018 16:50:00 26.3 C 43 % 12.73 C
204 28-08-2018 16:55:00 26.4 C 41 % 12.09 C
205 28-08-2018 17:00:00 26.6 C 41 % 12.27 C
206 28-08-2018 17:05:00 26.7 C 41 % 12.36 C
207 28-08-2018 17:10:00 26.8 C 40 % 12.07 C
208 28-08-2018 17:15:00 26.8 C 40 % 12.07 C
209 28-08-2018 17:20:00 26.3 C 41 % 12 C
210 28-08-2018 17:25:00 26.1 C 43 % 12.55 C
211 28-08-2018 17:30:00 26.2 C 42 % 12.28 C
212 28-08-2018 17:35:00 26.3 C 41 % 12 C
213 28-08-2018 17:40:00 26.6 C 41 % 12.27 C
214 28-08-2018 17:45:00 26.5 C 41 % 12.18 C
215 28-08-2018 17:50:00 26.3 C 41 % 12 C
216 28-08-2018 17:55:00 25.9 C 43 % 12.37 C
217 28-08-2018 18:00:00 25.9 C 43 % 12.37 C
218 28-08-2018 18:05:00 26 C 41 % 11.73 C
219 28-08-2018 18:10:00 26.1 C 42 % 12.19 C
220 28-08-2018 18:15:00 26 C 42 % 12.1 C
221 28-08-2018 18:20:00 25.9 C 42 % 12.01 C
222 28-08-2018 18:25:00 25.9 C 41 % 11.64 C
223 28-08-2018 18:30:00 25.9 C 42 % 12.01 C
224 28-08-2018 18:35:00 26.1 C 42 % 12.19 C
225 28-08-2018 18:40:00 26.3 C 43 % 12.73 C
Sensor: Nr:Datum:Temp:Feuchte:Taupunkt:
Aussen-T/F 226 28-08-2018 18:45:00 26.5 C 41 % 12.18 C
227 28-08-2018 18:50:00 26.7 C 41 % 12.36 C
228 28-08-2018 18:55:00 26.7 C 43 % 13.09 C
229 28-08-2018 19:00:00 26.6 C 42 % 12.64 C
230 28-08-2018 19:05:00 26.3 C 41 % 12 C
231 28-08-2018 19:10:00 26.3 C 44 % 13.08 C
232 28-08-2018 19:15:00 26.1 C 43 % 12.55 C
233 28-08-2018 19:20:00 25.9 C 45 % 13.06 C
234 28-08-2018 19:25:00 25.6 C 47 % 13.45 C
235 28-08-2018 19:30:00 25.1 C 48 % 13.32 C
236 28-08-2018 19:35:00 24.7 C 49 % 13.27 C
237 28-08-2018 19:40:00 24.3 C 50 % 13.22 C
238 28-08-2018 19:45:00 23.8 C 51 % 13.06 C
239 28-08-2018 19:50:00 23.4 C 52 % 12.99 C
240 28-08-2018 19:55:00 22.9 C 53 % 12.82 C
241 28-08-2018 20:00:00 22.5 C 55 % 13.01 C
242 28-08-2018 20:05:00 22 C 56 % 12.82 C
243 28-08-2018 20:10:00 21.5 C 57 % 12.63 C
244 28-08-2018 20:15:00 21.1 C 58 % 12.52 C
245 28-08-2018 20:20:00 20.6 C 59 % 12.31 C
246 28-08-2018 20:25:00 20.1 C 60 % 12.1 C
247 28-08-2018 20:30:00 19.7 C 61 % 11.97 C
248 28-08-2018 20:35:00 19.3 C 61 % 11.6 C
249 28-08-2018 20:40:00 19 C 62 % 11.56 C
250 28-08-2018 20:45:00 18.8 C 62 % 11.37 C
Sensor: Nr:Datum:Temp:Feuchte:Taupunkt:
Aussen-T/F 251 28-08-2018 20:50:00 18.6 C 63 % 11.42 C
252 28-08-2018 20:55:00 18.5 C 63 % 11.33 C
253 28-08-2018 21:00:00 18.3 C 63 % 11.14 C
254 28-08-2018 21:05:00 18.3 C 64 % 11.38 C
255 28-08-2018 21:10:00 18.2 C 64 % 11.28 C
256 28-08-2018 21:15:00 18.1 C 65 % 11.42 C
257 28-08-2018 21:20:00 18 C 64 % 11.09 C
258 28-08-2018 21:25:00 17.9 C 64 % 11 C
259 28-08-2018 21:30:00 17.8 C 64 % 10.9 C
260 28-08-2018 21:35:00 17.8 C 65 % 11.14 C
261 28-08-2018 21:40:00 17.7 C 65 % 11.04 C
262 28-08-2018 21:45:00 17.6 C 65 % 10.95 C
263 28-08-2018 21:50:00 17.5 C 65 % 10.85 C
264 28-08-2018 21:55:00 17.3 C 66 % 10.89 C
265 28-08-2018 22:00:00 17.2 C 66 % 10.8 C
266 28-08-2018 22:05:00 17.1 C 66 % 10.7 C
267 28-08-2018 22:10:00 16.9 C 67 % 10.74 C
268 28-08-2018 22:15:00 16.8 C 67 % 10.64 C
269 28-08-2018 22:20:00 16.7 C 67 % 10.55 C
270 28-08-2018 22:25:00 16.6 C 67 % 10.45 C
271 28-08-2018 22:30:00 16.6 C 68 % 10.67 C
272 28-08-2018 22:35:00 16.4 C 68 % 10.48 C
273 28-08-2018 22:40:00 16.3 C 68 % 10.39 C
274 28-08-2018 22:45:00 16.3 C 68 % 10.39 C
275 28-08-2018 22:50:00 16.3 C 68 % 10.39 C
Sensor: Nr:Datum:Temp:Feuchte:Taupunkt:
Aussen-T/F 276 28-08-2018 22:55:00 16.2 C 68 % 10.29 C
277 28-08-2018 23:00:00 16.2 C 69 % 10.51 C
278 28-08-2018 23:05:00 16.1 C 69 % 10.42 C
279 28-08-2018 23:10:00 15.9 C 69 % 10.23 C
280 28-08-2018 23:15:00 15.8 C 70 % 10.34 C
281 28-08-2018 23:20:00 15.8 C 70 % 10.34 C
282 28-08-2018 23:25:00 15.7 C 71 % 10.46 C
283 28-08-2018 23:30:00 15.6 C 71 % 10.37 C
284 28-08-2018 23:35:00 15.4 C 71 % 10.17 C
285 28-08-2018 23:40:00 15.4 C 72 % 10.38 C
286 28-08-2018 23:45:00 15.3 C 72 % 10.29 C
287 28-08-2018 23:50:00 15.2 C 72 % 10.19 C
288 28-08-2018 23:55:00 15.1 C 73 % 10.3 C
289 29-08-2018 00:00:00 15 C 73 % 10.2 C
290 29-08-2018 00:05:00 14.9 C 73 % 10.11 C
291 29-08-2018 00:10:00 14.9 C 73 % 10.11 C
292 29-08-2018 00:15:00 14.8 C 74 % 10.22 C
293 29-08-2018 00:20:00 14.7 C 74 % 10.12 C
294 29-08-2018 00:25:00 14.7 C 74 % 10.12 C
295 29-08-2018 00:30:00 14.6 C 76 % 10.42 C
296 29-08-2018 00:35:00 14.5 C 75 % 10.13 C
297 29-08-2018 00:40:00 14.4 C 75 % 10.03 C
298 29-08-2018 00:45:00 14.3 C 76 % 10.13 C
299 29-08-2018 00:50:00 14.2 C 76 % 10.03 C
300 29-08-2018 00:55:00 14.1 C 76 % 9.94 C
Sensor: Nr:Datum:Temp:Feuchte:Taupunkt:
Aussen-T/F 301 29-08-2018 01:00:00 13.9 C 77 % 9.94 C
302 29-08-2018 01:05:00 13.9 C 77 % 9.94 C
303 29-08-2018 01:10:00 14 C 78 % 10.23 C
304 29-08-2018 01:15:00 14 C 77 % 10.04 C
305 29-08-2018 01:20:00 13.8 C 78 % 10.03 C
306 29-08-2018 01:25:00 13.8 C 79 % 10.22 C
307 29-08-2018 01:30:00 13.7 C 78 % 9.94 C
308 29-08-2018 01:35:00 13.5 C 79 % 9.93 C
309 29-08-2018 01:40:00 13.3 C 79 % 9.74 C
310 29-08-2018 01:45:00 13.2 C 80 % 9.83 C
311 29-08-2018 01:50:00 13.2 C 80 % 9.83 C
312 29-08-2018 01:55:00 13.1 C 80 % 9.73 C
313 29-08-2018 02:00:00 12.9 C 81 % 9.72 C
314 29-08-2018 02:05:00 12.9 C 81 % 9.72 C
315 29-08-2018 02:10:00 12.8 C 82 % 9.81 C
316 29-08-2018 02:15:00 12.8 C 82 % 9.81 C
317 29-08-2018 02:20:00 12.8 C 82 % 9.81 C
318 29-08-2018 02:25:00 12.7 C 82 % 9.71 C
319 29-08-2018 02:30:00 12.6 C 82 % 9.61 C
320 29-08-2018 02:35:00 12.4 C 82 % 9.42 C
321 29-08-2018 02:40:00 12.4 C 83 % 9.6 C
322 29-08-2018 02:45:00 12.3 C 83 % 9.5 C
323 29-08-2018 02:50:00 12.2 C 83 % 9.4 C
324 29-08-2018 02:55:00 12.1 C 83 % 9.3 C
325 29-08-2018 03:00:00 11.9 C 83 % 9.11 C
Sensor: Nr:Datum:Temp:Feuchte:Taupunkt:
Aussen-T/F 326 29-08-2018 03:05:00 11.8 C 84 % 9.19 C
327 29-08-2018 03:10:00 11.7 C 84 % 9.09 C
328 29-08-2018 03:15:00 11.7 C 85 % 9.27 C
329 29-08-2018 03:20:00 11.7 C 85 % 9.27 C
330 29-08-2018 03:25:00 11.6 C 85 % 9.17 C
331 29-08-2018 03:30:00 11.6 C 85 % 9.17 C
332 29-08-2018 03:35:00 11.6 C 86 % 9.34 C
333 29-08-2018 03:40:00 11.4 C 85 % 8.97 C
334 29-08-2018 03:45:00 11.4 C 86 % 9.14 C
335 29-08-2018 03:50:00 11.3 C 86 % 9.05 C
336 29-08-2018 03:55:00 11.3 C 86 % 9.05 C
337 29-08-2018 04:00:00 11.3 C 87 % 9.22 C
338 29-08-2018 04:05:00 11.3 C 86 % 9.05 C
339 29-08-2018 04:10:00 11.3 C 87 % 9.22 C
340 29-08-2018 04:15:00 11.3 C 87 % 9.22 C
341 29-08-2018 04:20:00 11.3 C 87 % 9.22 C
342 29-08-2018 04:25:00 11.2 C 87 % 9.12 C
343 29-08-2018 04:30:00 11.2 C 87 % 9.12 C
344 29-08-2018 04:35:00 11.2 C 87 % 9.12 C
345 29-08-2018 04:40:00 11.2 C 88 % 9.29 C
346 29-08-2018 04:45:00 11.1 C 87 % 9.02 C
347 29-08-2018 04:50:00 11.1 C 87 % 9.02 C
348 29-08-2018 04:55:00 11.1 C 87 % 9.02 C
349 29-08-2018 05:00:00 11 C 87 % 8.92 C
350 29-08-2018 05:05:00 10.9 C 87 % 8.82 C
Sensor: Nr:Datum:Temp:Feuchte:Taupunkt:
Aussen-T/F 351 29-08-2018 05:10:00 10.9 C 87 % 8.82 C
352 29-08-2018 05:15:00 10.8 C 88 % 8.89 C
353 29-08-2018 05:20:00 10.8 C 87 % 8.73 C
354 29-08-2018 05:25:00 10.7 C 88 % 8.8 C
355 29-08-2018 05:30:00 10.7 C 88 % 8.8 C
356 29-08-2018 05:35:00 10.6 C 88 % 8.7 C
357 29-08-2018 05:40:00 10.6 C 88 % 8.7 C
358 29-08-2018 05:45:00 10.6 C 88 % 8.7 C
359 29-08-2018 05:50:00 10.6 C 89 % 8.86 C
360 29-08-2018 05:55:00 10.5 C 88 % 8.6 C
361 29-08-2018 06:00:00 10.4 C 88 % 8.5 C
362 29-08-2018 06:05:00 10.4 C 89 % 8.67 C
363 29-08-2018 06:10:00 10.3 C 89 % 8.57 C
364 29-08-2018 06:15:00 10.3 C 89 % 8.57 C
365 29-08-2018 06:20:00 10.3 C 89 % 8.57 C
366 29-08-2018 06:25:00 10.2 C 89 % 8.47 C
367 29-08-2018 06:30:00 10.2 C 89 % 8.47 C
368 29-08-2018 06:35:00 10.2 C 89 % 8.47 C
369 29-08-2018 06:40:00 10.2 C 89 % 8.47 C
370 29-08-2018 06:45:00 10.1 C 89 % 8.37 C
371 29-08-2018 06:50:00 10.1 C 90 % 8.54 C
372 29-08-2018 06:55:00 10.1 C 90 % 8.54 C
373 29-08-2018 07:00:00 10.1 C 90 % 8.54 C
374 29-08-2018 07:05:00 10.2 C 90 % 8.64 C
375 29-08-2018 07:10:00 10.2 C 90 % 8.64 C
Sensor: Nr:Datum:Temp:Feuchte:Taupunkt:
Aussen-T/F 376 29-08-2018 07:15:00 10.3 C 91 % 8.9 C
377 29-08-2018 07:20:00 10.4 C 91 % 9 C
378 29-08-2018 07:25:00 10.4 C 90 % 8.83 C
379 29-08-2018 07:30:00 10.4 C 90 % 8.83 C
380 29-08-2018 07:35:00 10.4 C 90 % 8.83 C
381 29-08-2018 07:40:00 10.5 C 90 % 8.93 C
382 29-08-2018 07:45:00 10.5 C 90 % 8.93 C
383 29-08-2018 07:50:00 10.6 C 90 % 9.03 C
384 29-08-2018 07:55:00 10.6 C 91 % 9.19 C
385 29-08-2018 08:00:00 10.7 C 91 % 9.29 C
386 29-08-2018 08:05:00 10.7 C 91 % 9.29 C
387 29-08-2018 08:10:00 10.8 C 90 % 9.23 C
388 29-08-2018 08:15:00 10.8 C 90 % 9.23 C
389 29-08-2018 08:20:00 10.9 C 90 % 9.33 C
390 29-08-2018 08:25:00 10.9 C 90 % 9.33 C
391 29-08-2018 08:30:00 11 C 90 % 9.42 C
392 29-08-2018 08:35:00 11.1 C 90 % 9.52 C
393 29-08-2018 08:40:00 11.2 C 90 % 9.62 C
394 29-08-2018 08:45:00 11.3 C 90 % 9.72 C
395 29-08-2018 08:50:00 11.4 C 90 % 9.82 C
396 29-08-2018 08:55:00 11.5 C 90 % 9.92 C
397 29-08-2018 09:00:00 11.6 C 90 % 10.02 C
398 29-08-2018 09:05:00 11.7 C 90 % 10.12 C
399 29-08-2018 09:10:00 11.7 C 90 % 10.12 C
400 29-08-2018 09:15:00 11.8 C 90 % 10.21 C
Sensor: Nr:Datum:Temp:Feuchte:Taupunkt:
Aussen-T/F 401 29-08-2018 09:20:00 11.9 C 90 % 10.31 C
402 29-08-2018 09:25:00 12.1 C 90 % 10.51 C
403 29-08-2018 09:30:00 12.2 C 89 % 10.44 C
404 29-08-2018 09:35:00 12.3 C 90 % 10.71 C
405 29-08-2018 09:40:00 12.5 C 90 % 10.91 C
406 29-08-2018 09:45:00 12.7 C 90 % 11.1 C
407 29-08-2018 09:50:00 12.8 C 89 % 11.03 C
408 29-08-2018 09:55:00 13.1 C 89 % 11.33 C
409 29-08-2018 10:00:00 13.3 C 89 % 11.53 C
410 29-08-2018 10:05:00 13.6 C 89 % 11.82 C
411 29-08-2018 10:10:00 13.8 C 88 % 11.85 C
412 29-08-2018 10:15:00 14.1 C 87 % 11.97 C
413 29-08-2018 10:20:00 14.4 C 87 % 12.27 C
414 29-08-2018 10:25:00 14.7 C 86 % 12.38 C
415 29-08-2018 10:30:00 15 C 86 % 12.68 C
416 29-08-2018 10:35:00 15.3 C 84 % 12.61 C
417 29-08-2018 10:40:00 15.7 C 84 % 13.01 C
418 29-08-2018 10:45:00 15.9 C 83 % 13.02 C
419 29-08-2018 10:50:00 16.3 C 81 % 13.04 C
420 29-08-2018 10:55:00 16.5 C 80 % 13.04 C
421 29-08-2018 11:00:00 16.7 C 78 % 12.85 C
422 29-08-2018 11:05:00 17.1 C 78 % 13.24 C
423 29-08-2018 11:10:00 17.4 C 77 % 13.33 C
424 29-08-2018 11:15:00 17.7 C 75 % 13.22 C
425 29-08-2018 11:20:00 18.1 C 74 % 13.4 C
Sensor: Nr:Datum:Temp:Feuchte:Taupunkt:
Aussen-T/F 426 29-08-2018 11:25:00 18.4 C 72 % 13.26 C
427 29-08-2018 11:30:00 18.7 C 72 % 13.55 C
428 29-08-2018 11:35:00 19.1 C 70 % 13.5 C
429 29-08-2018 11:40:00 19.4 C 66 % 12.89 C
430 29-08-2018 11:45:00 19.8 C 68 % 13.73 C
431 29-08-2018 11:50:00 20.2 C 66 % 13.65 C
432 29-08-2018 11:55:00 20.7 C 63 % 13.41 C
433 29-08-2018 12:00:00 21.1 C 62 % 13.54 C
434 29-08-2018 12:05:00 21.6 C 61 % 13.76 C
435 29-08-2018 12:10:00 21.9 C 61 % 14.04 C
436 29-08-2018 12:15:00 22.2 C 58 % 13.55 C
437 29-08-2018 12:20:00 22.6 C 56 % 13.38 C
438 29-08-2018 12:25:00 22.9 C 58 % 14.2 C
439 29-08-2018 12:30:00 23.2 C 55 % 13.66 C
440 29-08-2018 12:35:00 23.5 C 55 % 13.94 C
441 29-08-2018 12:40:00 23.7 C 54 % 13.84 C
442 29-08-2018 12:45:00 24.1 C 54 % 14.21 C
443 29-08-2018 12:50:00 24.4 C 53 % 14.2 C
444 29-08-2018 12:55:00 24.7 C 52 % 14.19 C
445 29-08-2018 13:00:00 24.9 C 52 % 14.37 C
446 29-08-2018 13:05:00 25.1 C 50 % 13.95 C
447 29-08-2018 13:10:00 25.3 C 50 % 14.13 C
448 29-08-2018 13:15:00 25.6 C 50 % 14.41 C
449 29-08-2018 13:20:00 25.7 C 50 % 14.5 C
450 29-08-2018 13:25:00 25.8 C 50 % 14.59 C
Sensor: Nr:Datum:Temp:Feuchte:Taupunkt:
Aussen-T/F 451 29-08-2018 13:30:00 25.9 C 50 % 14.68 C
452 29-08-2018 13:35:00 25.9 C 49 % 14.37 C
453 29-08-2018 13:40:00 26.1 C 51 % 15.17 C
454 29-08-2018 13:45:00 26.1 C 49 % 14.55 C
455 29-08-2018 13:50:00 26.2 C 48 % 14.32 C
456 29-08-2018 13:55:00 26.2 C 50 % 14.96 C
457 29-08-2018 14:00:00 26.2 C 51 % 15.27 C
458 29-08-2018 14:05:00 26.3 C 50 % 15.05 C
459 29-08-2018 14:10:00 26.3 C 48 % 14.42 C
460 29-08-2018 14:15:00 26.5 C 47 % 14.27 C
461 29-08-2018 14:20:00 26.7 C 47 % 14.45 C
462 29-08-2018 14:25:00 26.8 C 47 % 14.55 C
463 29-08-2018 14:30:00 27 C 46 % 14.39 C
464 29-08-2018 14:35:00 27.2 C 46 % 14.58 C
465 29-08-2018 14:40:00 27.3 C 46 % 14.67 C
466 29-08-2018 14:45:00 27.4 C 45 % 14.42 C
467 29-08-2018 14:50:00 27.7 C 45 % 14.69 C
468 29-08-2018 14:55:00 28.1 C 44 % 14.7 C
469 29-08-2018 15:00:00 28.2 C 43 % 14.44 C
470 29-08-2018 15:05:00 28.2 C 44 % 14.79 C
471 29-08-2018 15:10:00 28.1 C 47 % 15.73 C
472 29-08-2018 15:15:00 27.9 C 44 % 14.52 C
473 29-08-2018 15:20:00 27.9 C 48 % 15.87 C
474 29-08-2018 15:25:00 27.8 C 45 % 14.78 C
475 29-08-2018 15:30:00 27.7 C 47 % 15.36 C
Sensor: Nr:Datum:Temp:Feuchte:Taupunkt:
Aussen-T/F 476 29-08-2018 15:35:00 27.6 C 49 % 15.92 C
477 29-08-2018 15:40:00 27.3 C 50 % 15.97 C
478 29-08-2018 15:45:00 26.9 C 49 % 15.28 C
479 29-08-2018 15:50:00 26.6 C 50 % 15.32 C
480 29-08-2018 15:55:00 26.2 C 53 % 15.87 C
481 29-08-2018 16:00:00 25.2 C 63 % 17.65 C
482 29-08-2018 16:05:00 23.9 C 71 % 18.32 C
483 29-08-2018 16:10:00 22.8 C 75 % 18.14 C
484 29-08-2018 16:15:00 22.1 C 79 % 18.29 C
485 29-08-2018 16:20:00 21.6 C 82 % 18.39 C
486 29-08-2018 16:25:00 21.3 C 84 % 18.49 C
487 29-08-2018 16:30:00 21.2 C 84 % 18.39 C
488 29-08-2018 16:35:00 20.9 C 85 % 18.28 C
489 29-08-2018 16:40:00 20.8 C 86 % 18.37 C
490 29-08-2018 16:45:00 20.7 C 87 % 18.46 C
491 29-08-2018 16:50:00 20.6 C 87 % 18.36 C
492 29-08-2018 16:55:00 20.4 C 88 % 18.34 C
493 29-08-2018 17:00:00 20.3 C 88 % 18.25 C
494 29-08-2018 17:05:00 20.3 C 88 % 18.25 C
495 29-08-2018 17:10:00 20.2 C 88 % 18.15 C
496 29-08-2018 17:15:00 20.1 C 88 % 18.05 C
497 29-08-2018 17:20:00 20.1 C 89 % 18.23 C
498 29-08-2018 17:25:00 20 C 89 % 18.13 C
499 29-08-2018 17:30:00 20 C 89 % 18.13 C
500 29-08-2018 17:35:00 19.9 C 89 % 18.03 C
Sensor: Nr:Datum:Temp:Feuchte:Taupunkt:
Aussen-T/F 501 29-08-2018 17:40:00 19.9 C 90 % 18.21 C
502 29-08-2018 17:45:00 20 C 90 % 18.31 C
503 29-08-2018 17:50:00 20.1 C 90 % 18.41 C
504 29-08-2018 17:55:00 20.2 C 91 % 18.68 C
505 29-08-2018 18:00:00 20.4 C 91 % 18.88 C
506 29-08-2018 18:05:00 20.8 C 92 % 19.45 C
507 29-08-2018 18:10:00 21.5 C 91 % 19.97 C
508 29-08-2018 18:15:00 21.9 C 88 % 19.82 C
509 29-08-2018 18:20:00 22.4 C 86 % 19.94 C
510 29-08-2018 18:25:00 22.8 C 83 % 19.76 C
511 29-08-2018 18:30:00 23 C 84 % 20.15 C
512 29-08-2018 18:35:00 23.1 C 83 % 20.05 C
513 29-08-2018 18:40:00 22.9 C 82 % 19.66 C
514 29-08-2018 18:45:00 22.6 C 81 % 19.17 C
515 29-08-2018 18:50:00 22.2 C 82 % 18.98 C
516 29-08-2018 18:55:00 21.9 C 82 % 18.69 C
517 29-08-2018 19:00:00 21.6 C 83 % 18.59 C
518 29-08-2018 19:05:00 21.2 C 84 % 18.39 C
519 29-08-2018 19:10:00 20.9 C 85 % 18.28 C
520 29-08-2018 19:15:00 20.7 C 86 % 18.27 C
521 29-08-2018 19:20:00 20.5 C 86 % 18.08 C
522 29-08-2018 19:25:00 20.3 C 87 % 18.06 C
523 29-08-2018 19:30:00 20.2 C 87 % 17.97 C
524 29-08-2018 19:35:00 20 C 87 % 17.77 C
525 29-08-2018 19:40:00 19.9 C 88 % 17.85 C
Sensor: Nr:Datum:Temp:Feuchte:Taupunkt:
Aussen-T/F 526 29-08-2018 19:45:00 19.8 C 88 % 17.75 C
527 29-08-2018 19:50:00 19.7 C 89 % 17.84 C
528 29-08-2018 19:55:00 19.6 C 89 % 17.74 C
529 29-08-2018 20:00:00 19.6 C 89 % 17.74 C
530 29-08-2018 20:05:00 19.5 C 89 % 17.64 C
531 29-08-2018 20:10:00 19.4 C 90 % 17.72 C
532 29-08-2018 20:15:00 19.4 C 90 % 17.72 C
533 29-08-2018 20:20:00 19.3 C 90 % 17.62 C
534 29-08-2018 20:25:00 19.3 C 90 % 17.62 C
535 29-08-2018 20:30:00 19.3 C 90 % 17.62 C
536 29-08-2018 20:35:00 19.3 C 91 % 17.79 C
537 29-08-2018 20:40:00 19.3 C 91 % 17.79 C
538 29-08-2018 20:45:00 19.3 C 92 % 17.97 C
539 29-08-2018 20:50:00 19.3 C 92 % 17.97 C
540 29-08-2018 20:55:00 19 C 91 % 17.5 C
541 29-08-2018 21:00:00 18.7 C 91 % 17.2 C
542 29-08-2018 21:05:00 18.6 C 91 % 17.1 C
543 29-08-2018 21:10:00 18.4 C 91 % 16.9 C
544 29-08-2018 21:15:00 18.3 C 92 % 16.98 C
545 29-08-2018 21:20:00 18.2 C 92 % 16.88 C
546 29-08-2018 21:25:00 18.2 C 92 % 16.88 C
547 29-08-2018 21:30:00 18.1 C 92 % 16.78 C
548 29-08-2018 21:35:00 18 C 92 % 16.68 C
549 29-08-2018 21:40:00 17.9 C 92 % 16.58 C
550 29-08-2018 21:45:00 17.9 C 92 % 16.58 C
Sensor: Nr:Datum:Temp:Feuchte:Taupunkt:
Aussen-T/F 551 29-08-2018 21:50:00 17.9 C 93 % 16.75 C
552 29-08-2018 21:55:00 17.8 C 93 % 16.65 C
553 29-08-2018 22:00:00 17.8 C 93 % 16.65 C
554 29-08-2018 22:05:00 17.8 C 93 % 16.65 C
555 29-08-2018 22:10:00 17.8 C 93 % 16.65 C
556 29-08-2018 22:15:00 17.7 C 93 % 16.55 C
557 29-08-2018 22:20:00 17.7 C 93 % 16.55 C
558 29-08-2018 22:25:00 17.7 C 93 % 16.55 C
559 29-08-2018 22:30:00 17.7 C 94 % 16.72 C
560 29-08-2018 22:35:00 17.7 C 93 % 16.55 C
561 29-08-2018 22:40:00 17.7 C 94 % 16.72 C
562 29-08-2018 22:45:00 17.7 C 94 % 16.72 C
563 29-08-2018 22:50:00 17.6 C 94 % 16.62 C
564 29-08-2018 22:55:00 17.6 C 94 % 16.62 C
565 29-08-2018 23:00:00 17.6 C 94 % 16.62 C
566 29-08-2018 23:05:00 17.5 C 94 % 16.52 C
567 29-08-2018 23:10:00 17.4 C 94 % 16.42 C
568 29-08-2018 23:15:00 17.3 C 94 % 16.33 C
569 29-08-2018 23:20:00 17.3 C 94 % 16.33 C
570 29-08-2018 23:25:00 17.2 C 94 % 16.23 C
571 29-08-2018 23:30:00 17.2 C 94 % 16.23 C
572 29-08-2018 23:35:00 17.2 C 94 % 16.23 C
573 29-08-2018 23:40:00 17.2 C 94 % 16.23 C
574 29-08-2018 23:45:00 17.2 C 94 % 16.23 C
575 29-08-2018 23:50:00 17.2 C 94 % 16.23 C
Sensor: Nr:Datum:Temp:Feuchte:Taupunkt:
Aussen-T/F 576 29-08-2018 23:55:00 17.2 C 94 % 16.23 C
577 30-08-2018 00:00:00 17.2 C 94 % 16.23 C
578 30-08-2018 00:05:00 17.2 C 94 % 16.23 C
579 30-08-2018 00:10:00 17.2 C 94 % 16.23 C
580 30-08-2018 00:15:00 17.2 C 95 % 16.39 C
581 30-08-2018 00:20:00 17.3 C 95 % 16.49 C
582 30-08-2018 00:25:00 17.3 C 95 % 16.49 C
583 30-08-2018 00:30:00 17.2 C 95 % 16.39 C
584 30-08-2018 00:35:00 17.2 C 95 % 16.39 C
585 30-08-2018 00:40:00 17.2 C 95 % 16.39 C
586 30-08-2018 00:45:00 17.1 C 95 % 16.29 C
587 30-08-2018 00:50:00 17.1 C 94 % 16.13 C
588 30-08-2018 00:55:00 16.9 C 94 % 15.93 C
589 30-08-2018 01:00:00 16.9 C 94 % 15.93 C
590 30-08-2018 01:05:00 16.9 C 95 % 16.09 C
591 30-08-2018 01:10:00 16.8 C 95 % 15.99 C
592 30-08-2018 01:15:00 16.7 C 95 % 15.9 C
593 30-08-2018 01:20:00 16.7 C 94 % 15.73 C
594 30-08-2018 01:25:00 16.6 C 94 % 15.63 C
595 30-08-2018 01:30:00 16.6 C 94 % 15.63 C
596 30-08-2018 01:35:00 16.4 C 94 % 15.43 C
597 30-08-2018 01:40:00 16.3 C 94 % 15.33 C
598 30-08-2018 01:45:00 16.2 C 93 % 15.07 C
599 30-08-2018 01:50:00 16.1 C 93 % 14.97 C
600 30-08-2018 01:55:00 16 C 93 % 14.87 C
Sensor: Nr:Datum:Temp:Feuchte:Taupunkt:
Aussen-T/F 601 30-08-2018 02:00:00 16 C 93 % 14.87 C
602 30-08-2018 02:05:00 15.9 C 92 % 14.6 C
603 30-08-2018 02:10:00 16 C 92 % 14.7 C
604 30-08-2018 02:15:00 16 C 92 % 14.7 C
605 30-08-2018 02:20:00 16 C 92 % 14.7 C
606 30-08-2018 02:25:00 15.9 C 92 % 14.6 C
607 30-08-2018 02:30:00 15.9 C 91 % 14.43 C
608 30-08-2018 02:35:00 15.9 C 92 % 14.6 C
609 30-08-2018 02:40:00 15.9 C 92 % 14.6 C
610 30-08-2018 02:45:00 15.9 C 92 % 14.6 C
611 30-08-2018 02:50:00 15.9 C 92 % 14.6 C
612 30-08-2018 02:55:00 15.9 C 92 % 14.6 C
613 30-08-2018 03:00:00 15.9 C 91 % 14.43 C
614 30-08-2018 03:05:00 15.9 C 91 % 14.43 C
615 30-08-2018 03:10:00 15.9 C 91 % 14.43 C
616 30-08-2018 03:15:00 15.9 C 91 % 14.43 C
617 30-08-2018 03:20:00 15.9 C 91 % 14.43 C
618 30-08-2018 03:25:00 15.9 C 91 % 14.43 C
619 30-08-2018 03:30:00 15.9 C 91 % 14.43 C
620 30-08-2018 03:35:00 15.9 C 91 % 14.43 C
621 30-08-2018 03:40:00 15.8 C 91 % 14.33 C
622 30-08-2018 03:45:00 15.8 C 91 % 14.33 C
623 30-08-2018 03:50:00 15.8 C 91 % 14.33 C
624 30-08-2018 03:55:00 15.7 C 91 % 14.24 C
625 30-08-2018 04:00:00 15.7 C 90 % 14.06 C
Sensor: Nr:Datum:Temp:Feuchte:Taupunkt:
Aussen-T/F 626 30-08-2018 04:05:00 15.6 C 90 % 13.97 C
627 30-08-2018 04:10:00 15.6 C 90 % 13.97 C
628 30-08-2018 04:15:00 15.6 C 90 % 13.97 C
629 30-08-2018 04:20:00 15.6 C 90 % 13.97 C
630 30-08-2018 04:25:00 15.6 C 90 % 13.97 C
631 30-08-2018 04:30:00 15.6 C 90 % 13.97 C
632 30-08-2018 04:35:00 15.6 C 90 % 13.97 C
633 30-08-2018 04:40:00 15.6 C 90 % 13.97 C
634 30-08-2018 04:45:00 15.6 C 90 % 13.97 C
635 30-08-2018 04:50:00 15.6 C 90 % 13.97 C
636 30-08-2018 04:55:00 15.6 C 90 % 13.97 C
637 30-08-2018 05:00:00 15.5 C 90 % 13.87 C
638 30-08-2018 05:05:00 15.5 C 90 % 13.87 C
639 30-08-2018 05:10:00 15.5 C 90 % 13.87 C
640 30-08-2018 05:15:00 15.4 C 90 % 13.77 C
641 30-08-2018 05:20:00 15.4 C 90 % 13.77 C
642 30-08-2018 05:25:00 15.4 C 90 % 13.77 C
643 30-08-2018 05:30:00 15.4 C 90 % 13.77 C
644 30-08-2018 05:35:00 15.4 C 89 % 13.6 C
645 30-08-2018 05:40:00 15.3 C 89 % 13.5 C
646 30-08-2018 05:45:00 15.3 C 89 % 13.5 C
647 30-08-2018 05:50:00 15.3 C 89 % 13.5 C
648 30-08-2018 05:55:00 15.3 C 89 % 13.5 C
649 30-08-2018 06:00:00 15.2 C 90 % 13.57 C
650 30-08-2018 06:05:00 15.2 C 90 % 13.57 C
Sensor: Nr:Datum:Temp:Feuchte:Taupunkt:
Aussen-T/F 651 30-08-2018 06:10:00 15.2 C 90 % 13.57 C
652 30-08-2018 06:15:00 15.2 C 90 % 13.57 C
653 30-08-2018 06:20:00 15.1 C 90 % 13.47 C
654 30-08-2018 06:25:00 15.1 C 90 % 13.47 C
655 30-08-2018 06:30:00 15.2 C 90 % 13.57 C
656 30-08-2018 06:35:00 15.1 C 90 % 13.47 C
657 30-08-2018 06:40:00 15.1 C 90 % 13.47 C
658 30-08-2018 06:45:00 15.1 C 90 % 13.47 C
659 30-08-2018 06:50:00 15.1 C 90 % 13.47 C
660 30-08-2018 06:55:00 15.1 C 90 % 13.47 C
661 30-08-2018 07:00:00 15.1 C 90 % 13.47 C
662 30-08-2018 07:05:00 15.1 C 90 % 13.47 C
663 30-08-2018 07:10:00 15.1 C 90 % 13.47 C
664 30-08-2018 07:15:00 15.1 C 90 % 13.47 C
665 30-08-2018 07:20:00 15.1 C 90 % 13.47 C
666 30-08-2018 07:25:00 15.1 C 90 % 13.47 C
667 30-08-2018 07:30:00 15.1 C 90 % 13.47 C
668 30-08-2018 07:35:00 15.1 C 90 % 13.47 C
669 30-08-2018 07:40:00 15.1 C 90 % 13.47 C
670 30-08-2018 07:45:00 15.1 C 89 % 13.3 C
671 30-08-2018 07:50:00 15.2 C 89 % 13.4 C
672 30-08-2018 07:55:00 15.2 C 89 % 13.4 C
673 30-08-2018 08:00:00 15.3 C 89 % 13.5 C
674 30-08-2018 08:05:00 15.3 C 89 % 13.5 C
675 30-08-2018 08:10:00 15.3 C 89 % 13.5 C
Sensor: Nr:Datum:Temp:Feuchte:Taupunkt:
Aussen-T/F 676 30-08-2018 08:15:00 15.4 C 89 % 13.6 C
677 30-08-2018 08:20:00 15.4 C 89 % 13.6 C
678 30-08-2018 08:25:00 15.5 C 88 % 13.52 C
679 30-08-2018 08:30:00 15.6 C 88 % 13.62 C
680 30-08-2018 08:35:00 15.6 C 88 % 13.62 C
681 30-08-2018 08:40:00 15.7 C 88 % 13.72 C
682 30-08-2018 08:45:00 15.8 C 89 % 13.99 C
683 30-08-2018 08:50:00 15.9 C 88 % 13.92 C
684 30-08-2018 08:55:00 16 C 88 % 14.01 C
685 30-08-2018 09:00:00 16 C 87 % 13.84 C
686 30-08-2018 09:05:00 16.1 C 87 % 13.94 C
687 30-08-2018 09:10:00 16.1 C 87 % 13.94 C
688 30-08-2018 09:15:00 16.1 C 86 % 13.76 C
689 30-08-2018 09:20:00 16.2 C 86 % 13.86 C
690 30-08-2018 09:25:00 16.2 C 86 % 13.86 C
691 30-08-2018 09:30:00 16.2 C 86 % 13.86 C
692 30-08-2018 09:35:00 16.2 C 86 % 13.86 C
693 30-08-2018 09:40:00 16.2 C 86 % 13.86 C
694 30-08-2018 09:45:00 16.2 C 86 % 13.86 C
695 30-08-2018 09:50:00 16.2 C 86 % 13.86 C
696 30-08-2018 09:55:00 16.3 C 86 % 13.95 C
697 30-08-2018 10:00:00 16.3 C 85 % 13.77 C
698 30-08-2018 10:05:00 16.4 C 84 % 13.69 C
699 30-08-2018 10:10:00 16.5 C 85 % 13.97 C
700 30-08-2018 10:15:00 16.7 C 84 % 13.98 C
Sensor: Nr:Datum:Temp:Feuchte:Taupunkt:
Aussen-T/F 701 30-08-2018 10:20:00 16.8 C 82 % 13.71 C
702 30-08-2018 10:25:00 16.9 C 82 % 13.81 C
703 30-08-2018 10:30:00 17.1 C 81 % 13.82 C
704 30-08-2018 10:35:00 17.2 C 81 % 13.91 C
705 30-08-2018 10:40:00 17.3 C 81 % 14.01 C
706 30-08-2018 10:45:00 17.3 C 80 % 13.82 C
707 30-08-2018 10:50:00 17.3 C 80 % 13.82 C
708 30-08-2018 10:55:00 17.3 C 80 % 13.82 C
709 30-08-2018 11:00:00 17.4 C 80 % 13.92 C
710 30-08-2018 11:05:00 17.5 C 80 % 14.01 C
711 30-08-2018 11:10:00 17.6 C 79 % 13.92 C
712 30-08-2018 11:15:00 17.6 C 80 % 14.11 C
713 30-08-2018 11:20:00 17.7 C 79 % 14.01 C
714 30-08-2018 11:25:00 17.8 C 79 % 14.11 C
715 30-08-2018 11:30:00 17.8 C 78 % 13.91 C
716 30-08-2018 11:35:00 17.8 C 78 % 13.91 C
717 30-08-2018 11:40:00 17.7 C 76 % 13.42 C
718 30-08-2018 11:45:00 17.7 C 76 % 13.42 C
719 30-08-2018 11:50:00 17.8 C 76 % 13.52 C
720 30-08-2018 11:55:00 17.9 C 75 % 13.41 C
721 30-08-2018 12:00:00 18 C 76 % 13.71 C
722 30-08-2018 12:05:00 18.1 C 75 % 13.6 C
723 30-08-2018 12:10:00 18.2 C 76 % 13.9 C
724 30-08-2018 12:15:00 18.3 C 76 % 14 C
725 30-08-2018 12:20:00 18.4 C 75 % 13.89 C
Sensor: Nr:Datum:Temp:Feuchte:Taupunkt:
Aussen-T/F 726 30-08-2018 12:25:00 18.5 C 74 % 13.78 C
727 30-08-2018 12:30:00 18.6 C 74 % 13.88 C
728 30-08-2018 12:35:00 18.8 C 73 % 13.86 C
729 30-08-2018 12:40:00 18.9 C 73 % 13.96 C
730 30-08-2018 12:45:00 19.1 C 72 % 13.94 C
731 30-08-2018 12:50:00 19.1 C 71 % 13.72 C
732 30-08-2018 12:55:00 19.2 C 70 % 13.6 C
733 30-08-2018 13:00:00 19.1 C 69 % 13.28 C
734 30-08-2018 13:05:00 19.1 C 68 % 13.06 C
735 30-08-2018 13:10:00 18.9 C 67 % 12.64 C
736 30-08-2018 13:15:00 18.9 C 67 % 12.64 C
737 30-08-2018 13:20:00 19.1 C 67 % 12.83 C
738 30-08-2018 13:25:00 19.3 C 63 % 12.09 C
739 30-08-2018 13:30:00 19.4 C 61 % 11.69 C
740 30-08-2018 13:35:00 19.5 C 62 % 12.03 C
741 30-08-2018 13:40:00 19.4 C 63 % 12.18 C
742 30-08-2018 13:45:00 19.5 C 64 % 12.51 C
743 30-08-2018 13:50:00 19.6 C 65 % 12.84 C
744 30-08-2018 13:55:00 19.6 C 59 % 11.37 C
745 30-08-2018 14:00:00 19.4 C 59 % 11.19 C
746 30-08-2018 14:05:00 19.4 C 60 % 11.44 C
747 30-08-2018 14:10:00 19.4 C 63 % 12.18 C
748 30-08-2018 14:15:00 19.6 C 63 % 12.37 C
749 30-08-2018 14:20:00 19.6 C 62 % 12.13 C
750 30-08-2018 14:25:00 19.6 C 65 % 12.84 C
Sensor: Nr:Datum:Temp:Feuchte:Taupunkt:
Aussen-T/F 751 30-08-2018 14:30:00 19.7 C 62 % 12.22 C
752 30-08-2018 14:35:00 19.8 C 63 % 12.56 C
753 30-08-2018 14:40:00 20 C 60 % 12 C
754 30-08-2018 14:45:00 20.1 C 60 % 12.1 C
755 30-08-2018 14:50:00 20.2 C 58 % 11.68 C
756 30-08-2018 14:55:00 20.5 C 57 % 11.7 C
757 30-08-2018 15:00:00 20.6 C 56 % 11.52 C
758 30-08-2018 15:05:00 20.7 C 55 % 11.34 C
759 30-08-2018 15:10:00 20.7 C 53 % 10.78 C
760 30-08-2018 15:15:00 20.6 C 54 % 10.97 C
761 30-08-2018 15:20:00 20.6 C 54 % 10.97 C
762 30-08-2018 15:25:00 20.5 C 54 % 10.88 C
763 30-08-2018 15:30:00 20.4 C 53 % 10.51 C
764 30-08-2018 15:35:00 20.4 C 54 % 10.79 C
765 30-08-2018 15:40:00 20.6 C 53 % 10.69 C
766 30-08-2018 15:45:00 20.6 C 53 % 10.69 C
767 30-08-2018 15:50:00 20.4 C 53 % 10.51 C
768 30-08-2018 15:55:00 20.3 C 54 % 10.69 C
769 30-08-2018 16:00:00 20.3 C 56 % 11.24 C
770 30-08-2018 16:05:00 20.3 C 54 % 10.69 C
771 30-08-2018 16:10:00 20.4 C 54 % 10.79 C
772 30-08-2018 16:15:00 20.4 C 53 % 10.51 C
773 30-08-2018 16:20:00 20.6 C 53 % 10.69 C
774 30-08-2018 16:25:00 20.8 C 52 % 10.59 C
775 30-08-2018 16:30:00 21.2 C 50 % 10.37 C
Sensor: Nr:Datum:Temp:Feuchte:Taupunkt:
Aussen-T/F 776 30-08-2018 16:35:00 21.3 C 50 % 10.46 C
777 30-08-2018 16:40:00 21.5 C 50 % 10.65 C
778 30-08-2018 16:45:00 21.4 C 49 % 10.25 C
779 30-08-2018 16:50:00 21.6 C 50 % 10.74 C
780 30-08-2018 16:55:00 21.6 C 48 % 10.13 C
781 30-08-2018 17:00:00 21.4 C 49 % 10.25 C
782 30-08-2018 17:05:00 21.6 C 50 % 10.74 C
783 30-08-2018 17:10:00 21.8 C 47 % 9.99 C
784 30-08-2018 17:15:00 21.9 C 48 % 10.4 C
785 30-08-2018 17:20:00 21.9 C 47 % 10.09 C
786 30-08-2018 17:25:00 21.9 C 48 % 10.4 C
787 30-08-2018 17:30:00 21.9 C 47 % 10.09 C
788 30-08-2018 17:35:00 21.8 C 48 % 10.31 C
789 30-08-2018 17:40:00 22.1 C 47 % 10.27 C
790 30-08-2018 17:45:00 22.2 C 47 % 10.36 C
791 30-08-2018 17:50:00 22.2 C 46 % 10.04 C
792 30-08-2018 17:55:00 22.2 C 47 % 10.36 C
793 30-08-2018 18:00:00 21.9 C 46 % 9.77 C
794 30-08-2018 18:05:00 21.7 C 46 % 9.58 C
795 30-08-2018 18:10:00 21.4 C 47 % 9.63 C
796 30-08-2018 18:15:00 21.4 C 46 % 9.31 C
797 30-08-2018 18:20:00 21.3 C 46 % 9.22 C
798 30-08-2018 18:25:00 21.3 C 46 % 9.22 C
799 30-08-2018 18:30:00 21.3 C 47 % 9.54 C
800 30-08-2018 18:35:00 21.4 C 46 % 9.31 C
Sensor: Nr:Datum:Temp:Feuchte:Taupunkt:
Aussen-T/F 801 30-08-2018 18:40:00 21.3 C 46 % 9.22 C
802 30-08-2018 18:45:00 21.2 C 46 % 9.13 C
803 30-08-2018 18:50:00 21 C 48 % 9.58 C
804 30-08-2018 18:55:00 20.9 C 50 % 10.1 C
805 30-08-2018 19:00:00 20.9 C 49 % 9.79 C
806 30-08-2018 19:05:00 20.8 C 46 % 8.77 C
807 30-08-2018 19:10:00 20.6 C 48 % 9.21 C
808 30-08-2018 19:15:00 20.4 C 47 % 8.72 C
809 30-08-2018 19:20:00 20.2 C 48 % 8.85 C
810 30-08-2018 19:25:00 20.1 C 48 % 8.76 C
811 30-08-2018 19:30:00 19.9 C 49 % 8.88 C
812 30-08-2018 19:35:00 19.7 C 49 % 8.7 C
813 30-08-2018 19:40:00 19.6 C 49 % 8.6 C
814 30-08-2018 19:45:00 19.4 C 49 % 8.42 C
815 30-08-2018 19:50:00 19.3 C 49 % 8.33 C
816 30-08-2018 19:55:00 19.2 C 50 % 8.53 C
817 30-08-2018 20:00:00 19 C 52 % 8.93 C
818 30-08-2018 20:05:00 18.7 C 55 % 9.48 C
819 30-08-2018 20:10:00 18.3 C 58 % 9.9 C
820 30-08-2018 20:15:00 17.9 C 59 % 9.78 C
821 30-08-2018 20:20:00 17.5 C 58 % 9.15 C
822 30-08-2018 20:25:00 17.2 C 62 % 9.86 C
823 30-08-2018 20:30:00 16.8 C 64 % 9.96 C
824 30-08-2018 20:35:00 16.6 C 64 % 9.77 C
825 30-08-2018 20:40:00 16.3 C 65 % 9.71 C
Sensor: Nr:Datum:Temp:Feuchte:Taupunkt:
Aussen-T/F 826 30-08-2018 20:45:00 15.9 C 65 % 9.34 C
827 30-08-2018 20:50:00 15.7 C 66 % 9.37 C
828 30-08-2018 20:55:00 15.5 C 67 % 9.41 C
829 30-08-2018 21:00:00 15.3 C 67 % 9.21 C
830 30-08-2018 21:05:00 15.3 C 68 % 9.43 C
831 30-08-2018 21:10:00 15.2 C 68 % 9.34 C
832 30-08-2018 21:15:00 15.1 C 69 % 9.46 C
833 30-08-2018 21:20:00 15 C 70 % 9.58 C
834 30-08-2018 21:25:00 14.9 C 70 % 9.48 C
835 30-08-2018 21:30:00 14.8 C 70 % 9.39 C
836 30-08-2018 21:35:00 14.8 C 71 % 9.6 C
837 30-08-2018 21:40:00 14.7 C 71 % 9.5 C
838 30-08-2018 21:45:00 14.6 C 71 % 9.41 C
839 30-08-2018 21:50:00 14.6 C 71 % 9.41 C
840 30-08-2018 21:55:00 14.5 C 73 % 9.72 C
841 30-08-2018 22:00:00 14.4 C 74 % 9.83 C
842 30-08-2018 22:05:00 14.3 C 73 % 9.53 C
843 30-08-2018 22:10:00 14.2 C 74 % 9.64 C
844 30-08-2018 22:15:00 14.1 C 75 % 9.74 C
845 30-08-2018 22:20:00 13.9 C 75 % 9.55 C
846 30-08-2018 22:25:00 13.7 C 76 % 9.55 C
847 30-08-2018 22:30:00 13.5 C 77 % 9.55 C
848 30-08-2018 22:35:00 13.3 C 78 % 9.55 C
849 30-08-2018 22:40:00 13.2 C 78 % 9.45 C
850 30-08-2018 22:45:00 13 C 79 % 9.45 C
Sensor: Nr:Datum:Temp:Feuchte:Taupunkt:
Aussen-T/F 851 30-08-2018 22:50:00 12.8 C 79 % 9.25 C
852 30-08-2018 22:55:00 12.7 C 79 % 9.16 C
853 30-08-2018 23:00:00 12.7 C 80 % 9.34 C
854 30-08-2018 23:05:00 12.6 C 80 % 9.25 C
855 30-08-2018 23:10:00 12.6 C 81 % 9.43 C
856 30-08-2018 23:15:00 12.5 C 80 % 9.15 C
857 30-08-2018 23:20:00 12.4 C 81 % 9.23 C
858 30-08-2018 23:25:00 12.3 C 81 % 9.14 C
859 30-08-2018 23:30:00 12.3 C 81 % 9.14 C
860 30-08-2018 23:35:00 12.2 C 82 % 9.22 C
861 30-08-2018 23:40:00 12.2 C 82 % 9.22 C
862 30-08-2018 23:45:00 12.2 C 82 % 9.22 C
863 30-08-2018 23:50:00 12.2 C 82 % 9.22 C
864 30-08-2018 23:55:00 12.2 C 82 % 9.22 C
865 31-08-2018 00:00:00 12.1 C 82 % 9.12 C
866 31-08-2018 00:05:00 12.1 C 83 % 9.3 C
867 31-08-2018 00:10:00 12.1 C 83 % 9.3 C
868 31-08-2018 00:15:00 12.1 C 83 % 9.3 C
869 31-08-2018 00:20:00 12.1 C 84 % 9.48 C
870 31-08-2018 00:25:00 12.1 C 84 % 9.48 C
871 31-08-2018 00:30:00 12 C 84 % 9.38 C
872 31-08-2018 00:35:00 12 C 83 % 9.21 C
873 31-08-2018 00:40:00 11.9 C 83 % 9.11 C
874 31-08-2018 00:45:00 11.9 C 84 % 9.29 C
875 31-08-2018 00:50:00 11.8 C 84 % 9.19 C
Sensor: Nr:Datum:Temp:Feuchte:Taupunkt:
Aussen-T/F 876 31-08-2018 00:55:00 11.7 C 84 % 9.09 C
877 31-08-2018 01:00:00 11.7 C 84 % 9.09 C
878 31-08-2018 01:05:00 11.6 C 84 % 8.99 C
879 31-08-2018 01:10:00 11.6 C 85 % 9.17 C
880 31-08-2018 01:15:00 11.5 C 85 % 9.07 C
881 31-08-2018 01:20:00 11.5 C 85 % 9.07 C
882 31-08-2018 01:25:00 11.4 C 85 % 8.97 C
883 31-08-2018 01:30:00 11.4 C 85 % 8.97 C
884 31-08-2018 01:35:00 11.3 C 86 % 9.05 C
885 31-08-2018 01:40:00 11.3 C 86 % 9.05 C
886 31-08-2018 01:45:00 11.3 C 86 % 9.05 C
887 31-08-2018 01:50:00 11.3 C 86 % 9.05 C
888 31-08-2018 01:55:00 11.3 C 86 % 9.05 C
889 31-08-2018 02:00:00 11.3 C 87 % 9.22 C
890 31-08-2018 02:05:00 11.3 C 87 % 9.22 C
891 31-08-2018 02:10:00 11.4 C 87 % 9.32 C
892 31-08-2018 02:15:00 11.4 C 87 % 9.32 C
893 31-08-2018 02:20:00 11.4 C 87 % 9.32 C
894 31-08-2018 02:25:00 11.4 C 87 % 9.32 C
895 31-08-2018 02:30:00 11.4 C 87 % 9.32 C
896 31-08-2018 02:35:00 11.4 C 87 % 9.32 C
897 31-08-2018 02:40:00 11.4 C 87 % 9.32 C
898 31-08-2018 02:45:00 11.4 C 87 % 9.32 C
899 31-08-2018 02:50:00 11.4 C 87 % 9.32 C
900 31-08-2018 02:55:00 11.4 C 87 % 9.32 C
Sensor: Nr:Datum:Temp:Feuchte:Taupunkt:
Aussen-T/F 901 31-08-2018 03:00:00 11.4 C 87 % 9.32 C
902 31-08-2018 03:05:00 11.3 C 87 % 9.22 C
903 31-08-2018 03:10:00 11.3 C 87 % 9.22 C
904 31-08-2018 03:15:00 11.3 C 88 % 9.39 C
905 31-08-2018 03:20:00 11.3 C 88 % 9.39 C
906 31-08-2018 03:25:00 11.2 C 88 % 9.29 C
907 31-08-2018 03:30:00 11.2 C 88 % 9.29 C
908 31-08-2018 03:35:00 11.2 C 88 % 9.29 C
909 31-08-2018 03:40:00 11.2 C 88 % 9.29 C
910 31-08-2018 03:45:00 11.2 C 88 % 9.29 C
911 31-08-2018 03:50:00 11.2 C 88 % 9.29 C
912 31-08-2018 03:55:00 11.2 C 88 % 9.29 C
913 31-08-2018 04:00:00 11.2 C 88 % 9.29 C
914 31-08-2018 04:05:00 11.2 C 88 % 9.29 C
915 31-08-2018 04:10:00 11.2 C 88 % 9.29 C
916 31-08-2018 04:15:00 11.2 C 88 % 9.29 C
917 31-08-2018 04:20:00 11.2 C 89 % 9.46 C
918 31-08-2018 04:25:00 11.2 C 89 % 9.46 C
919 31-08-2018 04:30:00 11.2 C 89 % 9.46 C
920 31-08-2018 04:35:00 11.2 C 89 % 9.46 C
921 31-08-2018 04:40:00 11.2 C 89 % 9.46 C
922 31-08-2018 04:45:00 11.1 C 89 % 9.36 C
923 31-08-2018 04:50:00 11.1 C 89 % 9.36 C
924 31-08-2018 04:55:00 11.1 C 89 % 9.36 C
925 31-08-2018 05:00:00 11.1 C 89 % 9.36 C
Sensor: Nr:Datum:Temp:Feuchte:Taupunkt:
Aussen-T/F 926 31-08-2018 05:05:00 11 C 89 % 9.26 C
927 31-08-2018 05:10:00 11 C 89 % 9.26 C
928 31-08-2018 05:15:00 11 C 89 % 9.26 C
929 31-08-2018 05:20:00 11 C 90 % 9.42 C
930 31-08-2018 05:25:00 11 C 90 % 9.42 C
931 31-08-2018 05:30:00 11 C 90 % 9.42 C
932 31-08-2018 05:35:00 11 C 90 % 9.42 C
933 31-08-2018 05:40:00 11 C 90 % 9.42 C
934 31-08-2018 05:45:00 11.1 C 90 % 9.52 C
935 31-08-2018 05:50:00 11.1 C 90 % 9.52 C
936 31-08-2018 05:55:00 11.1 C 90 % 9.52 C
937 31-08-2018 06:00:00 11.2 C 90 % 9.62 C
938 31-08-2018 06:05:00 11.2 C 90 % 9.62 C
939 31-08-2018 06:10:00 11.2 C 90 % 9.62 C
940 31-08-2018 06:15:00 11.3 C 90 % 9.72 C
941 31-08-2018 06:20:00 11.3 C 90 % 9.72 C
942 31-08-2018 06:25:00 11.3 C 90 % 9.72 C
943 31-08-2018 06:30:00 11.3 C 90 % 9.72 C
944 31-08-2018 06:35:00 11.3 C 90 % 9.72 C
945 31-08-2018 06:40:00 11.3 C 90 % 9.72 C
946 31-08-2018 06:45:00 11.3 C 90 % 9.72 C
947 31-08-2018 06:50:00 11.3 C 90 % 9.72 C
948 31-08-2018 06:55:00 11.3 C 90 % 9.72 C
949 31-08-2018 07:00:00 11.3 C 90 % 9.72 C
950 31-08-2018 07:05:00 11.3 C 90 % 9.72 C
Sensor: Nr:Datum:Temp:Feuchte:Taupunkt:
Aussen-T/F 951 31-08-2018 07:10:00 11.3 C 90 % 9.72 C
952 31-08-2018 07:15:00 11.3 C 90 % 9.72 C
953 31-08-2018 07:20:00 11.4 C 90 % 9.82 C
954 31-08-2018 07:25:00 11.4 C 91 % 9.98 C
955 31-08-2018 07:30:00 11.4 C 91 % 9.98 C
956 31-08-2018 07:35:00 11.6 C 90 % 10.02 C
957 31-08-2018 07:40:00 11.6 C 91 % 10.18 C
958 31-08-2018 07:45:00 11.7 C 90 % 10.12 C
959 31-08-2018 07:50:00 11.7 C 91 % 10.28 C
960 31-08-2018 07:55:00 11.8 C 91 % 10.38 C
961 31-08-2018 08:00:00 11.9 C 91 % 10.48 C
962 31-08-2018 08:05:00 12 C 90 % 10.41 C
963 31-08-2018 08:10:00 12.1 C 91 % 10.68 C
964 31-08-2018 08:15:00 12.2 C 90 % 10.61 C
965 31-08-2018 08:20:00 12.2 C 90 % 10.61 C
966 31-08-2018 08:25:00 12.3 C 90 % 10.71 C
967 31-08-2018 08:30:00 12.3 C 90 % 10.71 C
968 31-08-2018 08:35:00 12.4 C 90 % 10.81 C
969 31-08-2018 08:40:00 12.4 C 88 % 10.47 C
970 31-08-2018 08:45:00 12.6 C 88 % 10.67 C
971 31-08-2018 08:50:00 12.6 C 87 % 10.5 C
972 31-08-2018 08:55:00 12.7 C 87 % 10.59 C
973 31-08-2018 09:00:00 12.8 C 87 % 10.69 C
974 31-08-2018 09:05:00 12.9 C 87 % 10.79 C
975 31-08-2018 09:10:00 13 C 87 % 10.89 C
Sensor: Nr:Datum:Temp:Feuchte:Taupunkt:
Aussen-T/F 976 31-08-2018 09:15:00 13.1 C 86 % 10.81 C
977 31-08-2018 09:20:00 13.2 C 86 % 10.91 C
978 31-08-2018 09:25:00 13.3 C 85 % 10.83 C
979 31-08-2018 09:30:00 13.4 C 85 % 10.93 C
980 31-08-2018 09:35:00 13.5 C 84 % 10.85 C
981 31-08-2018 09:40:00 13.6 C 85 % 11.13 C
982 31-08-2018 09:45:00 13.7 C 85 % 11.23 C
983 31-08-2018 09:50:00 13.9 C 85 % 11.42 C
984 31-08-2018 09:55:00 14 C 84 % 11.34 C
985 31-08-2018 10:00:00 14.1 C 83 % 11.26 C
986 31-08-2018 10:05:00 14.2 C 83 % 11.36 C
987 31-08-2018 10:10:00 14.3 C 84 % 11.64 C
988 31-08-2018 10:15:00 14.4 C 83 % 11.55 C
989 31-08-2018 10:20:00 14.6 C 83 % 11.75 C
990 31-08-2018 10:25:00 14.8 C 82 % 11.76 C
991 31-08-2018 10:30:00 14.9 C 81 % 11.67 C
992 31-08-2018 10:35:00 15.1 C 82 % 12.05 C
993 31-08-2018 10:40:00 15.2 C 80 % 11.78 C
994 31-08-2018 10:45:00 15.3 C 80 % 11.87 C
995 31-08-2018 10:50:00 15.4 C 80 % 11.97 C
996 31-08-2018 10:55:00 15.6 C 79 % 11.97 C
997 31-08-2018 11:00:00 15.7 C 78 % 11.88 C
998 31-08-2018 11:05:00 15.8 C 78 % 11.97 C
999 31-08-2018 11:10:00 15.9 C 78 % 12.07 C
1000 31-08-2018 11:15:00 15.9 C 77 % 11.88 C
Sensor: Nr:Datum:Temp:Feuchte:Taupunkt:
Aussen-T/F 1001 31-08-2018 11:20:00 16.1 C 78 % 12.27 C
1002 31-08-2018 11:25:00 16.1 C 76 % 11.87 C
1003 31-08-2018 11:30:00 16.3 C 77 % 12.26 C
1004 31-08-2018 11:35:00 16.4 C 76 % 12.16 C
1005 31-08-2018 11:40:00 16.6 C 74 % 11.95 C
1006 31-08-2018 11:45:00 16.7 C 74 % 12.05 C
1007 31-08-2018 11:50:00 16.7 C 72 % 11.63 C
1008 31-08-2018 11:55:00 16.7 C 73 % 11.84 C
1009 31-08-2018 12:00:00 16.7 C 72 % 11.63 C
1010 31-08-2018 12:05:00 16.9 C 73 % 12.03 C
1011 31-08-2018 12:10:00 17.2 C 72 % 12.11 C
1012 31-08-2018 12:15:00 17.3 C 71 % 12 C
1013 31-08-2018 12:20:00 17.5 C 69 % 11.75 C
1014 31-08-2018 12:25:00 17.7 C 69 % 11.95 C
1015 31-08-2018 12:30:00 17.7 C 67 % 11.5 C
1016 31-08-2018 12:35:00 17.7 C 67 % 11.5 C
1017 31-08-2018 12:40:00 17.8 C 66 % 11.37 C
1018 31-08-2018 12:45:00 17.8 C 65 % 11.14 C
1019 31-08-2018 12:50:00 17.9 C 65 % 11.23 C
1020 31-08-2018 12:55:00 18 C 64 % 11.09 C
1021 31-08-2018 13:00:00 18.1 C 65 % 11.42 C
1022 31-08-2018 13:05:00 18.2 C 63 % 11.05 C
1023 31-08-2018 13:10:00 18.3 C 63 % 11.14 C
1024 31-08-2018 13:15:00 18.4 C 63 % 11.23 C
1025 31-08-2018 13:20:00 18.5 C 61 % 10.84 C
Sensor: Nr:Datum:Temp:Feuchte:Taupunkt:
Aussen-T/F 1026 31-08-2018 13:25:00 18.5 C 63 % 11.33 C
1027 31-08-2018 13:30:00 18.6 C 61 % 10.94 C
1028 31-08-2018 13:35:00 18.7 C 60 % 10.78 C
1029 31-08-2018 13:40:00 18.7 C 59 % 10.53 C
1030 31-08-2018 13:45:00 18.8 C 59 % 10.63 C
1031 31-08-2018 13:50:00 18.8 C 59 % 10.63 C
1032 31-08-2018 13:55:00 19 C 58 % 10.56 C
1033 31-08-2018 14:00:00 19.1 C 58 % 10.65 C
1034 31-08-2018 14:05:00 19.2 C 59 % 11 C
1035 31-08-2018 14:10:00 19.3 C 58 % 10.84 C
1036 31-08-2018 14:15:00 19.3 C 55 % 10.04 C
1037 31-08-2018 14:20:00 19.4 C 55 % 10.13 C
1038 31-08-2018 14:25:00 19.4 C 55 % 10.13 C
1039 31-08-2018 14:30:00 19.4 C 54 % 9.86 C
1040 31-08-2018 14:35:00 19.4 C 54 % 9.86 C
1041 31-08-2018 14:40:00 19.3 C 54 % 9.77 C
1042 31-08-2018 14:45:00 19.3 C 55 % 10.04 C
1043 31-08-2018 14:50:00 19.4 C 54 % 9.86 C
1044 31-08-2018 14:55:00 19.4 C 55 % 10.13 C
1045 31-08-2018 15:00:00 19.4 C 55 % 10.13 C
1046 31-08-2018 15:05:00 19.6 C 55 % 10.32 C
1047 31-08-2018 15:10:00 19.7 C 53 % 9.86 C
1048 31-08-2018 15:15:00 19.7 C 53 % 9.86 C
1049 31-08-2018 15:20:00 19.8 C 52 % 9.67 C
1050 31-08-2018 15:25:00 19.9 C 52 % 9.76 C
Sensor: Nr:Datum:Temp:Feuchte:Taupunkt:
Aussen-T/F 1051 31-08-2018 15:30:00 19.8 C 52 % 9.67 C
1052 31-08-2018 15:35:00 19.7 C 53 % 9.86 C
1053 31-08-2018 15:40:00 19.7 C 52 % 9.58 C
1054 31-08-2018 15:45:00 19.6 C 52 % 9.48 C
1055 31-08-2018 15:50:00 19.4 C 52 % 9.3 C
1056 31-08-2018 15:55:00 19.4 C 53 % 9.58 C
1057 31-08-2018 16:00:00 19.6 C 52 % 9.48 C
1058 31-08-2018 16:05:00 19.7 C 52 % 9.58 C
1059 31-08-2018 16:10:00 19.9 C 51 % 9.47 C
1060 31-08-2018 16:15:00 20.1 C 51 % 9.66 C
1061 31-08-2018 16:20:00 20 C 51 % 9.56 C
1062 31-08-2018 16:25:00 20 C 50 % 9.27 C
1063 31-08-2018 16:30:00 20 C 50 % 9.27 C
1064 31-08-2018 16:35:00 20.2 C 49 % 9.15 C
1065 31-08-2018 16:40:00 20.3 C 48 % 8.94 C
1066 31-08-2018 16:45:00 20.3 C 48 % 8.94 C
1067 31-08-2018 16:50:00 20.5 C 48 % 9.12 C
1068 31-08-2018 16:55:00 20.7 C 48 % 9.3 C
1069 31-08-2018 17:00:00 20.9 C 47 % 9.17 C
1070 31-08-2018 17:05:00 20.8 C 47 % 9.08 C
1071 31-08-2018 17:10:00 20.6 C 47 % 8.9 C
1072 31-08-2018 17:15:00 20.3 C 48 % 8.94 C
1073 31-08-2018 17:20:00 20.2 C 50 % 9.45 C
1074 31-08-2018 17:25:00 20.2 C 49 % 9.15 C
1075 31-08-2018 17:30:00 20.3 C 47 % 8.63 C
Sensor: Nr:Datum:Temp:Feuchte:Taupunkt:
Aussen-T/F 1076 31-08-2018 17:35:00 20.3 C 49 % 9.24 C
1077 31-08-2018 17:40:00 20.7 C 48 % 9.3 C
1078 31-08-2018 17:45:00 20.8 C 47 % 9.08 C
1079 31-08-2018 17:50:00 20.9 C 47 % 9.17 C
1080 31-08-2018 17:55:00 20.9 C 47 % 9.17 C
1081 31-08-2018 18:00:00 20.9 C 46 % 8.86 C
1082 31-08-2018 18:05:00 20.9 C 46 % 8.86 C
1083 31-08-2018 18:10:00 20.9 C 45 % 8.53 C
1084 31-08-2018 18:15:00 20.9 C 45 % 8.53 C
1085 31-08-2018 18:20:00 20.9 C 44 % 8.2 C
1086 31-08-2018 18:25:00 20.9 C 44 % 8.2 C
1087 31-08-2018 18:30:00 20.8 C 44 % 8.11 C
1088 31-08-2018 18:35:00 20.9 C 43 % 7.86 C
1089 31-08-2018 18:40:00 20.9 C 43 % 7.86 C
1090 31-08-2018 18:45:00 20.9 C 42 % 7.52 C
1091 31-08-2018 18:50:00 20.8 C 43 % 7.77 C
1092 31-08-2018 18:55:00 20.6 C 43 % 7.59 C
1093 31-08-2018 19:00:00 20.4 C 43 % 7.41 C
1094 31-08-2018 19:05:00 20.2 C 43 % 7.23 C
1095 31-08-2018 19:10:00 20.1 C 45 % 7.81 C
1096 31-08-2018 19:15:00 19.9 C 44 % 7.3 C
1097 31-08-2018 19:20:00 19.7 C 45 % 7.44 C
1098 31-08-2018 19:25:00 19.6 C 44 % 7.03 C
1099 31-08-2018 19:30:00 19.4 C 45 % 7.17 C
1100 31-08-2018 19:35:00 19.3 C 45 % 7.08 C
Sensor: Nr:Datum:Temp:Feuchte:Taupunkt:
Aussen-T/F 1101 31-08-2018 19:40:00 19.2 C 46 % 7.31 C
1102 31-08-2018 19:45:00 19.1 C 51 % 8.73 C
1103 31-08-2018 19:50:00 18.8 C 51 % 8.46 C
1104 31-08-2018 19:55:00 18.3 C 52 % 8.28 C
1105 31-08-2018 20:00:00 17.8 C 54 % 8.38 C
1106 31-08-2018 20:05:00 17.3 C 56 % 8.45 C
1107 31-08-2018 20:10:00 16.8 C 58 % 8.5 C
1108 31-08-2018 20:15:00 16.5 C 59 % 8.47 C
1109 31-08-2018 20:20:00 16.2 C 60 % 8.43 C
1110 31-08-2018 20:25:00 15.9 C 59 % 7.91 C
1111 31-08-2018 20:30:00 15.9 C 61 % 8.4 C
1112 31-08-2018 20:35:00 15.8 C 62 % 8.54 C
1113 31-08-2018 20:40:00 15.7 C 62 % 8.45 C
1114 31-08-2018 20:45:00 15.5 C 62 % 8.26 C
1115 31-08-2018 20:50:00 15.3 C 63 % 8.31 C
1116 31-08-2018 20:55:00 15.2 C 64 % 8.44 C
1117 31-08-2018 21:00:00 15 C 65 % 8.48 C
1118 31-08-2018 21:05:00 14.8 C 67 % 8.74 C
1119 31-08-2018 21:10:00 14.7 C 67 % 8.64 C
1120 31-08-2018 21:15:00 14.6 C 67 % 8.55 C
1121 31-08-2018 21:20:00 14.5 C 67 % 8.45 C
1122 31-08-2018 21:25:00 14.4 C 67 % 8.36 C
1123 31-08-2018 21:30:00 14.3 C 68 % 8.48 C
1124 31-08-2018 21:35:00 14.2 C 69 % 8.6 C
1125 31-08-2018 21:40:00 14.1 C 69 % 8.5 C
Sensor: Nr:Datum:Temp:Feuchte:Taupunkt:
Aussen-T/F 1126 31-08-2018 21:45:00 14.1 C 70 % 8.72 C
1127 31-08-2018 21:50:00 13.9 C 70 % 8.53 C
1128 31-08-2018 21:55:00 13.9 C 71 % 8.73 C
1129 31-08-2018 22:00:00 13.8 C 71 % 8.64 C
1130 31-08-2018 22:05:00 13.8 C 71 % 8.64 C
1131 31-08-2018 22:10:00 13.8 C 71 % 8.64 C
1132 31-08-2018 22:15:00 13.8 C 72 % 8.85 C
1133 31-08-2018 22:20:00 13.7 C 72 % 8.75 C
1134 31-08-2018 22:25:00 13.7 C 73 % 8.95 C
1135 31-08-2018 22:30:00 13.7 C 73 % 8.95 C
1136 31-08-2018 22:35:00 13.6 C 73 % 8.86 C
1137 31-08-2018 22:40:00 13.5 C 73 % 8.76 C
1138 31-08-2018 22:45:00 13.5 C 73 % 8.76 C
1139 31-08-2018 22:50:00 13.6 C 73 % 8.86 C
1140 31-08-2018 22:55:00 13.6 C 72 % 8.65 C
1141 31-08-2018 23:00:00 13.6 C 73 % 8.86 C
1142 31-08-2018 23:05:00 13.6 C 73 % 8.86 C
1143 31-08-2018 23:10:00 13.6 C 73 % 8.86 C
1144 31-08-2018 23:15:00 13.5 C 74 % 8.96 C
1145 31-08-2018 23:20:00 13.4 C 74 % 8.87 C
1146 31-08-2018 23:25:00 13.3 C 75 % 8.97 C
1147 31-08-2018 23:30:00 13.3 C 75 % 8.97 C
1148 31-08-2018 23:35:00 13.2 C 75 % 8.87 C
1149 31-08-2018 23:40:00 13.1 C 75 % 8.77 C
1150 31-08-2018 23:45:00 13 C 76 % 8.87 C
Sensor: Nr:Datum:Temp:Feuchte:Taupunkt:
Aussen-T/F 1151 31-08-2018 23:50:00 12.9 C 76 % 8.78 C
1152 31-08-2018 23:55:00 12.8 C 76 % 8.68 C
1153 01-09-2018 00:00:00 12.7 C 76 % 8.58 C
1154 01-09-2018 00:05:00 12.6 C 77 % 8.68 C
1155 01-09-2018 00:10:00 12.4 C 77 % 8.49 C
1156 01-09-2018 00:15:00 12.3 C 78 % 8.58 C
1157 01-09-2018 00:20:00 12.2 C 78 % 8.48 C
1158 01-09-2018 00:25:00 12.1 C 78 % 8.38 C
1159 01-09-2018 00:30:00 11.9 C 79 % 8.38 C
1160 01-09-2018 00:35:00 11.8 C 80 % 8.47 C
1161 01-09-2018 00:40:00 11.8 C 80 % 8.47 C
1162 01-09-2018 00:45:00 11.7 C 80 % 8.37 C
1163 01-09-2018 00:50:00 11.6 C 81 % 8.45 C
1164 01-09-2018 00:55:00 11.6 C 81 % 8.45 C
1165 01-09-2018 01:00:00 11.5 C 81 % 8.36 C
1166 01-09-2018 01:05:00 11.5 C 81 % 8.36 C
1167 01-09-2018 01:10:00 11.4 C 81 % 8.26 C
1168 01-09-2018 01:15:00 11.3 C 81 % 8.16 C
1169 01-09-2018 01:20:00 11.1 C 82 % 8.15 C
1170 01-09-2018 01:25:00 11.1 C 83 % 8.33 C
1171 01-09-2018 01:30:00 10.9 C 83 % 8.13 C
1172 01-09-2018 01:35:00 10.8 C 83 % 8.03 C
1173 01-09-2018 01:40:00 10.7 C 83 % 7.93 C
1174 01-09-2018 01:45:00 10.6 C 83 % 7.84 C
1175 01-09-2018 01:50:00 10.5 C 84 % 7.91 C
Sensor: Nr:Datum:Temp:Feuchte:Taupunkt:
Aussen-T/F 1176 01-09-2018 01:55:00 10.4 C 84 % 7.82 C
1177 01-09-2018 02:00:00 10.3 C 85 % 7.89 C
1178 01-09-2018 02:05:00 10.3 C 85 % 7.89 C
1179 01-09-2018 02:10:00 10.2 C 85 % 7.79 C
1180 01-09-2018 02:15:00 10.1 C 85 % 7.7 C
1181 01-09-2018 02:20:00 10.1 C 86 % 7.87 C
1182 01-09-2018 02:25:00 10.1 C 86 % 7.87 C
1183 01-09-2018 02:30:00 9.9 C 86 % 7.67 C
1184 01-09-2018 02:35:00 9.8 C 86 % 7.57 C
1185 01-09-2018 02:40:00 9.8 C 86 % 7.57 C
1186 01-09-2018 02:45:00 9.8 C 87 % 7.74 C
1187 01-09-2018 02:50:00 9.7 C 87 % 7.64 C
1188 01-09-2018 02:55:00 9.6 C 87 % 7.55 C
1189 01-09-2018 03:00:00 9.6 C 87 % 7.55 C
1190 01-09-2018 03:05:00 9.4 C 87 % 7.35 C
1191 01-09-2018 03:10:00 9.4 C 87 % 7.35 C
1192 01-09-2018 03:15:00 9.3 C 88 % 7.42 C
1193 01-09-2018 03:20:00 9.3 C 88 % 7.42 C
1194 01-09-2018 03:25:00 9.3 C 88 % 7.42 C
1195 01-09-2018 03:30:00 9.2 C 88 % 7.32 C
1196 01-09-2018 03:35:00 9.2 C 88 % 7.32 C
1197 01-09-2018 03:40:00 9.1 C 89 % 7.39 C
1198 01-09-2018 03:45:00 9.1 C 89 % 7.39 C
1199 01-09-2018 03:50:00 9.1 C 89 % 7.39 C
1200 01-09-2018 03:55:00 9 C 89 % 7.29 C
Sensor: Nr:Datum:Temp:Feuchte:Taupunkt:
Aussen-T/F 1201 01-09-2018 04:00:00 8.9 C 90 % 7.35 C
1202 01-09-2018 04:05:00 8.9 C 89 % 7.19 C
1203 01-09-2018 04:10:00 8.9 C 90 % 7.35 C
1204 01-09-2018 04:15:00 8.8 C 90 % 7.25 C
1205 01-09-2018 04:20:00 8.8 C 90 % 7.25 C
1206 01-09-2018 04:25:00 8.8 C 90 % 7.25 C
1207 01-09-2018 04:30:00 8.8 C 90 % 7.25 C
1208 01-09-2018 04:35:00 8.7 C 90 % 7.15 C
1209 01-09-2018 04:40:00 8.6 C 90 % 7.06 C
1210 01-09-2018 04:45:00 8.6 C 91 % 7.22 C
1211 01-09-2018 04:50:00 8.6 C 91 % 7.22 C
1212 01-09-2018 04:55:00 8.6 C 91 % 7.22 C
1213 01-09-2018 05:00:00 8.5 C 91 % 7.12 C
1214 01-09-2018 05:05:00 8.4 C 91 % 7.02 C
1215 01-09-2018 05:10:00 8.4 C 91 % 7.02 C
1216 01-09-2018 05:15:00 8.4 C 91 % 7.02 C
1217 01-09-2018 05:20:00 8.3 C 91 % 6.92 C
1218 01-09-2018 05:25:00 8.4 C 91 % 7.02 C
1219 01-09-2018 05:30:00 8.3 C 91 % 6.92 C
1220 01-09-2018 05:35:00 8.3 C 92 % 7.08 C
1221 01-09-2018 05:40:00 8.3 C 91 % 6.92 C
1222 01-09-2018 05:45:00 8.3 C 92 % 7.08 C
1223 01-09-2018 05:50:00 8.2 C 91 % 6.82 C
1224 01-09-2018 05:55:00 8.1 C 91 % 6.72 C
1225 01-09-2018 06:00:00 8.1 C 92 % 6.88 C
Sensor: Nr:Datum:Temp:Feuchte:Taupunkt:
Aussen-T/F 1226 01-09-2018 06:05:00 8.1 C 92 % 6.88 C
1227 01-09-2018 06:10:00 8.1 C 92 % 6.88 C
1228 01-09-2018 06:15:00 8 C 92 % 6.78 C
1229 01-09-2018 06:20:00 7.9 C 92 % 6.68 C
1230 01-09-2018 06:25:00 7.9 C 92 % 6.68 C
1231 01-09-2018 06:30:00 7.9 C 92 % 6.68 C
1232 01-09-2018 06:35:00 7.8 C 92 % 6.58 C
1233 01-09-2018 06:40:00 7.8 C 92 % 6.58 C
1234 01-09-2018 06:45:00 7.8 C 93 % 6.74 C
1235 01-09-2018 06:50:00 7.9 C 93 % 6.84 C
1236 01-09-2018 06:55:00 7.8 C 93 % 6.74 C
1237 01-09-2018 07:00:00 7.8 C 93 % 6.74 C
1238 01-09-2018 07:05:00 7.8 C 93 % 6.74 C
1239 01-09-2018 07:10:00 7.8 C 93 % 6.74 C
1240 01-09-2018 07:15:00 7.8 C 93 % 6.74 C
1241 01-09-2018 07:20:00 7.8 C 93 % 6.74 C
1242 01-09-2018 07:25:00 7.8 C 93 % 6.74 C
1243 01-09-2018 07:30:00 7.8 C 93 % 6.74 C
1244 01-09-2018 07:35:00 7.8 C 93 % 6.74 C
1245 01-09-2018 07:40:00 7.9 C 93 % 6.84 C
1246 01-09-2018 07:45:00 7.9 C 93 % 6.84 C
1247 01-09-2018 07:50:00 8 C 93 % 6.94 C
1248 01-09-2018 07:55:00 8 C 93 % 6.94 C
1249 01-09-2018 08:00:00 8.1 C 93 % 7.04 C
1250 01-09-2018 08:05:00 8.1 C 93 % 7.04 C
Sensor: Nr:Datum:Temp:Feuchte:Taupunkt:
Aussen-T/F 1251 01-09-2018 08:10:00 8.2 C 93 % 7.14 C
1252 01-09-2018 08:15:00 8.2 C 93 % 7.14 C
1253 01-09-2018 08:20:00 8.3 C 93 % 7.24 C
1254 01-09-2018 08:25:00 8.3 C 93 % 7.24 C
1255 01-09-2018 08:30:00 8.4 C 94 % 7.49 C
1256 01-09-2018 08:35:00 8.5 C 94 % 7.59 C
1257 01-09-2018 08:40:00 8.6 C 94 % 7.69 C
1258 01-09-2018 08:45:00 8.7 C 94 % 7.79 C
1259 01-09-2018 08:50:00 8.8 C 94 % 7.89 C
1260 01-09-2018 08:55:00 8.9 C 94 % 7.99 C
1261 01-09-2018 09:00:00 9 C 94 % 8.09 C
1262 01-09-2018 09:05:00 9.1 C 94 % 8.19 C
1263 01-09-2018 09:10:00 9.2 C 94 % 8.29 C
1264 01-09-2018 09:15:00 9.3 C 94 % 8.39 C
1265 01-09-2018 09:20:00 9.5 C 94 % 8.58 C
1266 01-09-2018 09:25:00 9.6 C 94 % 8.68 C
1267 01-09-2018 09:30:00 9.8 C 94 % 8.88 C
1268 01-09-2018 09:35:00 9.9 C 94 % 8.98 C
1269 01-09-2018 09:40:00 10.1 C 94 % 9.18 C
1270 01-09-2018 09:45:00 10.3 C 94 % 9.38 C
1271 01-09-2018 09:50:00 10.4 C 94 % 9.48 C
1272 01-09-2018 09:55:00 10.6 C 93 % 9.52 C
1273 01-09-2018 10:00:00 10.8 C 93 % 9.71 C
1274 01-09-2018 10:05:00 10.9 C 93 % 9.81 C
1275 01-09-2018 10:10:00 11.1 C 93 % 10.01 C
Sensor: Nr:Datum:Temp:Feuchte:Taupunkt:
Aussen-T/F 1276 01-09-2018 10:15:00 11.3 C 92 % 10.05 C
1277 01-09-2018 10:20:00 11.5 C 91 % 10.08 C
1278 01-09-2018 10:25:00 11.7 C 90 % 10.12 C
1279 01-09-2018 10:30:00 11.9 C 90 % 10.31 C
1280 01-09-2018 10:35:00 12.2 C 89 % 10.44 C
1281 01-09-2018 10:40:00 12.3 C 88 % 10.37 C
1282 01-09-2018 10:45:00 12.6 C 86 % 10.32 C
1283 01-09-2018 10:50:00 12.9 C 85 % 10.44 C
1284 01-09-2018 10:55:00 13.1 C 83 % 10.28 C
1285 01-09-2018 11:00:00 13.3 C 82 % 10.3 C
1286 01-09-2018 11:05:00 13.7 C 80 % 10.32 C
1287 01-09-2018 11:10:00 14 C 80 % 10.61 C
1288 01-09-2018 11:15:00 14.2 C 79 % 10.61 C
1289 01-09-2018 11:20:00 14.4 C 76 % 10.23 C
1290 01-09-2018 11:25:00 14.7 C 76 % 10.52 C
1291 01-09-2018 11:30:00 14.8 C 74 % 10.22 C
1292 01-09-2018 11:35:00 15.1 C 73 % 10.3 C
1293 01-09-2018 11:40:00 15.3 C 73 % 10.49 C
1294 01-09-2018 11:45:00 15.6 C 71 % 10.37 C
1295 01-09-2018 11:50:00 15.8 C 69 % 10.13 C
1296 01-09-2018 11:55:00 15.9 C 69 % 10.23 C
1297 01-09-2018 12:00:00 16.1 C 69 % 10.42 C
1298 01-09-2018 12:05:00 16.3 C 68 % 10.39 C
1299 01-09-2018 12:10:00 16.4 C 66 % 10.04 C
1300 01-09-2018 12:15:00 16.6 C 66 % 10.23 C
Sensor: Nr:Datum:Temp:Feuchte:Taupunkt:
Aussen-T/F 1301 01-09-2018 12:20:00 16.9 C 67 % 10.74 C
1302 01-09-2018 12:25:00 17.2 C 64 % 10.34 C
1303 01-09-2018 12:30:00 17.4 C 65 % 10.76 C
1304 01-09-2018 12:35:00 17.6 C 63 % 10.48 C
1305 01-09-2018 12:40:00 17.8 C 62 % 10.43 C
1306 01-09-2018 12:45:00 17.9 C 61 % 10.28 C
1307 01-09-2018 12:50:00 18.1 C 60 % 10.22 C
1308 01-09-2018 12:55:00 18.2 C 59 % 10.06 C
1309 01-09-2018 13:00:00 18.4 C 58 % 9.99 C
1310 01-09-2018 13:05:00 18.6 C 59 % 10.44 C
1311 01-09-2018 13:10:00 18.7 C 56 % 9.75 C
1312 01-09-2018 13:15:00 18.8 C 55 % 9.58 C
1313 01-09-2018 13:20:00 18.7 C 53 % 8.93 C
1314 01-09-2018 13:25:00 18.6 C 52 % 8.56 C
1315 01-09-2018 13:30:00 18.5 C 53 % 8.75 C
1316 01-09-2018 13:35:00 18.4 C 55 % 9.2 C
1317 01-09-2018 13:40:00 18.4 C 51 % 8.09 C
1318 01-09-2018 13:45:00 18.6 C 52 % 8.56 C
1319 01-09-2018 13:50:00 18.9 C 50 % 8.26 C
1320 01-09-2018 13:55:00 19.2 C 48 % 7.93 C
1321 01-09-2018 14:00:00 19.4 C 47 % 7.81 C
1322 01-09-2018 14:05:00 19.7 C 46 % 7.77 C
1323 01-09-2018 14:10:00 19.8 C 45 % 7.53 C
1324 01-09-2018 14:15:00 19.7 C 44 % 7.12 C
1325 01-09-2018 14:20:00 19.7 C 43 % 6.78 C
Sensor: Nr:Datum:Temp:Feuchte:Taupunkt:
Aussen-T/F 1326 01-09-2018 14:25:00 19.9 C 43 % 6.96 C
1327 01-09-2018 14:30:00 20.2 C 42 % 6.89 C
1328 01-09-2018 14:35:00 20.2 C 41 % 6.54 C
1329 01-09-2018 14:40:00 20.3 C 41 % 6.63 C
1330 01-09-2018 14:45:00 20.3 C 42 % 6.98 C
1331 01-09-2018 14:50:00 20.5 C 41 % 6.81 C
1332 01-09-2018 14:55:00 20.7 C 42 % 7.34 C
1333 01-09-2018 15:00:00 20.8 C 41 % 7.08 C
1334 01-09-2018 15:05:00 20.7 C 42 % 7.34 C
1335 01-09-2018 15:10:00 20.6 C 42 % 7.25 C
1336 01-09-2018 15:15:00 20.6 C 42 % 7.25 C
1337 01-09-2018 15:20:00 20.7 C 40 % 6.63 C
1338 01-09-2018 15:25:00 20.7 C 41 % 6.99 C
1339 01-09-2018 15:30:00 20.7 C 41 % 6.99 C
1340 01-09-2018 15:35:00 20.8 C 40 % 6.72 C
1341 01-09-2018 15:40:00 20.9 C 39 % 6.44 C
1342 01-09-2018 15:45:00 20.9 C 39 % 6.44 C
1343 01-09-2018 15:50:00 20.8 C 40 % 6.72 C
1344 01-09-2018 15:55:00 20.7 C 40 % 6.63 C
1345 01-09-2018 16:00:00 20.6 C 41 % 6.9 C
1346 01-09-2018 16:05:00 20.6 C 42 % 7.25 C
1347 01-09-2018 16:10:00 20.7 C 40 % 6.63 C
1348 01-09-2018 16:15:00 21 C 40 % 6.9 C
1349 01-09-2018 16:20:00 21.2 C 39 % 6.71 C
1350 01-09-2018 16:25:00 21.1 C 39 % 6.62 C
Sensor: Nr:Datum:Temp:Feuchte:Taupunkt:
Aussen-T/F 1351 01-09-2018 16:30:00 20.9 C 39 % 6.44 C
1352 01-09-2018 16:35:00 20.9 C 39 % 6.44 C
1353 01-09-2018 16:40:00 21.4 C 39 % 6.89 C
1354 01-09-2018 16:45:00 21.9 C 37 % 6.56 C
1355 01-09-2018 16:50:00 22.2 C 37 % 6.83 C
1356 01-09-2018 16:55:00 22.2 C 36 % 6.43 C
1357 01-09-2018 17:00:00 22.2 C 38 % 7.22 C
1358 01-09-2018 17:05:00 22.4 C 36 % 6.61 C
1359 01-09-2018 17:10:00 22.3 C 36 % 6.52 C
1360 01-09-2018 17:15:00 22.3 C 36 % 6.52 C
1361 01-09-2018 17:20:00 22.3 C 37 % 6.92 C
1362 01-09-2018 17:25:00 22.4 C 36 % 6.61 C
1363 01-09-2018 17:30:00 22.4 C 36 % 6.61 C
1364 01-09-2018 17:35:00 22.4 C 37 % 7.01 C
1365 01-09-2018 17:40:00 22.6 C 35 % 6.38 C
1366 01-09-2018 17:45:00 22.8 C 42 % 9.23 C
1367 01-09-2018 17:50:00 22.3 C 37 % 6.92 C
1368 01-09-2018 17:55:00 22.1 C 37 % 6.74 C
1369 01-09-2018 18:00:00 22.2 C 37 % 6.83 C
1370 01-09-2018 18:05:00 22.4 C 36 % 6.61 C
1371 01-09-2018 18:10:00 22.5 C 35 % 6.29 C
1372 01-09-2018 18:15:00 22.4 C 36 % 6.61 C
1373 01-09-2018 18:20:00 22.5 C 35 % 6.29 C
1374 01-09-2018 18:25:00 22.2 C 37 % 6.83 C
1375 01-09-2018 18:30:00 22.3 C 37 % 6.92 C
Sensor: Nr:Datum:Temp:Feuchte:Taupunkt:
Aussen-T/F 1376 01-09-2018 18:35:00 22.3 C 37 % 6.92 C
1377 01-09-2018 18:40:00 22.4 C 37 % 7.01 C
1378 01-09-2018 18:45:00 22.6 C 36 % 6.78 C
1379 01-09-2018 18:50:00 22.4 C 37 % 7.01 C
1380 01-09-2018 18:55:00 22.3 C 38 % 7.31 C
1381 01-09-2018 19:00:00 22.3 C 38 % 7.31 C
1382 01-09-2018 19:05:00 22.3 C 37 % 6.92 C
1383 01-09-2018 19:10:00 22.1 C 36 % 6.34 C
1384 01-09-2018 19:15:00 21.7 C 38 % 6.77 C
1385 01-09-2018 19:20:00 21.4 C 38 % 6.51 C
1386 01-09-2018 19:25:00 21.3 C 39 % 6.8 C
1387 01-09-2018 19:30:00 21.1 C 39 % 6.62 C
1388 01-09-2018 19:35:00 20.9 C 40 % 6.81 C
1389 01-09-2018 19:40:00 20.8 C 40 % 6.72 C
1390 01-09-2018 19:45:00 20.6 C 41 % 6.9 C
1391 01-09-2018 19:50:00 20.4 C 41 % 6.72 C
1392 01-09-2018 19:55:00 20.3 C 45 % 7.99 C
1393 01-09-2018 20:00:00 19.9 C 45 % 7.63 C
1394 01-09-2018 20:05:00 19.5 C 45 % 7.26 C
1395 01-09-2018 20:10:00 19.1 C 46 % 7.22 C
1396 01-09-2018 20:15:00 18.8 C 48 % 7.57 C
1397 01-09-2018 20:20:00 18.3 C 50 % 7.71 C
1398 01-09-2018 20:25:00 17.8 C 52 % 7.82 C
1399 01-09-2018 20:30:00 17.3 C 53 % 7.64 C
1400 01-09-2018 20:35:00 16.8 C 56 % 7.98 C
Sensor: Nr:Datum:Temp:Feuchte:Taupunkt:
Aussen-T/F 1401 01-09-2018 20:40:00 16.4 C 57 % 7.87 C
1402 01-09-2018 20:45:00 16.2 C 58 % 7.94 C
1403 01-09-2018 20:50:00 15.9 C 57 % 7.4 C
1404 01-09-2018 20:55:00 15.8 C 58 % 7.56 C
1405 01-09-2018 21:00:00 15.7 C 59 % 7.72 C
1406 01-09-2018 21:05:00 15.5 C 59 % 7.53 C
1407 01-09-2018 21:10:00 15.4 C 61 % 7.93 C
1408 01-09-2018 21:15:00 15.3 C 60 % 7.59 C
1409 01-09-2018 21:20:00 15.2 C 61 % 7.74 C
1410 01-09-2018 21:25:00 15.2 C 61 % 7.74 C
1411 01-09-2018 21:30:00 15.1 C 61 % 7.64 C
1412 01-09-2018 21:35:00 15.1 C 61 % 7.64 C
1413 01-09-2018 21:40:00 15 C 62 % 7.79 C
1414 01-09-2018 21:45:00 14.9 C 63 % 7.93 C
1415 01-09-2018 21:50:00 14.8 C 63 % 7.83 C
1416 01-09-2018 21:55:00 14.7 C 63 % 7.74 C
1417 01-09-2018 22:00:00 14.5 C 64 % 7.78 C
1418 01-09-2018 22:05:00 14.3 C 64 % 7.59 C
1419 01-09-2018 22:10:00 14.3 C 65 % 7.82 C
1420 01-09-2018 22:15:00 14.2 C 66 % 7.95 C
1421 01-09-2018 22:20:00 14.1 C 66 % 7.85 C
1422 01-09-2018 22:25:00 13.9 C 67 % 7.88 C
1423 01-09-2018 22:30:00 13.8 C 67 % 7.79 C
1424 01-09-2018 22:35:00 13.8 C 68 % 8 C
1425 01-09-2018 22:40:00 13.7 C 67 % 7.69 C
Sensor: Nr:Datum:Temp:Feuchte:Taupunkt:
Aussen-T/F 1426 01-09-2018 22:45:00 13.7 C 68 % 7.91 C
1427 01-09-2018 22:50:00 13.7 C 69 % 8.12 C
1428 01-09-2018 22:55:00 13.6 C 68 % 7.81 C
1429 01-09-2018 23:00:00 13.5 C 68 % 7.72 C
1430 01-09-2018 23:05:00 13.4 C 69 % 7.84 C
1431 01-09-2018 23:10:00 13.3 C 70 % 7.95 C
1432 01-09-2018 23:15:00 13.3 C 70 % 7.95 C
1433 01-09-2018 23:20:00 13.2 C 70 % 7.86 C
1434 01-09-2018 23:25:00 13.1 C 71 % 7.97 C
1435 01-09-2018 23:30:00 12.8 C 71 % 7.68 C
1436 01-09-2018 23:35:00 12.7 C 72 % 7.79 C
1437 01-09-2018 23:40:00 12.5 C 73 % 7.8 C
1438 01-09-2018 23:45:00 12.4 C 73 % 7.7 C
1439 01-09-2018 23:50:00 12.3 C 74 % 7.8 C
1440 01-09-2018 23:55:00 12.1 C 74 % 7.61 C
1441 02-09-2018 00:00:00 12 C 74 % 7.52 C
1442 02-09-2018 00:05:00 11.8 C 75 % 7.52 C
1443 02-09-2018 00:10:00 11.8 C 75 % 7.52 C
1444 02-09-2018 00:15:00 11.7 C 76 % 7.62 C
1445 02-09-2018 00:20:00 11.6 C 76 % 7.52 C
1446 02-09-2018 00:25:00 11.4 C 77 % 7.52 C
1447 02-09-2018 00:30:00 11.3 C 77 % 7.42 C
1448 02-09-2018 00:35:00 11.1 C 78 % 7.41 C
1449 02-09-2018 00:40:00 11 C 79 % 7.5 C
1450 02-09-2018 00:45:00 10.8 C 79 % 7.31 C
Sensor: Nr:Datum:Temp:Feuchte:Taupunkt:
Aussen-T/F 1451 02-09-2018 00:50:00 10.8 C 79 % 7.31 C
1452 02-09-2018 00:55:00 10.7 C 80 % 7.4 C
1453 02-09-2018 01:00:00 10.6 C 80 % 7.3 C
1454 02-09-2018 01:05:00 10.5 C 81 % 7.38 C
1455 02-09-2018 01:10:00 10.4 C 81 % 7.28 C
1456 02-09-2018 01:15:00 10.3 C 81 % 7.19 C
1457 02-09-2018 01:20:00 10.3 C 81 % 7.19 C
1458 02-09-2018 01:25:00 10.2 C 82 % 7.27 C
1459 02-09-2018 01:30:00 10.2 C 82 % 7.27 C
1460 02-09-2018 01:35:00 10.1 C 82 % 7.17 C
1461 02-09-2018 01:40:00 10.1 C 82 % 7.17 C
1462 02-09-2018 01:45:00 10 C 82 % 7.07 C
1463 02-09-2018 01:50:00 9.9 C 83 % 7.15 C
1464 02-09-2018 01:55:00 9.8 C 84 % 7.23 C
1465 02-09-2018 02:00:00 9.8 C 84 % 7.23 C
1466 02-09-2018 02:05:00 9.7 C 84 % 7.13 C
1467 02-09-2018 02:10:00 9.7 C 84 % 7.13 C
1468 02-09-2018 02:15:00 9.6 C 84 % 7.03 C
1469 02-09-2018 02:20:00 9.5 C 85 % 7.11 C
1470 02-09-2018 02:25:00 9.4 C 85 % 7.01 C
1471 02-09-2018 02:30:00 9.3 C 85 % 6.91 C
1472 02-09-2018 02:35:00 9.3 C 85 % 6.91 C
1473 02-09-2018 02:40:00 9.3 C 86 % 7.08 C
1474 02-09-2018 02:45:00 9.2 C 86 % 6.98 C
1475 02-09-2018 02:50:00 9.2 C 86 % 6.98 C
Sensor: Nr:Datum:Temp:Feuchte:Taupunkt:
Aussen-T/F 1476 02-09-2018 02:55:00 9.2 C 86 % 6.98 C
1477 02-09-2018 03:00:00 9.1 C 86 % 6.89 C
1478 02-09-2018 03:05:00 9.1 C 87 % 7.05 C
1479 02-09-2018 03:10:00 9.1 C 87 % 7.05 C
1480 02-09-2018 03:15:00 9.1 C 87 % 7.05 C
1481 02-09-2018 03:20:00 9 C 87 % 6.96 C
1482 02-09-2018 03:25:00 9 C 87 % 6.96 C
1483 02-09-2018 03:30:00 8.9 C 87 % 6.86 C
1484 02-09-2018 03:35:00 8.9 C 87 % 6.86 C
1485 02-09-2018 03:40:00 8.9 C 88 % 7.02 C
1486 02-09-2018 03:45:00 8.9 C 87 % 6.86 C
1487 02-09-2018 03:50:00 8.8 C 88 % 6.93 C
1488 02-09-2018 03:55:00 8.8 C 87 % 6.76 C
1489 02-09-2018 04:00:00 8.7 C 87 % 6.66 C
1490 02-09-2018 04:05:00 8.7 C 88 % 6.83 C
1491 02-09-2018 04:10:00 8.6 C 88 % 6.73 C
1492 02-09-2018 04:15:00 8.6 C 88 % 6.73 C
1493 02-09-2018 04:20:00 8.6 C 88 % 6.73 C
1494 02-09-2018 04:25:00 8.6 C 88 % 6.73 C
1495 02-09-2018 04:30:00 8.6 C 88 % 6.73 C
1496 02-09-2018 04:35:00 8.5 C 89 % 6.79 C
1497 02-09-2018 04:40:00 8.4 C 89 % 6.7 C
1498 02-09-2018 04:45:00 8.4 C 89 % 6.7 C
1499 02-09-2018 04:50:00 8.3 C 89 % 6.6 C
1500 02-09-2018 04:55:00 8.3 C 89 % 6.6 C
Sensor: Nr:Datum:Temp:Feuchte:Taupunkt:
Aussen-T/F 1501 02-09-2018 05:00:00 8.3 C 89 % 6.6 C
1502 02-09-2018 05:05:00 8.2 C 89 % 6.5 C
1503 02-09-2018 05:10:00 8.2 C 90 % 6.66 C
1504 02-09-2018 05:15:00 8.2 C 90 % 6.66 C
1505 02-09-2018 05:20:00 8.2 C 90 % 6.66 C
1506 02-09-2018 05:25:00 8.2 C 90 % 6.66 C
1507 02-09-2018 05:30:00 8.2 C 90 % 6.66 C
1508 02-09-2018 05:35:00 8.1 C 90 % 6.56 C
1509 02-09-2018 05:40:00 8.1 C 90 % 6.56 C
1510 02-09-2018 05:45:00 8.1 C 90 % 6.56 C
1511 02-09-2018 05:50:00 8.1 C 91 % 6.72 C
1512 02-09-2018 05:55:00 8.1 C 91 % 6.72 C
1513 02-09-2018 06:00:00 8 C 91 % 6.62 C
1514 02-09-2018 06:05:00 8 C 91 % 6.62 C
1515 02-09-2018 06:10:00 7.9 C 91 % 6.52 C
1516 02-09-2018 06:15:00 7.9 C 91 % 6.52 C
1517 02-09-2018 06:20:00 7.9 C 91 % 6.52 C
1518 02-09-2018 06:25:00 7.9 C 91 % 6.52 C
1519 02-09-2018 06:30:00 8 C 92 % 6.78 C
1520 02-09-2018 06:35:00 8.1 C 91 % 6.72 C
1521 02-09-2018 06:40:00 8 C 91 % 6.62 C
1522 02-09-2018 06:45:00 8 C 91 % 6.62 C
1523 02-09-2018 06:50:00 7.9 C 91 % 6.52 C
1524 02-09-2018 06:55:00 7.9 C 91 % 6.52 C
1525 02-09-2018 07:00:00 7.9 C 91 % 6.52 C
Sensor: Nr:Datum:Temp:Feuchte:Taupunkt:
Aussen-T/F 1526 02-09-2018 07:05:00 7.9 C 92 % 6.68 C
1527 02-09-2018 07:10:00 7.9 C 92 % 6.68 C
1528 02-09-2018 07:15:00 7.9 C 92 % 6.68 C
1529 02-09-2018 07:20:00 7.9 C 92 % 6.68 C
1530 02-09-2018 07:25:00 7.9 C 92 % 6.68 C
1531 02-09-2018 07:30:00 8.1 C 92 % 6.88 C
1532 02-09-2018 07:35:00 8.1 C 92 % 6.88 C
1533 02-09-2018 07:40:00 8.1 C 92 % 6.88 C
1534 02-09-2018 07:45:00 8.2 C 92 % 6.98 C
1535 02-09-2018 07:50:00 8.2 C 92 % 6.98 C
1536 02-09-2018 07:55:00 8.2 C 92 % 6.98 C
1537 02-09-2018 08:00:00 8.3 C 92 % 7.08 C
1538 02-09-2018 08:05:00 8.3 C 92 % 7.08 C
1539 02-09-2018 08:10:00 8.3 C 92 % 7.08 C
1540 02-09-2018 08:15:00 8.4 C 92 % 7.18 C
1541 02-09-2018 08:20:00 8.4 C 92 % 7.18 C
1542 02-09-2018 08:25:00 8.6 C 92 % 7.38 C
1543 02-09-2018 08:30:00 8.6 C 92 % 7.38 C
1544 02-09-2018 08:35:00 8.7 C 92 % 7.47 C
1545 02-09-2018 08:40:00 8.8 C 92 % 7.57 C
1546 02-09-2018 08:45:00 8.9 C 92 % 7.67 C
1547 02-09-2018 08:50:00 9 C 92 % 7.77 C
1548 02-09-2018 08:55:00 9.1 C 92 % 7.87 C
1549 02-09-2018 09:00:00 9.2 C 92 % 7.97 C
1550 02-09-2018 09:05:00 9.3 C 92 % 8.07 C
Sensor: Nr:Datum:Temp:Feuchte:Taupunkt:
Aussen-T/F 1551 02-09-2018 09:10:00 9.3 C 92 % 8.07 C
1552 02-09-2018 09:15:00 9.4 C 92 % 8.17 C
1553 02-09-2018 09:20:00 9.6 C 92 % 8.37 C
1554 02-09-2018 09:25:00 9.7 C 92 % 8.46 C
1555 02-09-2018 09:30:00 9.8 C 92 % 8.56 C
1556 02-09-2018 09:35:00 10.1 C 93 % 9.02 C
1557 02-09-2018 09:40:00 10.3 C 93 % 9.22 C
1558 02-09-2018 09:45:00 10.5 C 93 % 9.42 C
1559 02-09-2018 09:50:00 10.7 C 93 % 9.62 C
1560 02-09-2018 09:55:00 10.9 C 93 % 9.81 C
1561 02-09-2018 10:00:00 11.2 C 92 % 9.95 C
1562 02-09-2018 10:05:00 11.5 C 91 % 10.08 C
1563 02-09-2018 10:10:00 11.8 C 91 % 10.38 C
1564 02-09-2018 10:15:00 12 C 90 % 10.41 C
1565 02-09-2018 10:20:00 12.3 C 89 % 10.54 C
1566 02-09-2018 10:25:00 12.7 C 88 % 10.77 C
1567 02-09-2018 10:30:00 13.1 C 87 % 10.99 C
1568 02-09-2018 10:35:00 13.5 C 85 % 11.03 C
1569 02-09-2018 10:40:00 14 C 83 % 11.16 C
1570 02-09-2018 10:45:00 14.3 C 81 % 11.09 C
1571 02-09-2018 10:50:00 14.7 C 82 % 11.66 C
1572 02-09-2018 10:55:00 15.2 C 79 % 11.59 C
1573 02-09-2018 11:00:00 15.6 C 78 % 11.78 C
1574 02-09-2018 11:05:00 15.9 C 77 % 11.88 C
1575 02-09-2018 11:10:00 16.3 C 75 % 11.86 C
Sensor: Nr:Datum:Temp:Feuchte:Taupunkt:
Aussen-T/F 1576 02-09-2018 11:15:00 16.6 C 73 % 11.74 C
1577 02-09-2018 11:20:00 16.8 C 73 % 11.94 C
1578 02-09-2018 11:25:00 16.9 C 71 % 11.61 C
1579 02-09-2018 11:30:00 17.1 C 72 % 12.02 C
1580 02-09-2018 11:35:00 17.2 C 71 % 11.9 C
1581 02-09-2018 11:40:00 17.3 C 69 % 11.56 C
1582 02-09-2018 11:45:00 17.4 C 70 % 11.88 C
1583 02-09-2018 11:50:00 17.6 C 68 % 11.63 C
1584 02-09-2018 11:55:00 17.7 C 68 % 11.72 C
1585 02-09-2018 12:00:00 17.8 C 68 % 11.82 C
1586 02-09-2018 12:05:00 17.9 C 68 % 11.91 C
1587 02-09-2018 12:10:00 18 C 67 % 11.79 C
1588 02-09-2018 12:15:00 18.1 C 67 % 11.88 C
1589 02-09-2018 12:20:00 18.2 C 68 % 12.2 C
1590 02-09-2018 12:25:00 18.4 C 68 % 12.39 C
1591 02-09-2018 12:30:00 18.7 C 67 % 12.45 C
1592 02-09-2018 12:35:00 18.8 C 67 % 12.55 C
1593 02-09-2018 12:40:00 19 C 66 % 12.51 C
1594 02-09-2018 12:45:00 19.2 C 64 % 12.23 C
1595 02-09-2018 12:50:00 19.3 C 64 % 12.32 C
1596 02-09-2018 12:55:00 19.4 C 66 % 12.89 C
1597 02-09-2018 13:00:00 19.4 C 63 % 12.18 C
1598 02-09-2018 13:05:00 19.4 C 62 % 11.94 C
1599 02-09-2018 13:10:00 19.4 C 62 % 11.94 C
1600 02-09-2018 13:15:00 19.4 C 62 % 11.94 C
Sensor: Nr:Datum:Temp:Feuchte:Taupunkt:
Aussen-T/F 1601 02-09-2018 13:20:00 19.4 C 62 % 11.94 C
1602 02-09-2018 13:25:00 19.5 C 63 % 12.27 C
1603 02-09-2018 13:30:00 19.5 C 62 % 12.03 C
1604 02-09-2018 13:35:00 19.4 C 62 % 11.94 C
1605 02-09-2018 13:40:00 19.4 C 61 % 11.69 C
1606 02-09-2018 13:45:00 19.4 C 61 % 11.69 C
1607 02-09-2018 13:50:00 19.4 C 61 % 11.69 C
1608 02-09-2018 13:55:00 19.4 C 61 % 11.69 C
1609 02-09-2018 14:00:00 19.4 C 62 % 11.94 C
1610 02-09-2018 14:05:00 19.4 C 63 % 12.18 C
1611 02-09-2018 14:10:00 19.4 C 63 % 12.18 C
1612 02-09-2018 14:15:00 19.3 C 63 % 12.09 C
1613 02-09-2018 14:20:00 19.3 C 64 % 12.32 C
1614 02-09-2018 14:25:00 19.3 C 63 % 12.09 C
1615 02-09-2018 14:30:00 19.3 C 65 % 12.56 C
1616 02-09-2018 14:35:00 19.3 C 64 % 12.32 C
1617 02-09-2018 14:40:00 19.3 C 64 % 12.32 C
1618 02-09-2018 14:45:00 19.3 C 63 % 12.09 C
1619 02-09-2018 14:50:00 19.2 C 63 % 11.99 C
1620 02-09-2018 14:55:00 19.3 C 63 % 12.09 C
1621 02-09-2018 15:00:00 19.3 C 65 % 12.56 C
1622 02-09-2018 15:05:00 19.2 C 64 % 12.23 C
1623 02-09-2018 15:10:00 19.2 C 62 % 11.75 C
1624 02-09-2018 15:15:00 19.2 C 62 % 11.75 C
1625 02-09-2018 15:20:00 19.3 C 64 % 12.32 C
Sensor: Nr:Datum:Temp:Feuchte:Taupunkt:
Aussen-T/F 1626 02-09-2018 15:25:00 19.3 C 67 % 13.02 C
1627 02-09-2018 15:30:00 19.3 C 68 % 13.25 C
1628 02-09-2018 15:35:00 19.3 C 66 % 12.79 C
1629 02-09-2018 15:40:00 19.3 C 68 % 13.25 C
1630 02-09-2018 15:45:00 19.3 C 68 % 13.25 C
1631 02-09-2018 15:50:00 19.4 C 60 % 11.44 C
1632 02-09-2018 15:55:00 19.6 C 58 % 11.12 C
1633 02-09-2018 16:00:00 19.6 C 58 % 11.12 C
1634 02-09-2018 16:05:00 19.7 C 59 % 11.47 C
1635 02-09-2018 16:10:00 19.7 C 60 % 11.72 C
1636 02-09-2018 16:15:00 19.7 C 60 % 11.72 C
1637 02-09-2018 16:20:00 19.8 C 63 % 12.56 C
1638 02-09-2018 16:25:00 19.7 C 63 % 12.46 C
1639 02-09-2018 16:30:00 19.7 C 64 % 12.7 C
1640 02-09-2018 16:35:00 19.7 C 65 % 12.94 C
1641 02-09-2018 16:40:00 19.7 C 65 % 12.94 C
1642 02-09-2018 16:45:00 19.6 C 65 % 12.84 C
1643 02-09-2018 16:50:00 19.6 C 63 % 12.37 C
1644 02-09-2018 16:55:00 19.4 C 64 % 12.42 C
1645 02-09-2018 17:00:00 19.3 C 64 % 12.32 C
1646 02-09-2018 17:05:00 19.3 C 65 % 12.56 C
1647 02-09-2018 17:10:00 19.2 C 63 % 11.99 C
1648 02-09-2018 17:15:00 19.2 C 62 % 11.75 C
1649 02-09-2018 17:20:00 19.2 C 64 % 12.23 C
1650 02-09-2018 17:25:00 19.3 C 62 % 11.84 C
Sensor: Nr:Datum:Temp:Feuchte:Taupunkt:
Aussen-T/F 1651 02-09-2018 17:30:00 19.3 C 65 % 12.56 C
1652 02-09-2018 17:35:00 19.4 C 65 % 12.66 C
1653 02-09-2018 17:40:00 19.4 C 66 % 12.89 C
1654 02-09-2018 17:45:00 19.4 C 64 % 12.42 C
1655 02-09-2018 17:50:00 19.4 C 62 % 11.94 C
1656 02-09-2018 17:55:00 19.3 C 62 % 11.84 C
1657 02-09-2018 18:00:00 19.3 C 65 % 12.56 C
1658 02-09-2018 18:05:00 19.2 C 66 % 12.7 C
1659 02-09-2018 18:10:00 19.1 C 65 % 12.37 C
1660 02-09-2018 18:15:00 19 C 66 % 12.51 C
1661 02-09-2018 18:20:00 18.9 C 65 % 12.18 C
1662 02-09-2018 18:25:00 18.8 C 66 % 12.32 C
1663 02-09-2018 18:30:00 18.7 C 66 % 12.22 C
1664 02-09-2018 18:35:00 18.5 C 65 % 11.8 C
1665 02-09-2018 18:40:00 18.4 C 66 % 11.94 C
1666 02-09-2018 18:45:00 18.3 C 67 % 12.07 C
1667 02-09-2018 18:50:00 18.2 C 67 % 11.98 C
1668 02-09-2018 18:55:00 18.2 C 67 % 11.98 C
1669 02-09-2018 19:00:00 18.1 C 67 % 11.88 C
1670 02-09-2018 19:05:00 18 C 68 % 12.01 C
1671 02-09-2018 19:10:00 17.9 C 67 % 11.69 C
1672 02-09-2018 19:15:00 17.8 C 67 % 11.6 C
1673 02-09-2018 19:20:00 17.8 C 68 % 11.82 C
1674 02-09-2018 19:25:00 17.7 C 68 % 11.72 C
1675 02-09-2018 19:30:00 17.7 C 68 % 11.72 C
Sensor: Nr:Datum:Temp:Feuchte:Taupunkt:
Aussen-T/F 1676 02-09-2018 19:35:00 17.6 C 68 % 11.63 C
1677 02-09-2018 19:40:00 17.6 C 68 % 11.63 C
1678 02-09-2018 19:45:00 17.5 C 69 % 11.75 C
1679 02-09-2018 19:50:00 17.4 C 69 % 11.66 C
1680 02-09-2018 19:55:00 17.4 C 70 % 11.88 C
1681 02-09-2018 20:00:00 17.3 C 69 % 11.56 C
1682 02-09-2018 20:05:00 17.3 C 69 % 11.56 C
1683 02-09-2018 20:10:00 17.2 C 68 % 11.25 C
1684 02-09-2018 20:15:00 17.2 C 68 % 11.25 C
1685 02-09-2018 20:20:00 17.2 C 69 % 11.47 C
1686 02-09-2018 20:25:00 17.2 C 69 % 11.47 C
1687 02-09-2018 20:30:00 17.2 C 69 % 11.47 C
1688 02-09-2018 20:35:00 17.2 C 69 % 11.47 C
1689 02-09-2018 20:40:00 17.2 C 69 % 11.47 C
1690 02-09-2018 20:45:00 17.2 C 70 % 11.68 C
1691 02-09-2018 20:50:00 17.2 C 68 % 11.25 C
1692 02-09-2018 20:55:00 17.3 C 69 % 11.56 C
1693 02-09-2018 21:00:00 17.3 C 68 % 11.34 C
1694 02-09-2018 21:05:00 17.5 C 68 % 11.53 C
1695 02-09-2018 21:10:00 17.6 C 69 % 11.85 C
1696 02-09-2018 21:15:00 17.6 C 68 % 11.63 C
1697 02-09-2018 21:20:00 17.6 C 68 % 11.63 C
1698 02-09-2018 21:25:00 17.6 C 68 % 11.63 C
1699 02-09-2018 21:30:00 17.6 C 69 % 11.85 C
1700 02-09-2018 21:35:00 17.6 C 69 % 11.85 C
Sensor: Nr:Datum:Temp:Feuchte:Taupunkt:
Aussen-T/F 1701 02-09-2018 21:40:00 17.6 C 69 % 11.85 C
1702 02-09-2018 21:45:00 17.6 C 69 % 11.85 C
1703 02-09-2018 21:50:00 17.6 C 70 % 12.07 C
1704 02-09-2018 21:55:00 17.6 C 70 % 12.07 C
1705 02-09-2018 22:00:00 17.6 C 70 % 12.07 C
1706 02-09-2018 22:05:00 17.6 C 71 % 12.28 C
1707 02-09-2018 22:10:00 17.6 C 71 % 12.28 C
1708 02-09-2018 22:15:00 17.5 C 72 % 12.4 C
1709 02-09-2018 22:20:00 17.4 C 73 % 12.51 C
1710 02-09-2018 22:25:00 17.4 C 73 % 12.51 C
1711 02-09-2018 22:30:00 17.4 C 73 % 12.51 C
1712 02-09-2018 22:35:00 17.4 C 74 % 12.72 C
1713 02-09-2018 22:40:00 17.4 C 74 % 12.72 C
1714 02-09-2018 22:45:00 17.4 C 74 % 12.72 C
1715 02-09-2018 22:50:00 17.4 C 74 % 12.72 C
1716 02-09-2018 22:55:00 17.4 C 74 % 12.72 C
1717 02-09-2018 23:00:00 17.4 C 74 % 12.72 C
1718 02-09-2018 23:05:00 17.4 C 74 % 12.72 C
1719 02-09-2018 23:10:00 17.3 C 74 % 12.62 C
1720 02-09-2018 23:15:00 17.3 C 74 % 12.62 C
1721 02-09-2018 23:20:00 17.3 C 75 % 12.83 C
1722 02-09-2018 23:25:00 17.2 C 75 % 12.73 C
1723 02-09-2018 23:30:00 17.2 C 75 % 12.73 C
1724 02-09-2018 23:35:00 17.2 C 75 % 12.73 C
1725 02-09-2018 23:40:00 17.2 C 76 % 12.94 C
Sensor: Nr:Datum:Temp:Feuchte:Taupunkt:
Aussen-T/F 1726 02-09-2018 23:45:00 17.2 C 76 % 12.94 C
1727 02-09-2018 23:50:00 17.2 C 76 % 12.94 C
1728 02-09-2018 23:55:00 17.2 C 76 % 12.94 C
1729 03-09-2018 00:00:00 17.1 C 76 % 12.84 C
1730 03-09-2018 00:05:00 17.1 C 77 % 13.04 C
1731 03-09-2018 00:10:00 17.1 C 77 % 13.04 C
1732 03-09-2018 00:15:00 17 C 77 % 12.94 C
1733 03-09-2018 00:20:00 17 C 78 % 13.14 C
1734 03-09-2018 00:25:00 16.9 C 78 % 13.04 C
1735 03-09-2018 00:30:00 16.9 C 78 % 13.04 C
1736 03-09-2018 00:35:00 16.8 C 78 % 12.94 C
1737 03-09-2018 00:40:00 16.8 C 79 % 13.14 C
1738 03-09-2018 00:45:00 16.7 C 79 % 13.04 C
1739 03-09-2018 00:50:00 16.7 C 80 % 13.23 C
1740 03-09-2018 00:55:00 16.6 C 80 % 13.14 C
1741 03-09-2018 01:00:00 16.6 C 80 % 13.14 C
1742 03-09-2018 01:05:00 16.5 C 81 % 13.23 C
1743 03-09-2018 01:10:00 16.4 C 81 % 13.13 C
1744 03-09-2018 01:15:00 16.4 C 81 % 13.13 C
1745 03-09-2018 01:20:00 16.4 C 81 % 13.13 C
1746 03-09-2018 01:25:00 16.4 C 81 % 13.13 C
1747 03-09-2018 01:30:00 16.3 C 81 % 13.04 C
1748 03-09-2018 01:35:00 16.4 C 81 % 13.13 C
1749 03-09-2018 01:40:00 16.4 C 81 % 13.13 C
1750 03-09-2018 01:45:00 16.4 C 82 % 13.32 C
Sensor: Nr:Datum:Temp:Feuchte:Taupunkt:
Aussen-T/F 1751 03-09-2018 01:50:00 16.4 C 82 % 13.32 C
1752 03-09-2018 01:55:00 16.3 C 82 % 13.22 C
1753 03-09-2018 02:00:00 16.2 C 82 % 13.13 C
1754 03-09-2018 02:05:00 16.2 C 82 % 13.13 C
1755 03-09-2018 02:10:00 16.1 C 83 % 13.21 C
1756 03-09-2018 02:15:00 16.1 C 83 % 13.21 C
1757 03-09-2018 02:20:00 16.1 C 83 % 13.21 C
1758 03-09-2018 02:25:00 16.1 C 83 % 13.21 C
1759 03-09-2018 02:30:00 16.1 C 83 % 13.21 C
1760 03-09-2018 02:35:00 16.1 C 84 % 13.4 C
1761 03-09-2018 02:40:00 16 C 84 % 13.3 C
1762 03-09-2018 02:45:00 16 C 84 % 13.3 C
1763 03-09-2018 02:50:00 16 C 84 % 13.3 C
1764 03-09-2018 02:55:00 15.9 C 84 % 13.2 C
1765 03-09-2018 03:00:00 15.9 C 84 % 13.2 C
1766 03-09-2018 03:05:00 15.9 C 84 % 13.2 C
1767 03-09-2018 03:10:00 15.9 C 84 % 13.2 C
1768 03-09-2018 03:15:00 15.9 C 84 % 13.2 C
1769 03-09-2018 03:20:00 15.9 C 84 % 13.2 C
1770 03-09-2018 03:25:00 15.9 C 85 % 13.38 C
1771 03-09-2018 03:30:00 15.9 C 85 % 13.38 C
1772 03-09-2018 03:35:00 15.9 C 85 % 13.38 C
1773 03-09-2018 03:40:00 15.9 C 85 % 13.38 C
1774 03-09-2018 03:45:00 15.9 C 85 % 13.38 C
1775 03-09-2018 03:50:00 15.9 C 85 % 13.38 C
Sensor: Nr:Datum:Temp:Feuchte:Taupunkt:
Aussen-T/F 1776 03-09-2018 03:55:00 15.9 C 85 % 13.38 C
1777 03-09-2018 04:00:00 15.9 C 85 % 13.38 C
1778 03-09-2018 04:05:00 15.9 C 85 % 13.38 C
1779 03-09-2018 04:10:00 15.9 C 85 % 13.38 C
1780 03-09-2018 04:15:00 15.9 C 85 % 13.38 C
1781 03-09-2018 04:20:00 15.9 C 85 % 13.38 C
1782 03-09-2018 04:25:00 15.9 C 85 % 13.38 C
1783 03-09-2018 04:30:00 15.9 C 85 % 13.38 C
1784 03-09-2018 04:35:00 15.9 C 85 % 13.38 C
1785 03-09-2018 04:40:00 15.9 C 85 % 13.38 C
1786 03-09-2018 04:45:00 15.8 C 85 % 13.28 C
1787 03-09-2018 04:50:00 15.8 C 86 % 13.46 C
1788 03-09-2018 04:55:00 15.8 C 86 % 13.46 C
1789 03-09-2018 05:00:00 15.8 C 86 % 13.46 C
1790 03-09-2018 05:05:00 15.8 C 86 % 13.46 C
1791 03-09-2018 05:10:00 15.8 C 86 % 13.46 C
1792 03-09-2018 05:15:00 15.8 C 86 % 13.46 C
1793 03-09-2018 05:20:00 15.8 C 86 % 13.46 C
1794 03-09-2018 05:25:00 15.8 C 86 % 13.46 C
1795 03-09-2018 05:30:00 15.7 C 86 % 13.37 C
1796 03-09-2018 05:35:00 15.7 C 86 % 13.37 C
1797 03-09-2018 05:40:00 15.7 C 86 % 13.37 C
1798 03-09-2018 05:45:00 15.7 C 86 % 13.37 C
1799 03-09-2018 05:50:00 15.7 C 86 % 13.37 C
1800 03-09-2018 05:55:00 15.7 C 86 % 13.37 C
Sensor: Nr:Datum:Temp:Feuchte:Taupunkt:
Aussen-T/F 1801 03-09-2018 06:00:00 15.7 C 86 % 13.37 C
1802 03-09-2018 06:05:00 15.7 C 86 % 13.37 C
1803 03-09-2018 06:10:00 15.7 C 86 % 13.37 C
1804 03-09-2018 06:15:00 15.7 C 86 % 13.37 C
1805 03-09-2018 06:20:00 15.7 C 86 % 13.37 C
1806 03-09-2018 06:25:00 15.6 C 86 % 13.27 C
1807 03-09-2018 06:30:00 15.6 C 86 % 13.27 C
1808 03-09-2018 06:35:00 15.6 C 86 % 13.27 C
1809 03-09-2018 06:40:00 15.6 C 86 % 13.27 C
1810 03-09-2018 06:45:00 15.5 C 86 % 13.17 C
1811 03-09-2018 06:50:00 15.5 C 87 % 13.35 C
1812 03-09-2018 06:55:00 15.5 C 87 % 13.35 C
1813 03-09-2018 07:00:00 15.5 C 87 % 13.35 C
1814 03-09-2018 07:05:00 15.5 C 87 % 13.35 C
1815 03-09-2018 07:10:00 15.5 C 87 % 13.35 C
1816 03-09-2018 07:15:00 15.5 C 87 % 13.35 C
1817 03-09-2018 07:20:00 15.5 C 87 % 13.35 C
1818 03-09-2018 07:25:00 15.5 C 87 % 13.35 C
1819 03-09-2018 07:30:00 15.5 C 87 % 13.35 C
1820 03-09-2018 07:35:00 15.5 C 87 % 13.35 C
1821 03-09-2018 07:40:00 15.6 C 87 % 13.45 C
1822 03-09-2018 07:45:00 15.6 C 87 % 13.45 C
1823 03-09-2018 07:50:00 15.6 C 87 % 13.45 C
1824 03-09-2018 07:55:00 15.7 C 87 % 13.54 C
1825 03-09-2018 08:00:00 15.7 C 87 % 13.54 C
Sensor: Nr:Datum:Temp:Feuchte:Taupunkt:
Aussen-T/F 1826 03-09-2018 08:05:00 15.8 C 87 % 13.64 C
1827 03-09-2018 08:10:00 15.8 C 87 % 13.64 C
1828 03-09-2018 08:15:00 15.9 C 87 % 13.74 C
1829 03-09-2018 08:20:00 15.9 C 87 % 13.74 C
1830 03-09-2018 08:25:00 16 C 87 % 13.84 C
1831 03-09-2018 08:30:00 16.1 C 87 % 13.94 C
1832 03-09-2018 08:35:00 16.1 C 87 % 13.94 C
1833 03-09-2018 08:40:00 16.2 C 87 % 14.03 C
1834 03-09-2018 08:45:00 16.2 C 87 % 14.03 C
1835 03-09-2018 08:50:00 16.3 C 86 % 13.95 C
1836 03-09-2018 08:55:00 16.3 C 85 % 13.77 C
1837 03-09-2018 09:00:00 16.4 C 85 % 13.87 C
1838 03-09-2018 09:05:00 16.6 C 85 % 14.07 C
1839 03-09-2018 09:10:00 16.7 C 84 % 13.98 C
1840 03-09-2018 09:15:00 16.8 C 84 % 14.08 C
1841 03-09-2018 09:20:00 17 C 83 % 14.09 C
1842 03-09-2018 09:25:00 17.2 C 83 % 14.29 C
1843 03-09-2018 09:30:00 17.3 C 83 % 14.39 C
1844 03-09-2018 09:35:00 17.4 C 82 % 14.3 C
1845 03-09-2018 09:40:00 17.5 C 82 % 14.39 C
1846 03-09-2018 09:45:00 17.6 C 82 % 14.49 C
1847 03-09-2018 09:50:00 17.6 C 81 % 14.3 C
1848 03-09-2018 09:55:00 17.6 C 81 % 14.3 C
1849 03-09-2018 10:00:00 17.5 C 81 % 14.2 C
1850 03-09-2018 10:05:00 17.5 C 81 % 14.2 C
Sensor: Nr:Datum:Temp:Feuchte:Taupunkt:
Aussen-T/F 1851 03-09-2018 10:10:00 17.5 C 81 % 14.2 C
1852 03-09-2018 10:15:00 17.5 C 81 % 14.2 C
1853 03-09-2018 10:20:00 17.6 C 82 % 14.49 C
1854 03-09-2018 10:25:00 17.7 C 81 % 14.4 C
1855 03-09-2018 10:30:00 17.8 C 80 % 14.31 C
1856 03-09-2018 10:35:00 17.8 C 80 % 14.31 C
1857 03-09-2018 10:40:00 17.9 C 80 % 14.4 C
1858 03-09-2018 10:45:00 18 C 80 % 14.5 C
1859 03-09-2018 10:50:00 18 C 79 % 14.31 C
1860 03-09-2018 10:55:00 18.1 C 79 % 14.4 C
1861 03-09-2018 11:00:00 18.1 C 79 % 14.4 C
1862 03-09-2018 11:05:00 18.2 C 80 % 14.69 C
1863 03-09-2018 11:10:00 18.4 C 79 % 14.69 C
1864 03-09-2018 11:15:00 18.6 C 78 % 14.69 C
1865 03-09-2018 11:20:00 18.7 C 78 % 14.79 C
1866 03-09-2018 11:25:00 18.7 C 77 % 14.59 C
1867 03-09-2018 11:30:00 18.8 C 77 % 14.68 C
1868 03-09-2018 11:35:00 18.9 C 77 % 14.78 C
1869 03-09-2018 11:40:00 19 C 77 % 14.88 C
1870 03-09-2018 11:45:00 19.1 C 76 % 14.77 C
1871 03-09-2018 11:50:00 19.1 C 76 % 14.77 C
1872 03-09-2018 11:55:00 19.2 C 76 % 14.87 C
1873 03-09-2018 12:00:00 19.4 C 74 % 14.65 C
1874 03-09-2018 12:05:00 19.6 C 75 % 15.05 C
1875 03-09-2018 12:10:00 19.6 C 74 % 14.84 C
Sensor: Nr:Datum:Temp:Feuchte:Taupunkt:
Aussen-T/F 1876 03-09-2018 12:15:00 19.7 C 74 % 14.94 C
1877 03-09-2018 12:20:00 19.6 C 73 % 14.63 C
1878 03-09-2018 12:25:00 19.4 C 74 % 14.65 C
1879 03-09-2018 12:30:00 19.4 C 74 % 14.65 C
1880 03-09-2018 12:35:00 19.4 C 74 % 14.65 C
1881 03-09-2018 12:40:00 19.5 C 75 % 14.95 C
1882 03-09-2018 12:45:00 19.6 C 74 % 14.84 C
1883 03-09-2018 12:50:00 19.6 C 73 % 14.63 C
1884 03-09-2018 12:55:00 19.6 C 74 % 14.84 C
1885 03-09-2018 13:00:00 19.7 C 74 % 14.94 C
1886 03-09-2018 13:05:00 19.7 C 74 % 14.94 C
1887 03-09-2018 13:10:00 19.7 C 73 % 14.73 C
1888 03-09-2018 13:15:00 19.7 C 73 % 14.73 C
1889 03-09-2018 13:20:00 19.8 C 74 % 15.03 C
1890 03-09-2018 13:25:00 19.8 C 74 % 15.03 C
1891 03-09-2018 13:30:00 20 C 74 % 15.23 C
1892 03-09-2018 13:35:00 20.2 C 72 % 14.99 C
1893 03-09-2018 13:40:00 20.3 C 72 % 15.09 C
1894 03-09-2018 13:45:00 20.3 C 72 % 15.09 C
1895 03-09-2018 13:50:00 20.3 C 72 % 15.09 C
1896 03-09-2018 13:55:00 20.5 C 73 % 15.5 C
1897 03-09-2018 14:00:00 20.7 C 72 % 15.47 C
1898 03-09-2018 14:05:00 20.8 C 72 % 15.57 C
1899 03-09-2018 14:10:00 20.9 C 70 % 15.23 C
1900 03-09-2018 14:15:00 20.8 C 70 % 15.13 C
Sensor: Nr:Datum:Temp:Feuchte:Taupunkt:
Aussen-T/F 1901 03-09-2018 14:20:00 20.7 C 71 % 15.25 C
1902 03-09-2018 14:25:00 20.7 C 71 % 15.25 C
1903 03-09-2018 14:30:00 20.7 C 71 % 15.25 C
1904 03-09-2018 14:35:00 20.8 C 71 % 15.35 C
1905 03-09-2018 14:40:00 20.8 C 71 % 15.35 C
1906 03-09-2018 14:45:00 20.9 C 71 % 15.45 C
1907 03-09-2018 14:50:00 20.9 C 70 % 15.23 C
1908 03-09-2018 14:55:00 20.9 C 71 % 15.45 C
1909 03-09-2018 15:00:00 20.9 C 70 % 15.23 C
1910 03-09-2018 15:05:00 20.9 C 71 % 15.45 C
1911 03-09-2018 15:10:00 21 C 70 % 15.32 C
1912 03-09-2018 15:15:00 21 C 71 % 15.54 C
1913 03-09-2018 15:20:00 20.9 C 71 % 15.45 C
1914 03-09-2018 15:25:00 20.8 C 71 % 15.35 C
1915 03-09-2018 15:30:00 20.8 C 72 % 15.57 C
1916 03-09-2018 15:35:00 20.8 C 73 % 15.78 C
1917 03-09-2018 15:40:00 20.8 C 72 % 15.57 C
1918 03-09-2018 15:45:00 20.7 C 73 % 15.69 C
1919 03-09-2018 15:50:00 20.7 C 72 % 15.47 C
1920 03-09-2018 15:55:00 20.7 C 72 % 15.47 C
1921 03-09-2018 16:00:00 20.7 C 72 % 15.47 C
1922 03-09-2018 16:05:00 20.7 C 72 % 15.47 C
1923 03-09-2018 16:10:00 20.8 C 73 % 15.78 C
1924 03-09-2018 16:15:00 20.8 C 72 % 15.57 C
1925 03-09-2018 16:20:00 20.7 C 72 % 15.47 C
Sensor: Nr:Datum:Temp:Feuchte:Taupunkt:
Aussen-T/F 1926 03-09-2018 16:25:00 20.7 C 72 % 15.47 C
1927 03-09-2018 16:30:00 20.7 C 72 % 15.47 C
1928 03-09-2018 16:35:00 20.6 C 72 % 15.38 C
1929 03-09-2018 16:40:00 20.6 C 73 % 15.59 C
1930 03-09-2018 16:45:00 20.6 C 72 % 15.38 C
1931 03-09-2018 16:50:00 20.6 C 73 % 15.59 C
1932 03-09-2018 16:55:00 20.6 C 73 % 15.59 C
1933 03-09-2018 17:00:00 20.6 C 73 % 15.59 C
1934 03-09-2018 17:05:00 20.6 C 75 % 16.01 C
1935 03-09-2018 17:10:00 20.6 C 75 % 16.01 C
1936 03-09-2018 17:15:00 20.6 C 75 % 16.01 C
1937 03-09-2018 17:20:00 20.6 C 75 % 16.01 C
1938 03-09-2018 17:25:00 20.6 C 76 % 16.22 C
1939 03-09-2018 17:30:00 20.6 C 76 % 16.22 C
1940 03-09-2018 17:35:00 20.6 C 76 % 16.22 C
1941 03-09-2018 17:40:00 20.6 C 75 % 16.01 C
1942 03-09-2018 17:45:00 20.6 C 75 % 16.01 C
1943 03-09-2018 17:50:00 20.6 C 75 % 16.01 C
1944 03-09-2018 17:55:00 20.5 C 75 % 15.92 C
1945 03-09-2018 18:00:00 20.5 C 75 % 15.92 C
1946 03-09-2018 18:05:00 20.4 C 75 % 15.82 C
1947 03-09-2018 18:10:00 20.4 C 75 % 15.82 C
1948 03-09-2018 18:15:00 20.4 C 75 % 15.82 C
1949 03-09-2018 18:20:00 20.4 C 75 % 15.82 C
1950 03-09-2018 18:25:00 20.4 C 75 % 15.82 C
Sensor: Nr:Datum:Temp:Feuchte:Taupunkt:
Aussen-T/F 1951 03-09-2018 18:30:00 20.4 C 75 % 15.82 C
1952 03-09-2018 18:35:00 20.3 C 76 % 15.93 C
1953 03-09-2018 18:40:00 20.3 C 76 % 15.93 C
1954 03-09-2018 18:45:00 20.2 C 76 % 15.83 C
1955 03-09-2018 18:50:00 20.2 C 76 % 15.83 C
1956 03-09-2018 18:55:00 20.2 C 77 % 16.04 C
1957 03-09-2018 19:00:00 20.2 C 77 % 16.04 C
1958 03-09-2018 19:05:00 20.1 C 77 % 15.94 C
1959 03-09-2018 19:10:00 20.1 C 77 % 15.94 C
1960 03-09-2018 19:15:00 20.1 C 77 % 15.94 C
1961 03-09-2018 19:20:00 20 C 78 % 16.05 C
1962 03-09-2018 19:25:00 19.9 C 78 % 15.95 C
1963 03-09-2018 19:30:00 19.9 C 78 % 15.95 C
1964 03-09-2018 19:35:00 19.9 C 79 % 16.15 C
1965 03-09-2018 19:40:00 19.8 C 79 % 16.05 C
1966 03-09-2018 19:45:00 19.8 C 79 % 16.05 C
1967 03-09-2018 19:50:00 19.7 C 81 % 16.35 C
1968 03-09-2018 19:55:00 19.6 C 81 % 16.25 C
1969 03-09-2018 20:00:00 19.5 C 82 % 16.35 C
1970 03-09-2018 20:05:00 19.3 C 82 % 16.15 C
1971 03-09-2018 20:10:00 19.2 C 82 % 16.05 C
1972 03-09-2018 20:15:00 19.1 C 83 % 16.15 C
1973 03-09-2018 20:20:00 19 C 83 % 16.05 C
1974 03-09-2018 20:25:00 18.9 C 83 % 15.95 C
1975 03-09-2018 20:30:00 18.8 C 83 % 15.85 C
Sensor: Nr:Datum:Temp:Feuchte:Taupunkt:
Aussen-T/F 1976 03-09-2018 20:35:00 18.8 C 84 % 16.04 C
1977 03-09-2018 20:40:00 18.7 C 84 % 15.94 C
1978 03-09-2018 20:45:00 18.7 C 84 % 15.94 C
1979 03-09-2018 20:50:00 18.7 C 84 % 15.94 C
1980 03-09-2018 20:55:00 18.6 C 85 % 16.03 C
1981 03-09-2018 21:00:00 18.6 C 85 % 16.03 C
1982 03-09-2018 21:05:00 18.6 C 85 % 16.03 C
1983 03-09-2018 21:10:00 18.5 C 85 % 15.93 C
1984 03-09-2018 21:15:00 18.4 C 85 % 15.83 C
1985 03-09-2018 21:20:00 18.4 C 85 % 15.83 C
1986 03-09-2018 21:25:00 18.4 C 85 % 15.83 C
1987 03-09-2018 21:30:00 18.3 C 86 % 15.92 C
1988 03-09-2018 21:35:00 18.3 C 86 % 15.92 C
1989 03-09-2018 21:40:00 18.3 C 86 % 15.92 C
1990 03-09-2018 21:45:00 18.3 C 86 % 15.92 C
1991 03-09-2018 21:50:00 18.2 C 86 % 15.82 C
1992 03-09-2018 21:55:00 18.2 C 86 % 15.82 C
1993 03-09-2018 22:00:00 18.2 C 86 % 15.82 C
1994 03-09-2018 22:05:00 18.2 C 86 % 15.82 C
1995 03-09-2018 22:10:00 18.2 C 86 % 15.82 C
1996 03-09-2018 22:15:00 18.1 C 86 % 15.72 C
1997 03-09-2018 22:20:00 18.1 C 86 % 15.72 C
1998 03-09-2018 22:25:00 18.1 C 86 % 15.72 C
1999 03-09-2018 22:30:00 18 C 86 % 15.62 C
2000 03-09-2018 22:35:00 17.9 C 87 % 15.71 C
Sensor: Nr:Datum:Temp:Feuchte:Taupunkt:
Aussen-T/F 2001 03-09-2018 22:40:00 17.9 C 87 % 15.71 C
2002 03-09-2018 22:45:00 17.8 C 87 % 15.61 C
2003 03-09-2018 22:50:00 17.8 C 87 % 15.61 C
2004 03-09-2018 22:55:00 17.8 C 87 % 15.61 C
2005 03-09-2018 23:00:00 17.7 C 87 % 15.51 C
2006 03-09-2018 23:05:00 17.7 C 88 % 15.69 C
2007 03-09-2018 23:10:00 17.7 C 88 % 15.69 C
2008 03-09-2018 23:15:00 17.7 C 88 % 15.69 C
2009 03-09-2018 23:20:00 17.6 C 88 % 15.59 C
2010 03-09-2018 23:25:00 17.6 C 88 % 15.59 C
2011 03-09-2018 23:30:00 17.6 C 89 % 15.77 C
2012 03-09-2018 23:35:00 17.6 C 88 % 15.59 C
2013 03-09-2018 23:40:00 17.5 C 89 % 15.67 C
2014 03-09-2018 23:45:00 17.4 C 89 % 15.57 C
2015 03-09-2018 23:50:00 17.4 C 89 % 15.57 C
2016 03-09-2018 23:55:00 17.4 C 89 % 15.57 C
2017 04-09-2018 00:00:00 17.4 C 89 % 15.57 C
2018 04-09-2018 00:05:00 17.4 C 89 % 15.57 C
2019 04-09-2018 00:10:00 17.4 C 89 % 15.57 C
2020 04-09-2018 00:15:00 17.4 C 89 % 15.57 C
2021 04-09-2018 00:20:00 17.4 C 89 % 15.57 C
2022 04-09-2018 00:25:00 17.3 C 89 % 15.47 C
2023 04-09-2018 00:30:00 17.3 C 89 % 15.47 C
2024 04-09-2018 00:35:00 17.2 C 89 % 15.37 C
2025 04-09-2018 00:40:00 17.2 C 89 % 15.37 C
Sensor: Nr:Datum:Temp:Feuchte:Taupunkt:
Aussen-T/F 2026 04-09-2018 00:45:00 17.2 C 89 % 15.37 C
2027 04-09-2018 00:50:00 17.2 C 90 % 15.55 C
2028 04-09-2018 00:55:00 17.2 C 90 % 15.55 C
2029 04-09-2018 01:00:00 17.2 C 90 % 15.55 C
2030 04-09-2018 01:05:00 17.2 C 90 % 15.55 C
2031 04-09-2018 01:10:00 17.2 C 90 % 15.55 C
2032 04-09-2018 01:15:00 17.2 C 90 % 15.55 C
2033 04-09-2018 01:20:00 17.2 C 90 % 15.55 C
2034 04-09-2018 01:25:00 17.2 C 90 % 15.55 C
2035 04-09-2018 01:30:00 17.2 C 90 % 15.55 C
2036 04-09-2018 01:35:00 17.2 C 90 % 15.55 C
2037 04-09-2018 01:40:00 17.3 C 90 % 15.64 C
2038 04-09-2018 01:45:00 17.2 C 90 % 15.55 C
2039 04-09-2018 01:50:00 17.3 C 90 % 15.64 C
2040 04-09-2018 01:55:00 17.3 C 90 % 15.64 C
2041 04-09-2018 02:00:00 17.3 C 90 % 15.64 C
2042 04-09-2018 02:05:00 17.2 C 90 % 15.55 C
2043 04-09-2018 02:10:00 17.3 C 90 % 15.64 C
2044 04-09-2018 02:15:00 17.2 C 90 % 15.55 C
2045 04-09-2018 02:20:00 17.2 C 90 % 15.55 C
2046 04-09-2018 02:25:00 17.2 C 90 % 15.55 C
2047 04-09-2018 02:30:00 17.3 C 90 % 15.64 C
2048 04-09-2018 02:35:00 17.3 C 90 % 15.64 C
2049 04-09-2018 02:40:00 17.2 C 90 % 15.55 C
2050 04-09-2018 02:45:00 17.2 C 90 % 15.55 C
Sensor: Nr:Datum:Temp:Feuchte:Taupunkt:
Aussen-T/F 2051 04-09-2018 02:50:00 17.2 C 90 % 15.55 C
2052 04-09-2018 02:55:00 17.2 C 91 % 15.72 C
2053 04-09-2018 03:00:00 17.2 C 91 % 15.72 C
2054 04-09-2018 03:05:00 17.2 C 91 % 15.72 C
2055 04-09-2018 03:10:00 17.2 C 91 % 15.72 C
2056 04-09-2018 03:15:00 17.2 C 91 % 15.72 C
2057 04-09-2018 03:20:00 17.2 C 91 % 15.72 C
2058 04-09-2018 03:25:00 17.1 C 91 % 15.62 C
2059 04-09-2018 03:30:00 17.2 C 91 % 15.72 C
2060 04-09-2018 03:35:00 17.1 C 91 % 15.62 C
2061 04-09-2018 03:40:00 17.1 C 91 % 15.62 C
2062 04-09-2018 03:45:00 17.1 C 91 % 15.62 C
2063 04-09-2018 03:50:00 17.1 C 91 % 15.62 C
2064 04-09-2018 03:55:00 17.1 C 91 % 15.62 C
2065 04-09-2018 04:00:00 17.1 C 91 % 15.62 C
2066 04-09-2018 04:05:00 17.1 C 91 % 15.62 C
2067 04-09-2018 04:10:00 17.1 C 91 % 15.62 C
2068 04-09-2018 04:15:00 17.1 C 91 % 15.62 C
2069 04-09-2018 04:20:00 17.1 C 91 % 15.62 C
2070 04-09-2018 04:25:00 17.1 C 91 % 15.62 C
2071 04-09-2018 04:30:00 17.1 C 91 % 15.62 C
2072 04-09-2018 04:35:00 17.1 C 91 % 15.62 C
2073 04-09-2018 04:40:00 17.1 C 91 % 15.62 C
2074 04-09-2018 04:45:00 17 C 91 % 15.52 C
2075 04-09-2018 04:50:00 16.9 C 91 % 15.42 C
Sensor: Nr:Datum:Temp:Feuchte:Taupunkt:
Aussen-T/F 2076 04-09-2018 04:55:00 16.8 C 91 % 15.32 C
2077 04-09-2018 05:00:00 16.7 C 90 % 15.05 C
2078 04-09-2018 05:05:00 16.4 C 90 % 14.76 C
2079 04-09-2018 05:10:00 16.3 C 91 % 14.83 C
2080 04-09-2018 05:15:00 16.3 C 91 % 14.83 C
2081 04-09-2018 05:20:00 16.2 C 91 % 14.73 C
2082 04-09-2018 05:25:00 16.1 C 91 % 14.63 C
2083 04-09-2018 05:30:00 16.1 C 92 % 14.8 C
2084 04-09-2018 05:35:00 16.1 C 92 % 14.8 C
2085 04-09-2018 05:40:00 16 C 92 % 14.7 C
2086 04-09-2018 05:45:00 15.9 C 92 % 14.6 C
2087 04-09-2018 05:50:00 15.8 C 92 % 14.5 C
2088 04-09-2018 05:55:00 15.7 C 92 % 14.4 C
2089 04-09-2018 06:00:00 15.6 C 92 % 14.31 C
2090 04-09-2018 06:05:00 15.6 C 92 % 14.31 C
2091 04-09-2018 06:10:00 15.5 C 92 % 14.21 C
2092 04-09-2018 06:15:00 15.4 C 92 % 14.11 C
2093 04-09-2018 06:20:00 15.4 C 92 % 14.11 C
2094 04-09-2018 06:25:00 15.3 C 92 % 14.01 C
2095 04-09-2018 06:30:00 15.2 C 92 % 13.91 C
2096 04-09-2018 06:35:00 15.3 C 93 % 14.18 C
2097 04-09-2018 06:40:00 15.3 C 93 % 14.18 C
2098 04-09-2018 06:45:00 15.4 C 94 % 14.44 C
2099 04-09-2018 06:50:00 15.4 C 94 % 14.44 C
2100 04-09-2018 06:55:00 15.5 C 94 % 14.54 C
Sensor: Nr:Datum:Temp:Feuchte:Taupunkt:
Aussen-T/F 2101 04-09-2018 07:00:00 15.7 C 94 % 14.74 C
2102 04-09-2018 07:05:00 15.7 C 94 % 14.74 C
2103 04-09-2018 07:10:00 15.8 C 94 % 14.84 C
2104 04-09-2018 07:15:00 15.8 C 94 % 14.84 C
2105 04-09-2018 07:20:00 15.8 C 94 % 14.84 C
2106 04-09-2018 07:25:00 15.8 C 94 % 14.84 C
2107 04-09-2018 07:30:00 15.8 C 94 % 14.84 C
2108 04-09-2018 07:35:00 15.9 C 94 % 14.94 C
2109 04-09-2018 07:40:00 15.9 C 94 % 14.94 C
2110 04-09-2018 07:45:00 15.9 C 94 % 14.94 C
2111 04-09-2018 07:50:00 16 C 94 % 15.03 C
2112 04-09-2018 07:55:00 16.1 C 94 % 15.13 C
2113 04-09-2018 08:00:00 16.1 C 94 % 15.13 C
2114 04-09-2018 08:05:00 16.1 C 94 % 15.13 C
2115 04-09-2018 08:10:00 16.1 C 94 % 15.13 C
2116 04-09-2018 08:15:00 16.2 C 94 % 15.23 C
2117 04-09-2018 08:20:00 16.2 C 94 % 15.23 C
2118 04-09-2018 08:25:00 16.2 C 94 % 15.23 C
2119 04-09-2018 08:30:00 16.3 C 94 % 15.33 C
2120 04-09-2018 08:35:00 16.3 C 94 % 15.33 C
2121 04-09-2018 08:40:00 16.3 C 94 % 15.33 C
2122 04-09-2018 08:45:00 16.4 C 94 % 15.43 C
2123 04-09-2018 08:50:00 16.5 C 94 % 15.53 C
2124 04-09-2018 08:55:00 16.6 C 94 % 15.63 C
2125 04-09-2018 09:00:00 16.7 C 94 % 15.73 C
Sensor: Nr:Datum:Temp:Feuchte:Taupunkt:
Aussen-T/F 2126 04-09-2018 09:05:00 16.8 C 93 % 15.66 C
2127 04-09-2018 09:10:00 16.9 C 93 % 15.76 C
2128 04-09-2018 09:15:00 17.1 C 93 % 15.96 C
2129 04-09-2018 09:20:00 17.2 C 93 % 16.06 C
2130 04-09-2018 09:25:00 17.3 C 93 % 16.16 C
2131 04-09-2018 09:30:00 17.4 C 92 % 16.09 C
2132 04-09-2018 09:35:00 17.5 C 92 % 16.19 C
2133 04-09-2018 09:40:00 17.6 C 91 % 16.11 C
2134 04-09-2018 09:45:00 17.7 C 91 % 16.21 C
2135 04-09-2018 09:50:00 17.7 C 91 % 16.21 C
2136 04-09-2018 09:55:00 17.8 C 91 % 16.31 C
2137 04-09-2018 10:00:00 17.9 C 91 % 16.41 C
2138 04-09-2018 10:05:00 18 C 91 % 16.51 C
2139 04-09-2018 10:10:00 18.1 C 90 % 16.43 C
2140 04-09-2018 10:15:00 18.1 C 90 % 16.43 C
2141 04-09-2018 10:20:00 18.2 C 90 % 16.53 C
2142 04-09-2018 10:25:00 18.3 C 90 % 16.63 C
2143 04-09-2018 10:30:00 18.3 C 90 % 16.63 C
2144 04-09-2018 10:35:00 18.4 C 89 % 16.55 C
2145 04-09-2018 10:40:00 18.5 C 89 % 16.65 C
2146 04-09-2018 10:45:00 18.6 C 89 % 16.75 C
2147 04-09-2018 10:50:00 18.6 C 89 % 16.75 C
2148 04-09-2018 10:55:00 18.7 C 89 % 16.85 C
2149 04-09-2018 11:00:00 18.7 C 89 % 16.85 C
2150 04-09-2018 11:05:00 18.8 C 89 % 16.95 C
Sensor: Nr:Datum:Temp:Feuchte:Taupunkt:
Aussen-T/F 2151 04-09-2018 11:10:00 18.9 C 90 % 17.22 C
2152 04-09-2018 11:15:00 19.1 C 90 % 17.42 C
2153 04-09-2018 11:20:00 19.1 C 89 % 17.24 C
2154 04-09-2018 11:25:00 19.2 C 88 % 17.16 C
2155 04-09-2018 11:30:00 19.4 C 88 % 17.36 C
2156 04-09-2018 11:35:00 19.6 C 88 % 17.56 C
2157 04-09-2018 11:40:00 19.7 C 88 % 17.66 C
2158 04-09-2018 11:45:00 19.9 C 87 % 17.67 C
2159 04-09-2018 11:50:00 20.1 C 87 % 17.87 C
2160 04-09-2018 11:55:00 20.2 C 85 % 17.6 C
2161 04-09-2018 12:00:00 20.3 C 85 % 17.7 C
2162 04-09-2018 12:05:00 20.4 C 85 % 17.79 C
2163 04-09-2018 12:10:00 20.6 C 83 % 17.61 C
2164 04-09-2018 12:15:00 20.7 C 83 % 17.71 C
2165 04-09-2018 12:20:00 20.8 C 80 % 17.22 C
2166 04-09-2018 12:25:00 21.1 C 79 % 17.32 C
2167 04-09-2018 12:30:00 21.2 C 77 % 17.01 C
2168 04-09-2018 12:35:00 21.4 C 77 % 17.2 C
2169 04-09-2018 12:40:00 21.6 C 75 % 16.98 C
2170 04-09-2018 12:45:00 21.9 C 73 % 16.84 C
2171 04-09-2018 12:50:00 22.3 C 71 % 16.79 C
2172 04-09-2018 12:55:00 22.6 C 70 % 16.85 C
2173 04-09-2018 13:00:00 22.7 C 69 % 16.72 C
2174 04-09-2018 13:05:00 22.8 C 69 % 16.82 C
2175 04-09-2018 13:10:00 22.9 C 68 % 16.68 C
Sensor: Nr:Datum:Temp:Feuchte:Taupunkt:
Aussen-T/F 2176 04-09-2018 13:15:00 23.1 C 67 % 16.64 C
2177 04-09-2018 13:20:00 23.2 C 66 % 16.5 C
2178 04-09-2018 13:25:00 23.3 C 66 % 16.59 C
2179 04-09-2018 13:30:00 23.4 C 65 % 16.45 C
2180 04-09-2018 13:35:00 23.6 C 65 % 16.64 C
2181 04-09-2018 13:40:00 23.6 C 64 % 16.39 C
2182 04-09-2018 13:45:00 23.6 C 65 % 16.64 C
2183 04-09-2018 13:50:00 23.7 C 65 % 16.73 C
2184 04-09-2018 13:55:00 23.7 C 65 % 16.73 C
2185 04-09-2018 14:00:00 23.8 C 64 % 16.58 C
2186 04-09-2018 14:05:00 23.9 C 63 % 16.43 C
2187 04-09-2018 14:10:00 24.1 C 63 % 16.62 C
2188 04-09-2018 14:15:00 24.3 C 62 % 16.55 C
2189 04-09-2018 14:20:00 24.3 C 62 % 16.55 C
2190 04-09-2018 14:25:00 24.3 C 61 % 16.3 C
2191 04-09-2018 14:30:00 24.2 C 61 % 16.2 C
2192 04-09-2018 14:35:00 24.3 C 61 % 16.3 C
2193 04-09-2018 14:40:00 24.6 C 62 % 16.84 C
2194 04-09-2018 14:45:00 24.9 C 60 % 16.6 C
2195 04-09-2018 14:50:00 25.1 C 59 % 16.52 C
2196 04-09-2018 14:55:00 25.1 C 58 % 16.26 C
2197 04-09-2018 15:00:00 25.2 C 58 % 16.35 C
2198 04-09-2018 15:05:00 25.2 C 58 % 16.35 C
2199 04-09-2018 15:10:00 25.2 C 58 % 16.35 C
2200 04-09-2018 15:15:00 25.2 C 58 % 16.35 C
Sensor: Nr:Datum:Temp:Feuchte:Taupunkt:
Aussen-T/F 2201 04-09-2018 15:20:00 25.4 C 56 % 15.99 C
2202 04-09-2018 15:25:00 25.7 C 56 % 16.26 C
2203 04-09-2018 15:30:00 25.8 C 55 % 16.07 C
2204 04-09-2018 15:35:00 25.8 C 55 % 16.07 C
2205 04-09-2018 15:40:00 25.6 C 55 % 15.89 C
2206 04-09-2018 15:45:00 25.5 C 56 % 16.08 C
2207 04-09-2018 15:50:00 25.4 C 56 % 15.99 C
2208 04-09-2018 15:55:00 25.3 C 55 % 15.61 C
2209 04-09-2018 16:00:00 25.3 C 56 % 15.89 C
2210 04-09-2018 16:05:00 25.3 C 56 % 15.89 C
2211 04-09-2018 16:10:00 25.4 C 55 % 15.7 C
2212 04-09-2018 16:15:00 25.5 C 54 % 15.51 C
2213 04-09-2018 16:20:00 25.6 C 56 % 16.17 C
2214 04-09-2018 16:25:00 25.7 C 54 % 15.7 C
2215 04-09-2018 16:30:00 26 C 53 % 15.68 C
2216 04-09-2018 16:35:00 26.3 C 52 % 15.66 C
2217 04-09-2018 16:40:00 26.2 C 52 % 15.57 C
2218 04-09-2018 16:45:00 26.2 C 54 % 16.16 C
2219 04-09-2018 16:50:00 26.1 C 53 % 15.77 C
2220 04-09-2018 16:55:00 25.9 C 54 % 15.88 C
2221 04-09-2018 17:00:00 25.8 C 59 % 17.18 C
2222 04-09-2018 17:05:00 25.7 C 59 % 17.09 C
2223 04-09-2018 17:10:00 25.6 C 60 % 17.26 C
2224 04-09-2018 17:15:00 25.4 C 57 % 16.26 C
2225 04-09-2018 17:20:00 25.3 C 61 % 17.24 C
Sensor: Nr:Datum:Temp:Feuchte:Taupunkt:
Aussen-T/F 2226 04-09-2018 17:25:00 25.2 C 62 % 17.4 C
2227 04-09-2018 17:30:00 25.1 C 62 % 17.31 C
2228 04-09-2018 17:35:00 25 C 63 % 17.47 C
2229 04-09-2018 17:40:00 24.8 C 63 % 17.28 C
2230 04-09-2018 17:45:00 24.8 C 64 % 17.53 C
2231 04-09-2018 17:50:00 24.7 C 64 % 17.43 C
2232 04-09-2018 17:55:00 24.6 C 65 % 17.58 C
2233 04-09-2018 18:00:00 24.6 C 65 % 17.58 C
2234 04-09-2018 18:05:00 24.6 C 65 % 17.58 C
2235 04-09-2018 18:10:00 24.6 C 65 % 17.58 C
2236 04-09-2018 18:15:00 24.6 C 66 % 17.83 C
2237 04-09-2018 18:20:00 24.6 C 65 % 17.58 C
2238 04-09-2018 18:25:00 24.5 C 65 % 17.49 C
2239 04-09-2018 18:30:00 24.4 C 65 % 17.39 C
2240 04-09-2018 18:35:00 24.3 C 65 % 17.3 C
2241 04-09-2018 18:40:00 24.1 C 66 % 17.35 C
2242 04-09-2018 18:45:00 23.9 C 65 % 16.92 C
2243 04-09-2018 18:50:00 23.8 C 67 % 17.3 C
2244 04-09-2018 18:55:00 23.6 C 67 % 17.11 C
2245 04-09-2018 19:00:00 23.6 C 67 % 17.11 C
2246 04-09-2018 19:05:00 23.4 C 67 % 16.92 C
2247 04-09-2018 19:10:00 23.4 C 67 % 16.92 C
2248 04-09-2018 19:15:00 23.4 C 67 % 16.92 C
2249 04-09-2018 19:20:00 23.4 C 67 % 16.92 C
2250 04-09-2018 19:25:00 23.5 C 67 % 17.02 C
Sensor: Nr:Datum:Temp:Feuchte:Taupunkt:
Aussen-T/F 2251 04-09-2018 19:30:00 23.4 C 66 % 16.69 C
2252 04-09-2018 19:35:00 23.3 C 66 % 16.59 C
2253 04-09-2018 19:40:00 23.2 C 66 % 16.5 C
2254 04-09-2018 19:45:00 23.1 C 67 % 16.64 C
2255 04-09-2018 19:50:00 22.9 C 67 % 16.45 C
2256 04-09-2018 19:55:00 22.7 C 68 % 16.49 C
2257 04-09-2018 20:00:00 22.8 C 67 % 16.35 C
2258 04-09-2018 20:05:00 22.8 C 68 % 16.59 C
2259 04-09-2018 20:10:00 22.7 C 68 % 16.49 C
2260 04-09-2018 20:15:00 22.5 C 69 % 16.53 C
2261 04-09-2018 20:20:00 22.3 C 70 % 16.56 C
2262 04-09-2018 20:25:00 22.1 C 71 % 16.6 C
2263 04-09-2018 20:30:00 21.9 C 71 % 16.4 C
2264 04-09-2018 20:35:00 21.8 C 72 % 16.53 C
2265 04-09-2018 20:40:00 21.7 C 72 % 16.43 C
2266 04-09-2018 20:45:00 21.6 C 73 % 16.55 C
2267 04-09-2018 20:50:00 21.4 C 73 % 16.36 C
2268 04-09-2018 20:55:00 21.3 C 74 % 16.48 C
2269 04-09-2018 21:00:00 21.2 C 74 % 16.38 C
2270 04-09-2018 21:05:00 21.2 C 75 % 16.59 C
2271 04-09-2018 21:10:00 21.1 C 75 % 16.5 C
2272 04-09-2018 21:15:00 21 C 75 % 16.4 C
2273 04-09-2018 21:20:00 20.9 C 75 % 16.3 C
2274 04-09-2018 21:25:00 20.9 C 75 % 16.3 C
2275 04-09-2018 21:30:00 20.8 C 75 % 16.21 C
Sensor: Nr:Datum:Temp:Feuchte:Taupunkt:
Aussen-T/F 2276 04-09-2018 21:35:00 20.7 C 76 % 16.32 C
2277 04-09-2018 21:40:00 20.7 C 76 % 16.32 C
2278 04-09-2018 21:45:00 20.6 C 76 % 16.22 C
2279 04-09-2018 21:50:00 20.5 C 76 % 16.12 C
2280 04-09-2018 21:55:00 20.4 C 76 % 16.03 C
2281 04-09-2018 22:00:00 20.4 C 76 % 16.03 C
2282 04-09-2018 22:05:00 20.4 C 75 % 15.82 C
2283 04-09-2018 22:10:00 20.3 C 76 % 15.93 C
2284 04-09-2018 22:15:00 20.3 C 76 % 15.93 C
2285 04-09-2018 22:20:00 20.2 C 76 % 15.83 C
2286 04-09-2018 22:25:00 20.2 C 76 % 15.83 C
2287 04-09-2018 22:30:00 20.1 C 76 % 15.74 C
2288 04-09-2018 22:35:00 20.1 C 77 % 15.94 C
2289 04-09-2018 22:40:00 20.1 C 77 % 15.94 C
2290 04-09-2018 22:45:00 20 C 77 % 15.85 C
2291 04-09-2018 22:50:00 20 C 77 % 15.85 C
2292 04-09-2018 22:55:00 20 C 77 % 15.85 C
2293 04-09-2018 23:00:00 19.9 C 78 % 15.95 C
2294 04-09-2018 23:05:00 19.9 C 78 % 15.95 C
2295 04-09-2018 23:10:00 19.9 C 78 % 15.95 C
2296 04-09-2018 23:15:00 19.8 C 78 % 15.85 C
2297 04-09-2018 23:20:00 19.8 C 79 % 16.05 C
2298 04-09-2018 23:25:00 19.8 C 79 % 16.05 C
2299 04-09-2018 23:30:00 19.7 C 79 % 15.96 C
2300 04-09-2018 23:35:00 19.7 C 79 % 15.96 C
Sensor: Nr:Datum:Temp:Feuchte:Taupunkt:
Aussen-T/F 2301 04-09-2018 23:40:00 19.7 C 79 % 15.96 C
2302 04-09-2018 23:45:00 19.7 C 79 % 15.96 C
2303 04-09-2018 23:50:00 19.7 C 79 % 15.96 C
2304 04-09-2018 23:55:00 19.7 C 79 % 15.96 C
2305 05-09-2018 00:00:00 19.6 C 79 % 15.86 C
2306 05-09-2018 00:05:00 19.6 C 79 % 15.86 C
2307 05-09-2018 00:10:00 19.6 C 80 % 16.06 C
2308 05-09-2018 00:15:00 19.6 C 80 % 16.06 C
2309 05-09-2018 00:20:00 19.5 C 80 % 15.96 C
2310 05-09-2018 00:25:00 19.5 C 80 % 15.96 C
2311 05-09-2018 00:30:00 19.4 C 80 % 15.86 C
2312 05-09-2018 00:35:00 19.4 C 80 % 15.86 C
2313 05-09-2018 00:40:00 19.4 C 80 % 15.86 C
2314 05-09-2018 00:45:00 19.4 C 80 % 15.86 C
2315 05-09-2018 00:50:00 19.3 C 80 % 15.76 C
2316 05-09-2018 00:55:00 19.3 C 80 % 15.76 C
2317 05-09-2018 01:00:00 19.2 C 80 % 15.67 C
2318 05-09-2018 01:05:00 19.2 C 81 % 15.86 C
2319 05-09-2018 01:10:00 19.2 C 81 % 15.86 C
2320 05-09-2018 01:15:00 19.2 C 81 % 15.86 C
2321 05-09-2018 01:20:00 19.2 C 81 % 15.86 C
2322 05-09-2018 01:25:00 19.1 C 81 % 15.76 C
2323 05-09-2018 01:30:00 19.1 C 81 % 15.76 C
2324 05-09-2018 01:35:00 19.1 C 81 % 15.76 C
2325 05-09-2018 01:40:00 19.1 C 81 % 15.76 C
Sensor: Nr:Datum:Temp:Feuchte:Taupunkt:
Aussen-T/F 2326 05-09-2018 01:45:00 19.1 C 81 % 15.76 C
2327 05-09-2018 01:50:00 19 C 81 % 15.67 C
2328 05-09-2018 01:55:00 18.9 C 81 % 15.57 C
2329 05-09-2018 02:00:00 18.9 C 81 % 15.57 C
2330 05-09-2018 02:05:00 18.8 C 82 % 15.66 C
2331 05-09-2018 02:10:00 18.7 C 82 % 15.57 C
2332 05-09-2018 02:15:00 18.5 C 82 % 15.37 C
2333 05-09-2018 02:20:00 18.4 C 83 % 15.46 C
2334 05-09-2018 02:25:00 18.3 C 83 % 15.36 C
2335 05-09-2018 02:30:00 18.3 C 83 % 15.36 C
2336 05-09-2018 02:35:00 18.2 C 83 % 15.27 C
2337 05-09-2018 02:40:00 18.1 C 83 % 15.17 C
2338 05-09-2018 02:45:00 17.9 C 84 % 15.16 C
2339 05-09-2018 02:50:00 17.8 C 84 % 15.06 C
2340 05-09-2018 02:55:00 17.6 C 84 % 14.87 C
2341 05-09-2018 03:00:00 17.4 C 85 % 14.85 C
2342 05-09-2018 03:05:00 17.3 C 85 % 14.76 C
2343 05-09-2018 03:10:00 17.1 C 86 % 14.74 C
2344 05-09-2018 03:15:00 17.1 C 87 % 14.92 C
2345 05-09-2018 03:20:00 16.9 C 86 % 14.54 C
2346 05-09-2018 03:25:00 16.8 C 87 % 14.62 C
2347 05-09-2018 03:30:00 16.7 C 87 % 14.53 C
2348 05-09-2018 03:35:00 16.7 C 87 % 14.53 C
2349 05-09-2018 03:40:00 16.6 C 88 % 14.6 C
2350 05-09-2018 03:45:00 16.5 C 88 % 14.51 C
Sensor: Nr:Datum:Temp:Feuchte:Taupunkt:
Aussen-T/F 2351 05-09-2018 03:50:00 16.4 C 88 % 14.41 C
2352 05-09-2018 03:55:00 16.3 C 88 % 14.31 C
2353 05-09-2018 04:00:00 16.3 C 88 % 14.31 C
2354 05-09-2018 04:05:00 16.2 C 89 % 14.39 C
2355 05-09-2018 04:10:00 16.1 C 89 % 14.29 C
2356 05-09-2018 04:15:00 16 C 89 % 14.19 C
2357 05-09-2018 04:20:00 15.9 C 89 % 14.09 C
2358 05-09-2018 04:25:00 15.8 C 90 % 14.16 C
2359 05-09-2018 04:30:00 15.9 C 91 % 14.43 C
2360 05-09-2018 04:35:00 15.8 C 90 % 14.16 C
2361 05-09-2018 04:40:00 15.8 C 90 % 14.16 C
2362 05-09-2018 04:45:00 15.8 C 91 % 14.33 C
2363 05-09-2018 04:50:00 15.8 C 91 % 14.33 C
2364 05-09-2018 04:55:00 15.8 C 91 % 14.33 C
2365 05-09-2018 05:00:00 15.9 C 92 % 14.6 C
2366 05-09-2018 05:05:00 16 C 92 % 14.7 C
2367 05-09-2018 05:10:00 16.1 C 92 % 14.8 C
2368 05-09-2018 05:15:00 16.1 C 92 % 14.8 C
2369 05-09-2018 05:20:00 16.1 C 92 % 14.8 C
2370 05-09-2018 05:25:00 16.2 C 92 % 14.9 C
2371 05-09-2018 05:30:00 16.2 C 92 % 14.9 C
2372 05-09-2018 05:35:00 16.2 C 92 % 14.9 C
2373 05-09-2018 05:40:00 16.2 C 92 % 14.9 C
2374 05-09-2018 05:45:00 16.2 C 92 % 14.9 C
2375 05-09-2018 05:50:00 16.2 C 91 % 14.73 C
Sensor: Nr:Datum:Temp:Feuchte:Taupunkt:
Aussen-T/F 2376 05-09-2018 05:55:00 16.1 C 91 % 14.63 C
2377 05-09-2018 06:00:00 16.1 C 91 % 14.63 C
2378 05-09-2018 06:05:00 16.1 C 91 % 14.63 C
2379 05-09-2018 06:10:00 16 C 91 % 14.53 C
2380 05-09-2018 06:15:00 15.9 C 91 % 14.43 C
2381 05-09-2018 06:20:00 15.9 C 91 % 14.43 C
2382 05-09-2018 06:25:00 15.8 C 91 % 14.33 C
2383 05-09-2018 06:30:00 15.8 C 91 % 14.33 C
2384 05-09-2018 06:35:00 15.7 C 91 % 14.24 C
2385 05-09-2018 06:40:00 15.6 C 91 % 14.14 C
2386 05-09-2018 06:45:00 15.5 C 92 % 14.21 C
2387 05-09-2018 06:50:00 15.6 C 92 % 14.31 C
2388 05-09-2018 06:55:00 15.5 C 92 % 14.21 C
2389 05-09-2018 07:00:00 15.4 C 92 % 14.11 C
2390 05-09-2018 07:05:00 15.4 C 92 % 14.11 C
2391 05-09-2018 07:10:00 15.4 C 92 % 14.11 C
2392 05-09-2018 07:15:00 15.3 C 92 % 14.01 C
2393 05-09-2018 07:20:00 15.3 C 92 % 14.01 C
2394 05-09-2018 07:25:00 15.3 C 93 % 14.18 C
2395 05-09-2018 07:30:00 15.3 C 93 % 14.18 C
2396 05-09-2018 07:35:00 15.3 C 93 % 14.18 C
2397 05-09-2018 07:40:00 15.3 C 93 % 14.18 C
2398 05-09-2018 07:45:00 15.3 C 93 % 14.18 C
2399 05-09-2018 07:50:00 15.3 C 93 % 14.18 C
2400 05-09-2018 07:55:00 15.4 C 93 % 14.27 C
Sensor: Nr:Datum:Temp:Feuchte:Taupunkt:
Aussen-T/F 2401 05-09-2018 08:00:00 15.5 C 94 % 14.54 C
2402 05-09-2018 08:05:00 15.6 C 94 % 14.64 C
2403 05-09-2018 08:10:00 15.6 C 94 % 14.64 C
2404 05-09-2018 08:15:00 15.7 C 93 % 14.57 C
2405 05-09-2018 08:20:00 15.7 C 93 % 14.57 C
2406 05-09-2018 08:25:00 15.8 C 93 % 14.67 C
2407 05-09-2018 08:30:00 15.8 C 93 % 14.67 C
2408 05-09-2018 08:35:00 15.9 C 94 % 14.94 C
2409 05-09-2018 08:40:00 16 C 93 % 14.87 C
2410 05-09-2018 08:45:00 16 C 93 % 14.87 C
2411 05-09-2018 08:50:00 16.1 C 93 % 14.97 C
2412 05-09-2018 08:55:00 16.1 C 93 % 14.97 C
2413 05-09-2018 09:00:00 16.2 C 93 % 15.07 C
2414 05-09-2018 09:05:00 16.2 C 93 % 15.07 C
2415 05-09-2018 09:10:00 16.3 C 93 % 15.17 C
2416 05-09-2018 09:15:00 16.4 C 93 % 15.27 C
2417 05-09-2018 09:20:00 16.5 C 93 % 15.36 C
2418 05-09-2018 09:25:00 16.6 C 93 % 15.46 C
2419 05-09-2018 09:30:00 16.7 C 93 % 15.56 C
2420 05-09-2018 09:35:00 16.8 C 93 % 15.66 C
2421 05-09-2018 09:40:00 16.9 C 93 % 15.76 C
2422 05-09-2018 09:45:00 17 C 93 % 15.86 C
2423 05-09-2018 09:50:00 17.1 C 93 % 15.96 C
2424 05-09-2018 09:55:00 17.2 C 92 % 15.89 C
2425 05-09-2018 10:00:00 17.3 C 92 % 15.99 C
Sensor: Nr:Datum:Temp:Feuchte:Taupunkt:
Aussen-T/F 2426 05-09-2018 10:05:00 17.4 C 92 % 16.09 C
2427 05-09-2018 10:10:00 17.6 C 91 % 16.11 C
2428 05-09-2018 10:15:00 17.8 C 91 % 16.31 C
2429 05-09-2018 10:20:00 18 C 91 % 16.51 C
2430 05-09-2018 10:25:00 18.2 C 90 % 16.53 C
2431 05-09-2018 10:30:00 18.3 C 90 % 16.63 C
2432 05-09-2018 10:35:00 18.5 C 89 % 16.65 C
2433 05-09-2018 10:40:00 18.7 C 89 % 16.85 C
2434 05-09-2018 10:45:00 18.8 C 88 % 16.77 C
2435 05-09-2018 10:50:00 19 C 87 % 16.79 C
2436 05-09-2018 10:55:00 19.2 C 87 % 16.98 C
2437 05-09-2018 11:00:00 19.4 C 86 % 17 C
2438 05-09-2018 11:05:00 19.6 C 86 % 17.19 C
2439 05-09-2018 11:10:00 19.8 C 84 % 17.02 C
2440 05-09-2018 11:15:00 20 C 83 % 17.02 C
2441 05-09-2018 11:20:00 20.2 C 82 % 17.03 C
2442 05-09-2018 11:25:00 20.6 C 81 % 17.22 C
2443 05-09-2018 11:30:00 20.8 C 79 % 17.02 C
2444 05-09-2018 11:35:00 21.1 C 77 % 16.91 C
2445 05-09-2018 11:40:00 21.4 C 76 % 16.99 C
2446 05-09-2018 11:45:00 21.7 C 75 % 17.07 C
2447 05-09-2018 11:50:00 22 C 74 % 17.15 C
2448 05-09-2018 11:55:00 22.3 C 73 % 17.23 C
2449 05-09-2018 12:00:00 22.5 C 72 % 17.2 C
2450 05-09-2018 12:05:00 22.7 C 71 % 17.17 C
Sensor: Nr:Datum:Temp:Feuchte:Taupunkt:
Aussen-T/F 2451 05-09-2018 12:10:00 22.9 C 70 % 17.14 C
2452 05-09-2018 12:15:00 23.1 C 69 % 17.1 C
2453 05-09-2018 12:20:00 23.2 C 68 % 16.97 C
2454 05-09-2018 12:25:00 23.4 C 66 % 16.69 C
2455 05-09-2018 12:30:00 23.6 C 66 % 16.88 C
2456 05-09-2018 12:35:00 23.7 C 66 % 16.97 C
2457 05-09-2018 12:40:00 23.8 C 64 % 16.58 C
2458 05-09-2018 12:45:00 24.1 C 63 % 16.62 C
2459 05-09-2018 12:50:00 24.3 C 63 % 16.81 C
2460 05-09-2018 12:55:00 24.4 C 62 % 16.65 C
2461 05-09-2018 13:00:00 24.6 C 61 % 16.58 C
2462 05-09-2018 13:05:00 24.7 C 61 % 16.67 C
2463 05-09-2018 13:10:00 24.8 C 60 % 16.51 C
2464 05-09-2018 13:15:00 25.1 C 58 % 16.26 C
2465 05-09-2018 13:20:00 25.2 C 57 % 16.08 C
2466 05-09-2018 13:25:00 25.4 C 56 % 15.99 C
2467 05-09-2018 13:30:00 25.4 C 56 % 15.99 C
2468 05-09-2018 13:35:00 25.6 C 56 % 16.17 C
2469 05-09-2018 13:40:00 25.7 C 56 % 16.26 C
2470 05-09-2018 13:45:00 25.9 C 55 % 16.17 C
2471 05-09-2018 13:50:00 26.1 C 54 % 16.07 C
2472 05-09-2018 13:55:00 26.2 C 53 % 15.87 C
2473 05-09-2018 14:00:00 26.3 C 53 % 15.96 C
2474 05-09-2018 14:05:00 26.3 C 51 % 15.36 C
2475 05-09-2018 14:10:00 26.4 C 51 % 15.45 C
Sensor: Nr:Datum:Temp:Feuchte:Taupunkt:
Aussen-T/F 2476 05-09-2018 14:15:00 26.4 C 51 % 15.45 C
2477 05-09-2018 14:20:00 26.6 C 51 % 15.63 C
2478 05-09-2018 14:25:00 26.7 C 50 % 15.42 C
2479 05-09-2018 14:30:00 26.8 C 49 % 15.19 C
2480 05-09-2018 14:35:00 26.8 C 50 % 15.51 C
2481 05-09-2018 14:40:00 27 C 48 % 15.05 C
2482 05-09-2018 14:45:00 27.2 C 47 % 14.91 C
2483 05-09-2018 14:50:00 27.3 C 47 % 15 C
2484 05-09-2018 14:55:00 27.3 C 47 % 15 C
2485 05-09-2018 15:00:00 27.3 C 48 % 15.33 C
2486 05-09-2018 15:05:00 27.4 C 48 % 15.42 C
2487 05-09-2018 15:10:00 27.4 C 47 % 15.09 C
2488 05-09-2018 15:15:00 27.4 C 47 % 15.09 C
2489 05-09-2018 15:20:00 27.5 C 48 % 15.51 C
2490 05-09-2018 15:25:00 27.6 C 47 % 15.27 C
2491 05-09-2018 15:30:00 27.6 C 46 % 14.94 C
2492 05-09-2018 15:35:00 27.5 C 47 % 15.18 C
2493 05-09-2018 15:40:00 27.5 C 49 % 15.83 C
2494 05-09-2018 15:45:00 27.4 C 48 % 15.42 C
2495 05-09-2018 15:50:00 27.4 C 48 % 15.42 C
2496 05-09-2018 15:55:00 27.4 C 50 % 16.06 C
2497 05-09-2018 16:00:00 27.3 C 48 % 15.33 C
2498 05-09-2018 16:05:00 27.3 C 52 % 16.58 C
2499 05-09-2018 16:10:00 27.4 C 50 % 16.06 C
2500 05-09-2018 16:15:00 27.5 C 46 % 14.85 C
Sensor: Nr:Datum:Temp:Feuchte:Taupunkt:
Aussen-T/F 2501 05-09-2018 16:20:00 27.8 C 46 % 15.12 C
2502 05-09-2018 16:25:00 28 C 44 % 14.61 C
2503 05-09-2018 16:30:00 28.2 C 44 % 14.79 C
2504 05-09-2018 16:35:00 28.4 C 43 % 14.62 C
2505 05-09-2018 16:40:00 28.6 C 43 % 14.8 C
2506 05-09-2018 16:45:00 28.8 C 45 % 15.68 C
2507 05-09-2018 16:50:00 29.1 C 43 % 15.24 C
2508 05-09-2018 16:55:00 29.2 C 43 % 15.33 C
2509 05-09-2018 17:00:00 29.2 C 42 % 14.97 C
2510 05-09-2018 17:05:00 29.3 C 41 % 14.68 C
2511 05-09-2018 17:10:00 29.2 C 41 % 14.59 C
2512 05-09-2018 17:15:00 28.9 C 41 % 14.33 C
2513 05-09-2018 17:20:00 28.7 C 43 % 14.88 C
2514 05-09-2018 17:25:00 28.5 C 43 % 14.71 C
2515 05-09-2018 17:30:00 28.4 C 44 % 14.97 C
2516 05-09-2018 17:35:00 28.3 C 50 % 16.88 C
2517 05-09-2018 17:40:00 28.1 C 50 % 16.7 C
2518 05-09-2018 17:45:00 27.9 C 50 % 16.51 C
2519 05-09-2018 17:50:00 27.6 C 50 % 16.24 C
2520 05-09-2018 17:55:00 27.3 C 52 % 16.58 C
2521 05-09-2018 18:00:00 27.1 C 52 % 16.4 C
2522 05-09-2018 18:05:00 26.8 C 52 % 16.12 C
2523 05-09-2018 18:10:00 26.6 C 53 % 16.23 C
2524 05-09-2018 18:15:00 26.4 C 53 % 16.05 C
2525 05-09-2018 18:20:00 26.3 C 54 % 16.25 C
Sensor: Nr:Datum:Temp:Feuchte:Taupunkt:
Aussen-T/F 2526 05-09-2018 18:25:00 26.3 C 55 % 16.54 C
2527 05-09-2018 18:30:00 26.2 C 55 % 16.45 C
2528 05-09-2018 18:35:00 26.2 C 56 % 16.73 C
2529 05-09-2018 18:40:00 26.2 C 55 % 16.45 C
2530 05-09-2018 18:45:00 26.1 C 56 % 16.64 C
2531 05-09-2018 18:50:00 26 C 56 % 16.54 C
2532 05-09-2018 18:55:00 25.8 C 56 % 16.36 C
2533 05-09-2018 19:00:00 25.7 C 56 % 16.26 C
2534 05-09-2018 19:05:00 25.4 C 57 % 16.26 C
2535 05-09-2018 19:10:00 25.2 C 58 % 16.35 C
2536 05-09-2018 19:15:00 25 C 57 % 15.89 C
2537 05-09-2018 19:20:00 24.8 C 57 % 15.7 C
2538 05-09-2018 19:25:00 24.6 C 57 % 15.52 C
2539 05-09-2018 19:30:00 24.3 C 58 % 15.51 C
2540 05-09-2018 19:35:00 24.1 C 58 % 15.32 C
2541 05-09-2018 19:40:00 23.9 C 60 % 15.66 C
2542 05-09-2018 19:45:00 23.6 C 60 % 15.38 C
2543 05-09-2018 19:50:00 23.4 C 62 % 15.71 C
2544 05-09-2018 19:55:00 23.2 C 63 % 15.77 C
2545 05-09-2018 20:00:00 22.9 C 63 % 15.48 C
2546 05-09-2018 20:05:00 22.8 C 64 % 15.64 C
2547 05-09-2018 20:10:00 22.7 C 64 % 15.54 C
2548 05-09-2018 20:15:00 22.7 C 66 % 16.02 C
2549 05-09-2018 20:20:00 22.6 C 66 % 15.93 C
2550 05-09-2018 20:25:00 22.6 C 66 % 15.93 C
Sensor: Nr:Datum:Temp:Feuchte:Taupunkt:
Aussen-T/F 2551 05-09-2018 20:30:00 22.6 C 65 % 15.69 C
2552 05-09-2018 20:35:00 22.7 C 65 % 15.78 C
2553 05-09-2018 20:40:00 22.7 C 64 % 15.54 C
2554 05-09-2018 20:45:00 22.9 C 64 % 15.73 C
2555 05-09-2018 20:50:00 23 C 64 % 15.82 C
2556 05-09-2018 20:55:00 23.1 C 65 % 16.16 C
2557 05-09-2018 21:00:00 22.9 C 64 % 15.73 C
2558 05-09-2018 21:05:00 22.8 C 65 % 15.88 C
2559 05-09-2018 21:10:00 22.7 C 65 % 15.78 C
2560 05-09-2018 21:15:00 22.5 C 66 % 15.83 C
2561 05-09-2018 21:20:00 22.3 C 66 % 15.64 C
2562 05-09-2018 21:25:00 22.1 C 66 % 15.45 C
2563 05-09-2018 21:30:00 21.9 C 67 % 15.5 C
2564 05-09-2018 21:35:00 21.7 C 68 % 15.54 C
2565 05-09-2018 21:40:00 21.5 C 68 % 15.35 C
2566 05-09-2018 21:45:00 21.3 C 69 % 15.38 C
2567 05-09-2018 21:50:00 21.1 C 69 % 15.19 C
2568 05-09-2018 21:55:00 21 C 70 % 15.32 C
2569 05-09-2018 22:00:00 20.8 C 71 % 15.35 C
2570 05-09-2018 22:05:00 20.7 C 71 % 15.25 C
2571 05-09-2018 22:10:00 20.6 C 71 % 15.16 C
2572 05-09-2018 22:15:00 20.5 C 71 % 15.06 C
2573 05-09-2018 22:20:00 20.4 C 72 % 15.18 C
2574 05-09-2018 22:25:00 20.3 C 72 % 15.09 C
2575 05-09-2018 22:30:00 20.2 C 72 % 14.99 C
Sensor: Nr:Datum:Temp:Feuchte:Taupunkt:
Aussen-T/F 2576 05-09-2018 22:35:00 20.1 C 73 % 15.11 C
2577 05-09-2018 22:40:00 19.9 C 73 % 14.92 C
2578 05-09-2018 22:45:00 19.7 C 74 % 14.94 C
2579 05-09-2018 22:50:00 19.5 C 75 % 14.95 C
2580 05-09-2018 22:55:00 19.3 C 75 % 14.76 C
2581 05-09-2018 23:00:00 19.1 C 76 % 14.77 C
2582 05-09-2018 23:05:00 18.8 C 77 % 14.68 C
2583 05-09-2018 23:10:00 18.7 C 78 % 14.79 C
2584 05-09-2018 23:15:00 18.6 C 78 % 14.69 C
2585 05-09-2018 23:20:00 18.4 C 79 % 14.69 C
2586 05-09-2018 23:25:00 18.3 C 79 % 14.6 C
2587 05-09-2018 23:30:00 18.2 C 79 % 14.5 C
2588 05-09-2018 23:35:00 18.2 C 80 % 14.69 C
2589 05-09-2018 23:40:00 18.1 C 80 % 14.6 C
2590 05-09-2018 23:45:00 17.9 C 80 % 14.4 C
2591 05-09-2018 23:50:00 17.9 C 81 % 14.59 C
2592 05-09-2018 23:55:00 17.8 C 81 % 14.5 C
2593 06-09-2018 00:00:00 17.7 C 82 % 14.59 C
2594 06-09-2018 00:05:00 17.7 C 82 % 14.59 C
2595 06-09-2018 00:10:00 17.6 C 82 % 14.49 C
2596 06-09-2018 00:15:00 17.5 C 83 % 14.58 C
2597 06-09-2018 00:20:00 17.4 C 83 % 14.48 C
2598 06-09-2018 00:25:00 17.3 C 83 % 14.39 C
2599 06-09-2018 00:30:00 17.2 C 84 % 14.47 C
2600 06-09-2018 00:35:00 17.1 C 84 % 14.38 C
Sensor: Nr:Datum:Temp:Feuchte:Taupunkt:
Aussen-T/F 2601 06-09-2018 00:40:00 17 C 84 % 14.28 C
2602 06-09-2018 00:45:00 16.9 C 84 % 14.18 C
2603 06-09-2018 00:50:00 16.8 C 85 % 14.26 C
2604 06-09-2018 00:55:00 16.8 C 85 % 14.26 C
2605 06-09-2018 01:00:00 16.7 C 85 % 14.17 C
2606 06-09-2018 01:05:00 16.7 C 86 % 14.35 C
2607 06-09-2018 01:10:00 16.6 C 86 % 14.25 C
2608 06-09-2018 01:15:00 16.5 C 86 % 14.15 C
2609 06-09-2018 01:20:00 16.4 C 87 % 14.23 C
2610 06-09-2018 01:25:00 16.4 C 87 % 14.23 C
2611 06-09-2018 01:30:00 16.3 C 87 % 14.13 C
2612 06-09-2018 01:35:00 16.3 C 87 % 14.13 C
2613 06-09-2018 01:40:00 16.2 C 87 % 14.03 C
2614 06-09-2018 01:45:00 16.2 C 88 % 14.21 C
2615 06-09-2018 01:50:00 16.2 C 88 % 14.21 C
2616 06-09-2018 01:55:00 16.2 C 88 % 14.21 C
2617 06-09-2018 02:00:00 16.1 C 88 % 14.11 C
2618 06-09-2018 02:05:00 16.1 C 88 % 14.11 C
2619 06-09-2018 02:10:00 15.9 C 88 % 13.92 C
2620 06-09-2018 02:15:00 15.9 C 88 % 13.92 C
2621 06-09-2018 02:20:00 15.8 C 89 % 13.99 C
2622 06-09-2018 02:25:00 15.8 C 89 % 13.99 C
2623 06-09-2018 02:30:00 15.8 C 89 % 13.99 C
2624 06-09-2018 02:35:00 15.8 C 90 % 14.16 C
2625 06-09-2018 02:40:00 15.8 C 90 % 14.16 C
Sensor: Nr:Datum:Temp:Feuchte:Taupunkt:
Aussen-T/F 2626 06-09-2018 02:45:00 15.8 C 90 % 14.16 C
2627 06-09-2018 02:50:00 15.7 C 89 % 13.89 C
2628 06-09-2018 02:55:00 15.6 C 89 % 13.79 C
2629 06-09-2018 03:00:00 15.6 C 90 % 13.97 C
2630 06-09-2018 03:05:00 15.5 C 90 % 13.87 C
2631 06-09-2018 03:10:00 15.4 C 90 % 13.77 C
2632 06-09-2018 03:15:00 15.4 C 90 % 13.77 C
2633 06-09-2018 03:20:00 15.4 C 91 % 13.94 C
2634 06-09-2018 03:25:00 15.4 C 91 % 13.94 C
2635 06-09-2018 03:30:00 15.3 C 91 % 13.84 C
2636 06-09-2018 03:35:00 15.3 C 91 % 13.84 C
2637 06-09-2018 03:40:00 15.2 C 91 % 13.74 C
2638 06-09-2018 03:45:00 15.2 C 91 % 13.74 C
2639 06-09-2018 03:50:00 15.2 C 91 % 13.74 C
2640 06-09-2018 03:55:00 15.2 C 92 % 13.91 C
2641 06-09-2018 04:00:00 15.2 C 92 % 13.91 C
2642 06-09-2018 04:05:00 15.2 C 92 % 13.91 C
2643 06-09-2018 04:10:00 15.2 C 92 % 13.91 C
2644 06-09-2018 04:15:00 15.4 C 93 % 14.27 C
2645 06-09-2018 04:20:00 15.7 C 93 % 14.57 C
2646 06-09-2018 04:25:00 15.8 C 93 % 14.67 C
2647 06-09-2018 04:30:00 15.8 C 93 % 14.67 C
2648 06-09-2018 04:35:00 15.8 C 92 % 14.5 C
2649 06-09-2018 04:40:00 15.8 C 92 % 14.5 C
2650 06-09-2018 04:45:00 15.8 C 92 % 14.5 C
Sensor: Nr:Datum:Temp:Feuchte:Taupunkt:
Aussen-T/F 2651 06-09-2018 04:50:00 15.7 C 92 % 14.4 C
2652 06-09-2018 04:55:00 15.7 C 92 % 14.4 C
2653 06-09-2018 05:00:00 15.6 C 92 % 14.31 C
2654 06-09-2018 05:05:00 15.5 C 92 % 14.21 C
2655 06-09-2018 05:10:00 15.4 C 92 % 14.11 C
2656 06-09-2018 05:15:00 15.3 C 92 % 14.01 C
2657 06-09-2018 05:20:00 15.3 C 92 % 14.01 C
2658 06-09-2018 05:25:00 15.2 C 92 % 13.91 C
2659 06-09-2018 05:30:00 15.3 C 92 % 14.01 C
2660 06-09-2018 05:35:00 15.2 C 93 % 14.08 C
2661 06-09-2018 05:40:00 15.2 C 93 % 14.08 C
2662 06-09-2018 05:45:00 15.2 C 92 % 13.91 C
2663 06-09-2018 05:50:00 15.1 C 92 % 13.81 C
2664 06-09-2018 05:55:00 15 C 92 % 13.71 C
2665 06-09-2018 06:00:00 15 C 92 % 13.71 C
2666 06-09-2018 06:05:00 15 C 93 % 13.88 C
2667 06-09-2018 06:10:00 15.1 C 93 % 13.98 C
2668 06-09-2018 06:15:00 15.2 C 93 % 14.08 C
2669 06-09-2018 06:20:00 15.3 C 94 % 14.34 C
2670 06-09-2018 06:25:00 15.3 C 94 % 14.34 C
2671 06-09-2018 06:30:00 15.4 C 94 % 14.44 C
2672 06-09-2018 06:35:00 15.4 C 94 % 14.44 C
2673 06-09-2018 06:40:00 15.4 C 93 % 14.27 C
2674 06-09-2018 06:45:00 15.5 C 94 % 14.54 C
2675 06-09-2018 06:50:00 15.5 C 94 % 14.54 C
Sensor: Nr:Datum:Temp:Feuchte:Taupunkt:
Aussen-T/F 2676 06-09-2018 06:55:00 15.6 C 94 % 14.64 C
2677 06-09-2018 07:00:00 15.6 C 94 % 14.64 C
2678 06-09-2018 07:05:00 15.7 C 94 % 14.74 C
2679 06-09-2018 07:10:00 15.7 C 94 % 14.74 C
2680 06-09-2018 07:15:00 15.8 C 94 % 14.84 C
2681 06-09-2018 07:20:00 15.9 C 94 % 14.94 C
2682 06-09-2018 07:25:00 16.1 C 94 % 15.13 C
2683 06-09-2018 07:30:00 16.1 C 94 % 15.13 C
2684 06-09-2018 07:35:00 16.1 C 94 % 15.13 C
2685 06-09-2018 07:40:00 16.2 C 94 % 15.23 C
2686 06-09-2018 07:45:00 16.2 C 94 % 15.23 C
2687 06-09-2018 07:50:00 16.2 C 94 % 15.23 C
2688 06-09-2018 07:55:00 16.2 C 94 % 15.23 C
2689 06-09-2018 08:00:00 16.3 C 94 % 15.33 C
2690 06-09-2018 08:05:00 16.3 C 94 % 15.33 C
2691 06-09-2018 08:10:00 16.5 C 95 % 15.7 C
2692 06-09-2018 08:15:00 16.6 C 94 % 15.63 C
2693 06-09-2018 08:20:00 16.7 C 95 % 15.9 C
2694 06-09-2018 08:25:00 16.8 C 95 % 15.99 C
2695 06-09-2018 08:30:00 16.9 C 95 % 16.09 C
2696 06-09-2018 08:35:00 17.1 C 95 % 16.29 C
2697 06-09-2018 08:40:00 17.2 C 95 % 16.39 C
2698 06-09-2018 08:45:00 17.2 C 95 % 16.39 C
2699 06-09-2018 08:50:00 17.3 C 95 % 16.49 C
2700 06-09-2018 08:55:00 17.4 C 95 % 16.59 C
Sensor: Nr:Datum:Temp:Feuchte:Taupunkt:
Aussen-T/F 2701 06-09-2018 09:00:00 17.5 C 95 % 16.69 C
2702 06-09-2018 09:05:00 17.6 C 95 % 16.79 C
2703 06-09-2018 09:10:00 17.6 C 95 % 16.79 C
2704 06-09-2018 09:15:00 17.7 C 95 % 16.89 C
2705 06-09-2018 09:20:00 17.8 C 95 % 16.99 C
2706 06-09-2018 09:25:00 17.9 C 95 % 17.09 C
2707 06-09-2018 09:30:00 17.9 C 95 % 17.09 C
2708 06-09-2018 09:35:00 18 C 94 % 17.02 C
2709 06-09-2018 09:40:00 18.1 C 94 % 17.12 C
2710 06-09-2018 09:45:00 18.2 C 94 % 17.22 C
2711 06-09-2018 09:50:00 18.3 C 94 % 17.32 C
2712 06-09-2018 09:55:00 18.4 C 94 % 17.42 C
2713 06-09-2018 10:00:00 18.4 C 93 % 17.25 C
2714 06-09-2018 10:05:00 18.4 C 93 % 17.25 C
2715 06-09-2018 10:10:00 18.6 C 93 % 17.45 C
2716 06-09-2018 10:15:00 18.5 C 91 % 17 C
2717 06-09-2018 10:20:00 18.6 C 90 % 16.93 C
2718 06-09-2018 10:25:00 18.7 C 90 % 17.03 C
2719 06-09-2018 10:30:00 18.8 C 90 % 17.12 C
2720 06-09-2018 10:35:00 18.9 C 88 % 16.87 C
2721 06-09-2018 10:40:00 19 C 87 % 16.79 C
2722 06-09-2018 10:45:00 19.1 C 87 % 16.89 C
2723 06-09-2018 10:50:00 19.2 C 87 % 16.98 C
2724 06-09-2018 10:55:00 19.3 C 86 % 16.9 C
2725 06-09-2018 11:00:00 19.4 C 85 % 16.81 C
Sensor: Nr:Datum:Temp:Feuchte:Taupunkt:
Aussen-T/F 2726 06-09-2018 11:05:00 19.6 C 84 % 16.82 C
2727 06-09-2018 11:10:00 19.7 C 83 % 16.73 C
2728 06-09-2018 11:15:00 19.8 C 84 % 17.02 C
2729 06-09-2018 11:20:00 19.9 C 83 % 16.93 C
2730 06-09-2018 11:25:00 19.9 C 82 % 16.74 C
2731 06-09-2018 11:30:00 19.9 C 82 % 16.74 C
2732 06-09-2018 11:35:00 20 C 82 % 16.83 C
2733 06-09-2018 11:40:00 20.1 C 82 % 16.93 C
2734 06-09-2018 11:45:00 20.3 C 82 % 17.13 C
2735 06-09-2018 11:50:00 20.4 C 83 % 17.42 C
2736 06-09-2018 11:55:00 20.7 C 81 % 17.32 C
2737 06-09-2018 12:00:00 20.8 C 80 % 17.22 C
2738 06-09-2018 12:05:00 20.8 C 80 % 17.22 C
2739 06-09-2018 12:10:00 20.8 C 79 % 17.02 C
2740 06-09-2018 12:15:00 20.7 C 79 % 16.93 C
2741 06-09-2018 12:20:00 20.6 C 80 % 17.03 C
2742 06-09-2018 12:25:00 20.6 C 82 % 17.42 C
2743 06-09-2018 12:30:00 20.4 C 82 % 17.22 C
2744 06-09-2018 12:35:00 20.4 C 83 % 17.42 C
2745 06-09-2018 12:40:00 20.6 C 84 % 17.8 C
2746 06-09-2018 12:45:00 20.6 C 83 % 17.61 C
2747 06-09-2018 12:50:00 20.6 C 83 % 17.61 C
2748 06-09-2018 12:55:00 20.7 C 84 % 17.9 C
2749 06-09-2018 13:00:00 20.8 C 82 % 17.61 C
2750 06-09-2018 13:05:00 20.8 C 81 % 17.42 C
Sensor: Nr:Datum:Temp:Feuchte:Taupunkt:
Aussen-T/F 2751 06-09-2018 13:10:00 20.9 C 81 % 17.52 C
2752 06-09-2018 13:15:00 20.8 C 82 % 17.61 C
2753 06-09-2018 13:20:00 20.8 C 82 % 17.61 C
2754 06-09-2018 13:25:00 20.8 C 82 % 17.61 C
2755 06-09-2018 13:30:00 20.8 C 81 % 17.42 C
2756 06-09-2018 13:35:00 20.8 C 82 % 17.61 C
2757 06-09-2018 13:40:00 20.8 C 82 % 17.61 C
2758 06-09-2018 13:45:00 20.7 C 82 % 17.52 C
2759 06-09-2018 13:50:00 20.7 C 82 % 17.52 C
2760 06-09-2018 13:55:00 20.8 C 81 % 17.42 C
2761 06-09-2018 14:00:00 20.9 C 81 % 17.52 C
2762 06-09-2018 14:05:00 21.1 C 80 % 17.51 C
2763 06-09-2018 14:10:00 21.1 C 80 % 17.51 C
2764 06-09-2018 14:15:00 21.1 C 80 % 17.51 C
2765 06-09-2018 14:20:00 21.2 C 79 % 17.41 C
2766 06-09-2018 14:25:00 21.2 C 79 % 17.41 C
2767 06-09-2018 14:30:00 21.3 C 77 % 17.1 C
2768 06-09-2018 14:35:00 21.5 C 77 % 17.3 C
2769 06-09-2018 14:40:00 21.6 C 76 % 17.19 C
2770 06-09-2018 14:45:00 21.7 C 76 % 17.28 C
2771 06-09-2018 14:50:00 21.7 C 75 % 17.07 C
2772 06-09-2018 14:55:00 21.8 C 75 % 17.17 C
2773 06-09-2018 15:00:00 21.8 C 75 % 17.17 C
2774 06-09-2018 15:05:00 21.8 C 75 % 17.17 C
2775 06-09-2018 15:10:00 21.8 C 76 % 17.38 C
Sensor: Nr:Datum:Temp:Feuchte:Taupunkt:
Aussen-T/F 2776 06-09-2018 15:15:00 21.8 C 75 % 17.17 C
2777 06-09-2018 15:20:00 21.7 C 76 % 17.28 C
2778 06-09-2018 15:25:00 21.6 C 76 % 17.19 C
2779 06-09-2018 15:30:00 21.5 C 76 % 17.09 C
2780 06-09-2018 15:35:00 21.4 C 77 % 17.2 C
2781 06-09-2018 15:40:00 21.4 C 77 % 17.2 C
2782 06-09-2018 15:45:00 21.3 C 76 % 16.9 C
2783 06-09-2018 15:50:00 21.3 C 77 % 17.1 C
2784 06-09-2018 15:55:00 21.2 C 76 % 16.8 C
2785 06-09-2018 16:00:00 21.2 C 77 % 17.01 C
2786 06-09-2018 16:05:00 21.1 C 77 % 16.91 C
2787 06-09-2018 16:10:00 21.1 C 77 % 16.91 C
2788 06-09-2018 16:15:00 21.1 C 78 % 17.11 C
2789 06-09-2018 16:20:00 21.1 C 77 % 16.91 C
2790 06-09-2018 16:25:00 21.1 C 76 % 16.7 C
2791 06-09-2018 16:30:00 21.1 C 76 % 16.7 C
2792 06-09-2018 16:35:00 21.2 C 76 % 16.8 C
2793 06-09-2018 16:40:00 21.2 C 77 % 17.01 C
2794 06-09-2018 16:45:00 21.3 C 78 % 17.31 C
2795 06-09-2018 16:50:00 21.3 C 78 % 17.31 C
2796 06-09-2018 16:55:00 21.3 C 78 % 17.31 C
2797 06-09-2018 17:00:00 21.3 C 76 % 16.9 C
2798 06-09-2018 17:05:00 21.3 C 76 % 16.9 C
2799 06-09-2018 17:10:00 21.3 C 77 % 17.1 C
2800 06-09-2018 17:15:00 21.3 C 77 % 17.1 C
Sensor: Nr:Datum:Temp:Feuchte:Taupunkt:
Aussen-T/F 2801 06-09-2018 17:20:00 21.3 C 77 % 17.1 C
2802 06-09-2018 17:25:00 21.3 C 77 % 17.1 C
2803 06-09-2018 17:30:00 21.3 C 76 % 16.9 C
2804 06-09-2018 17:35:00 21.3 C 76 % 16.9 C
2805 06-09-2018 17:40:00 21.2 C 76 % 16.8 C
2806 06-09-2018 17:45:00 21.2 C 77 % 17.01 C
2807 06-09-2018 17:50:00 21.1 C 79 % 17.32 C
2808 06-09-2018 17:55:00 20.9 C 80 % 17.32 C
2809 06-09-2018 18:00:00 20.8 C 81 % 17.42 C
2810 06-09-2018 18:05:00 20.6 C 81 % 17.22 C
2811 06-09-2018 18:10:00 20.4 C 82 % 17.22 C
2812 06-09-2018 18:15:00 20.3 C 82 % 17.13 C
2813 06-09-2018 18:20:00 20.2 C 83 % 17.22 C
2814 06-09-2018 18:25:00 20.1 C 84 % 17.31 C
2815 06-09-2018 18:30:00 20 C 85 % 17.4 C
2816 06-09-2018 18:35:00 19.8 C 86 % 17.39 C
2817 06-09-2018 18:40:00 19.6 C 86 % 17.19 C
2818 06-09-2018 18:45:00 19.4 C 87 % 17.18 C
2819 06-09-2018 18:50:00 19.2 C 88 % 17.16 C
2820 06-09-2018 18:55:00 19.1 C 88 % 17.07 C
2821 06-09-2018 19:00:00 18.9 C 89 % 17.05 C
2822 06-09-2018 19:05:00 18.8 C 90 % 17.12 C
2823 06-09-2018 19:10:00 18.7 C 90 % 17.03 C
2824 06-09-2018 19:15:00 18.7 C 91 % 17.2 C
2825 06-09-2018 19:20:00 18.7 C 91 % 17.2 C
Sensor: Nr:Datum:Temp:Feuchte:Taupunkt:
Aussen-T/F 2826 06-09-2018 19:25:00 18.6 C 91 % 17.1 C
2827 06-09-2018 19:30:00 18.5 C 91 % 17 C
2828 06-09-2018 19:35:00 18.4 C 91 % 16.9 C
2829 06-09-2018 19:40:00 18.4 C 92 % 17.08 C
2830 06-09-2018 19:45:00 18.3 C 92 % 16.98 C
2831 06-09-2018 19:50:00 18.3 C 92 % 16.98 C
2832 06-09-2018 19:55:00 18.3 C 92 % 16.98 C
2833 06-09-2018 20:00:00 18.2 C 92 % 16.88 C
2834 06-09-2018 20:05:00 18.1 C 92 % 16.78 C
2835 06-09-2018 20:10:00 18.1 C 92 % 16.78 C
2836 06-09-2018 20:15:00 18.1 C 92 % 16.78 C
2837 06-09-2018 20:20:00 18 C 92 % 16.68 C
2838 06-09-2018 20:25:00 17.9 C 92 % 16.58 C
2839 06-09-2018 20:30:00 17.9 C 93 % 16.75 C
2840 06-09-2018 20:35:00 17.8 C 93 % 16.65 C
2841 06-09-2018 20:40:00 17.8 C 93 % 16.65 C
2842 06-09-2018 20:45:00 17.8 C 93 % 16.65 C
2843 06-09-2018 20:50:00 17.7 C 93 % 16.55 C
2844 06-09-2018 20:55:00 17.7 C 93 % 16.55 C
2845 06-09-2018 21:00:00 17.7 C 94 % 16.72 C
2846 06-09-2018 21:05:00 17.7 C 93 % 16.55 C
2847 06-09-2018 21:10:00 17.6 C 93 % 16.45 C
2848 06-09-2018 21:15:00 17.6 C 94 % 16.62 C
2849 06-09-2018 21:20:00 17.5 C 94 % 16.52 C
2850 06-09-2018 21:25:00 17.4 C 94 % 16.42 C
Sensor: Nr:Datum:Temp:Feuchte:Taupunkt:
Aussen-T/F 2851 06-09-2018 21:30:00 17.3 C 93 % 16.16 C
2852 06-09-2018 21:35:00 17.2 C 93 % 16.06 C
2853 06-09-2018 21:40:00 17.2 C 94 % 16.23 C
2854 06-09-2018 21:45:00 17.1 C 94 % 16.13 C
2855 06-09-2018 21:50:00 17.1 C 94 % 16.13 C
2856 06-09-2018 21:55:00 17 C 94 % 16.03 C
2857 06-09-2018 22:00:00 16.9 C 94 % 15.93 C
2858 06-09-2018 22:05:00 16.9 C 94 % 15.93 C
2859 06-09-2018 22:10:00 16.8 C 94 % 15.83 C
2860 06-09-2018 22:15:00 16.8 C 94 % 15.83 C
2861 06-09-2018 22:20:00 16.7 C 94 % 15.73 C
2862 06-09-2018 22:25:00 16.6 C 94 % 15.63 C
2863 06-09-2018 22:30:00 16.6 C 94 % 15.63 C
2864 06-09-2018 22:35:00 16.4 C 94 % 15.43 C
2865 06-09-2018 22:40:00 16.3 C 94 % 15.33 C
2866 06-09-2018 22:45:00 16.3 C 94 % 15.33 C
2867 06-09-2018 22:50:00 16.2 C 94 % 15.23 C
2868 06-09-2018 22:55:00 16.2 C 94 % 15.23 C
2869 06-09-2018 23:00:00 16.1 C 94 % 15.13 C
2870 06-09-2018 23:05:00 16.1 C 94 % 15.13 C
2871 06-09-2018 23:10:00 16 C 94 % 15.03 C
2872 06-09-2018 23:15:00 15.9 C 94 % 14.94 C
2873 06-09-2018 23:20:00 15.9 C 94 % 14.94 C
2874 06-09-2018 23:25:00 15.9 C 94 % 14.94 C
2875 06-09-2018 23:30:00 16 C 95 % 15.2 C
Sensor: Nr:Datum:Temp:Feuchte:Taupunkt:
Aussen-T/F 2876 06-09-2018 23:35:00 16.1 C 95 % 15.3 C
2877 06-09-2018 23:40:00 16.1 C 95 % 15.3 C
2878 06-09-2018 23:45:00 16.2 C 95 % 15.4 C
2879 06-09-2018 23:50:00 16.2 C 95 % 15.4 C
2880 06-09-2018 23:55:00 16.3 C 95 % 15.5 C
2881 07-09-2018 00:00:00 16.3 C 95 % 15.5 C
2882 07-09-2018 00:05:00 16.3 C 95 % 15.5 C
2883 07-09-2018 00:10:00 16.3 C 95 % 15.5 C
2884 07-09-2018 00:15:00 16.2 C 95 % 15.4 C
2885 07-09-2018 00:20:00 16.2 C 95 % 15.4 C
2886 07-09-2018 00:25:00 16.2 C 95 % 15.4 C
2887 07-09-2018 00:30:00 16.2 C 95 % 15.4 C
2888 07-09-2018 00:35:00 16.1 C 95 % 15.3 C
2889 07-09-2018 00:40:00 16.1 C 95 % 15.3 C
2890 07-09-2018 00:45:00 16.1 C 95 % 15.3 C
2891 07-09-2018 00:50:00 16.1 C 95 % 15.3 C
2892 07-09-2018 00:55:00 16.2 C 95 % 15.4 C
2893 07-09-2018 01:00:00 16.1 C 95 % 15.3 C
2894 07-09-2018 01:05:00 16.1 C 95 % 15.3 C
2895 07-09-2018 01:10:00 16.1 C 95 % 15.3 C
2896 07-09-2018 01:15:00 16.1 C 95 % 15.3 C
2897 07-09-2018 01:20:00 16.2 C 95 % 15.4 C
2898 07-09-2018 01:25:00 16.2 C 95 % 15.4 C
2899 07-09-2018 01:30:00 16.2 C 95 % 15.4 C
2900 07-09-2018 01:35:00 16.1 C 95 % 15.3 C
Sensor: Nr:Datum:Temp:Feuchte:Taupunkt:
Aussen-T/F 2901 07-09-2018 01:40:00 15.9 C 95 % 15.1 C
2902 07-09-2018 01:45:00 15.8 C 95 % 15 C
2903 07-09-2018 01:50:00 15.7 C 95 % 14.9 C
2904 07-09-2018 01:55:00 15.6 C 95 % 14.8 C
2905 07-09-2018 02:00:00 15.5 C 95 % 14.7 C
2906 07-09-2018 02:05:00 15.4 C 95 % 14.6 C
2907 07-09-2018 02:10:00 15.4 C 95 % 14.6 C
2908 07-09-2018 02:15:00 15.4 C 95 % 14.6 C
2909 07-09-2018 02:20:00 15.4 C 95 % 14.6 C
2910 07-09-2018 02:25:00 15.4 C 95 % 14.6 C
2911 07-09-2018 02:30:00 15.4 C 95 % 14.6 C
2912 07-09-2018 02:35:00 15.4 C 95 % 14.6 C
2913 07-09-2018 02:40:00 15.4 C 95 % 14.6 C
2914 07-09-2018 02:45:00 15.4 C 95 % 14.6 C
2915 07-09-2018 02:50:00 15.4 C 95 % 14.6 C
2916 07-09-2018 02:55:00 15.4 C 95 % 14.6 C
2917 07-09-2018 03:00:00 15.4 C 95 % 14.6 C
2918 07-09-2018 03:05:00 15.4 C 95 % 14.6 C
2919 07-09-2018 03:10:00 15.4 C 95 % 14.6 C
2920 07-09-2018 03:15:00 15.4 C 95 % 14.6 C
2921 07-09-2018 03:20:00 15.4 C 95 % 14.6 C
2922 07-09-2018 03:25:00 15.4 C 95 % 14.6 C
2923 07-09-2018 03:30:00 15.4 C 96 % 14.77 C
2924 07-09-2018 03:35:00 15.4 C 96 % 14.77 C
2925 07-09-2018 03:40:00 15.4 C 95 % 14.6 C
Sensor: Nr:Datum:Temp:Feuchte:Taupunkt:
Aussen-T/F 2926 07-09-2018 03:45:00 15.4 C 95 % 14.6 C
2927 07-09-2018 03:50:00 15.4 C 95 % 14.6 C
2928 07-09-2018 03:55:00 15.3 C 95 % 14.5 C
2929 07-09-2018 04:00:00 15.3 C 95 % 14.5 C
2930 07-09-2018 04:05:00 15.3 C 95 % 14.5 C
2931 07-09-2018 04:10:00 15.3 C 95 % 14.5 C
2932 07-09-2018 04:15:00 15.3 C 95 % 14.5 C
2933 07-09-2018 04:20:00 15.3 C 95 % 14.5 C
2934 07-09-2018 04:25:00 15.2 C 95 % 14.4 C
2935 07-09-2018 04:30:00 15.2 C 95 % 14.4 C
2936 07-09-2018 04:35:00 15.2 C 95 % 14.4 C
2937 07-09-2018 04:40:00 15.3 C 95 % 14.5 C
2938 07-09-2018 04:45:00 15.3 C 95 % 14.5 C
2939 07-09-2018 04:50:00 15.3 C 95 % 14.5 C
2940 07-09-2018 04:55:00 15.3 C 95 % 14.5 C
2941 07-09-2018 05:00:00 15.3 C 95 % 14.5 C
2942 07-09-2018 05:05:00 15.3 C 95 % 14.5 C
2943 07-09-2018 05:10:00 15.3 C 95 % 14.5 C
2944 07-09-2018 05:15:00 15.3 C 95 % 14.5 C
2945 07-09-2018 05:20:00 15.3 C 95 % 14.5 C
2946 07-09-2018 05:25:00 15.3 C 95 % 14.5 C
2947 07-09-2018 05:30:00 15.3 C 95 % 14.5 C
2948 07-09-2018 05:35:00 15.3 C 95 % 14.5 C
2949 07-09-2018 05:40:00 15.3 C 95 % 14.5 C
2950 07-09-2018 05:45:00 15.3 C 95 % 14.5 C
Sensor: Nr:Datum:Temp:Feuchte:Taupunkt:
Aussen-T/F 2951 07-09-2018 05:50:00 15.2 C 95 % 14.4 C
2952 07-09-2018 05:55:00 14.9 C 95 % 14.11 C
2953 07-09-2018 06:00:00 14.7 C 94 % 13.74 C
2954 07-09-2018 06:05:00 14.6 C 94 % 13.65 C
2955 07-09-2018 06:10:00 14.4 C 94 % 13.45 C
2956 07-09-2018 06:15:00 14.3 C 95 % 13.51 C
2957 07-09-2018 06:20:00 14.2 C 95 % 13.41 C
2958 07-09-2018 06:25:00 14.1 C 94 % 13.15 C
2959 07-09-2018 06:30:00 13.9 C 94 % 12.95 C
2960 07-09-2018 06:35:00 13.8 C 94 % 12.85 C
2961 07-09-2018 06:40:00 13.7 C 94 % 12.75 C
2962 07-09-2018 06:45:00 13.7 C 95 % 12.91 C
2963 07-09-2018 06:50:00 13.7 C 95 % 12.91 C
2964 07-09-2018 06:55:00 13.7 C 95 % 12.91 C
2965 07-09-2018 07:00:00 13.7 C 95 % 12.91 C
2966 07-09-2018 07:05:00 13.7 C 95 % 12.91 C
2967 07-09-2018 07:10:00 13.7 C 95 % 12.91 C
2968 07-09-2018 07:15:00 13.7 C 95 % 12.91 C
2969 07-09-2018 07:20:00 13.8 C 95 % 13.01 C
2970 07-09-2018 07:25:00 13.8 C 95 % 13.01 C
2971 07-09-2018 07:30:00 13.8 C 95 % 13.01 C
2972 07-09-2018 07:35:00 13.9 C 95 % 13.11 C
2973 07-09-2018 07:40:00 13.9 C 96 % 13.27 C
2974 07-09-2018 07:45:00 14.1 C 96 % 13.47 C
2975 07-09-2018 07:50:00 14.2 C 96 % 13.57 C
Sensor: Nr:Datum:Temp:Feuchte:Taupunkt:
Aussen-T/F 2976 07-09-2018 07:55:00 14.2 C 96 % 13.57 C
2977 07-09-2018 08:00:00 14.3 C 96 % 13.67 C
2978 07-09-2018 08:05:00 14.4 C 96 % 13.77 C
2979 07-09-2018 08:10:00 14.5 C 96 % 13.87 C
2980 07-09-2018 08:15:00 14.6 C 96 % 13.97 C
2981 07-09-2018 08:20:00 14.7 C 96 % 14.07 C
2982 07-09-2018 08:25:00 14.8 C 96 % 14.17 C
2983 07-09-2018 08:30:00 14.8 C 96 % 14.17 C
2984 07-09-2018 08:35:00 14.8 C 96 % 14.17 C
2985 07-09-2018 08:40:00 14.9 C 96 % 14.27 C
2986 07-09-2018 08:45:00 14.9 C 96 % 14.27 C
2987 07-09-2018 08:50:00 15 C 96 % 14.37 C
2988 07-09-2018 08:55:00 15.1 C 96 % 14.47 C
2989 07-09-2018 09:00:00 15.1 C 96 % 14.47 C
2990 07-09-2018 09:05:00 15.1 C 96 % 14.47 C
2991 07-09-2018 09:10:00 15.2 C 96 % 14.57 C
2992 07-09-2018 09:15:00 15.2 C 96 % 14.57 C
2993 07-09-2018 09:20:00 15.2 C 96 % 14.57 C
2994 07-09-2018 09:25:00 15.3 C 96 % 14.67 C
2995 07-09-2018 09:30:00 15.3 C 96 % 14.67 C
2996 07-09-2018 09:35:00 15.5 C 96 % 14.86 C
2997 07-09-2018 09:40:00 15.7 C 96 % 15.06 C
2998 07-09-2018 09:45:00 15.8 C 96 % 15.16 C
2999 07-09-2018 09:50:00 16 C 96 % 15.36 C
3000 07-09-2018 09:55:00 16.2 C 96 % 15.56 C
Sensor: Nr:Datum:Temp:Feuchte:Taupunkt:
Aussen-T/F 3001 07-09-2018 10:00:00 16.2 C 94 % 15.23 C
3002 07-09-2018 10:05:00 16.3 C 93 % 15.17 C
3003 07-09-2018 10:10:00 16.4 C 92 % 15.1 C
3004 07-09-2018 10:15:00 16.7 C 90 % 15.05 C
3005 07-09-2018 10:20:00 16.8 C 89 % 14.98 C
3006 07-09-2018 10:25:00 17 C 87 % 14.82 C
3007 07-09-2018 10:30:00 17.2 C 85 % 14.66 C
3008 07-09-2018 10:35:00 17.3 C 84 % 14.57 C
3009 07-09-2018 10:40:00 17.4 C 83 % 14.48 C
3010 07-09-2018 10:45:00 17.6 C 82 % 14.49 C
3011 07-09-2018 10:50:00 17.8 C 82 % 14.69 C
3012 07-09-2018 10:55:00 17.9 C 80 % 14.4 C
3013 07-09-2018 11:00:00 18.1 C 79 % 14.4 C
3014 07-09-2018 11:05:00 18.1 C 76 % 13.81 C
3015 07-09-2018 11:10:00 18.1 C 77 % 14.01 C
3016 07-09-2018 11:15:00 18.1 C 75 % 13.6 C
3017 07-09-2018 11:20:00 18.2 C 75 % 13.7 C
3018 07-09-2018 11:25:00 18.3 C 74 % 13.59 C
3019 07-09-2018 11:30:00 18.4 C 74 % 13.68 C
3020 07-09-2018 11:35:00 18.6 C 75 % 14.08 C
3021 07-09-2018 11:40:00 18.7 C 73 % 13.76 C
3022 07-09-2018 11:45:00 18.8 C 74 % 14.07 C
3023 07-09-2018 11:50:00 18.9 C 73 % 13.96 C
3024 07-09-2018 11:55:00 19.1 C 73 % 14.15 C
3025 07-09-2018 12:00:00 19.2 C 71 % 13.82 C
Sensor: Nr:Datum:Temp:Feuchte:Taupunkt:
Aussen-T/F 3026 07-09-2018 12:05:00 19.3 C 71 % 13.91 C
3027 07-09-2018 12:10:00 19.3 C 71 % 13.91 C
3028 07-09-2018 12:15:00 19.4 C 70 % 13.79 C
3029 07-09-2018 12:20:00 19.3 C 71 % 13.91 C
3030 07-09-2018 12:25:00 19.3 C 71 % 13.91 C
3031 07-09-2018 12:30:00 19.2 C 71 % 13.82 C
3032 07-09-2018 12:35:00 19 C 71 % 13.63 C
3033 07-09-2018 12:40:00 18.8 C 72 % 13.65 C
3034 07-09-2018 12:45:00 18.7 C 73 % 13.76 C
3035 07-09-2018 12:50:00 18.6 C 74 % 13.88 C
3036 07-09-2018 12:55:00 18.4 C 74 % 13.68 C
3037 07-09-2018 13:00:00 18.4 C 74 % 13.68 C
3038 07-09-2018 13:05:00 18.4 C 75 % 13.89 C
3039 07-09-2018 13:10:00 18.5 C 75 % 13.99 C
3040 07-09-2018 13:15:00 18.6 C 75 % 14.08 C
3041 07-09-2018 13:20:00 18.6 C 75 % 14.08 C
3042 07-09-2018 13:25:00 18.8 C 74 % 14.07 C
3043 07-09-2018 13:30:00 18.8 C 74 % 14.07 C
3044 07-09-2018 13:35:00 18.7 C 74 % 13.97 C
3045 07-09-2018 13:40:00 18.7 C 74 % 13.97 C
3046 07-09-2018 13:45:00 18.7 C 74 % 13.97 C
3047 07-09-2018 13:50:00 18.8 C 74 % 14.07 C
3048 07-09-2018 13:55:00 18.9 C 75 % 14.37 C
3049 07-09-2018 14:00:00 19.1 C 73 % 14.15 C
3050 07-09-2018 14:05:00 19.2 C 72 % 14.03 C
Sensor: Nr:Datum:Temp:Feuchte:Taupunkt:
Aussen-T/F 3051 07-09-2018 14:10:00 19.3 C 73 % 14.34 C
3052 07-09-2018 14:15:00 19.4 C 72 % 14.22 C
3053 07-09-2018 14:20:00 19.4 C 72 % 14.22 C
3054 07-09-2018 14:25:00 19.4 C 72 % 14.22 C
3055 07-09-2018 14:30:00 19.3 C 72 % 14.13 C
3056 07-09-2018 14:35:00 19.3 C 72 % 14.13 C
3057 07-09-2018 14:40:00 19.3 C 72 % 14.13 C
3058 07-09-2018 14:45:00 19.3 C 71 % 13.91 C
3059 07-09-2018 14:50:00 19.6 C 71 % 14.2 C
3060 07-09-2018 14:55:00 19.7 C 70 % 14.08 C
3061 07-09-2018 15:00:00 19.7 C 70 % 14.08 C
3062 07-09-2018 15:05:00 19.7 C 71 % 14.3 C
3063 07-09-2018 15:10:00 19.6 C 71 % 14.2 C
3064 07-09-2018 15:15:00 19.5 C 71 % 14.1 C
3065 07-09-2018 15:20:00 19.4 C 72 % 14.22 C
3066 07-09-2018 15:25:00 19.3 C 72 % 14.13 C
3067 07-09-2018 15:30:00 19.2 C 73 % 14.25 C
3068 07-09-2018 15:35:00 18.9 C 77 % 14.78 C
3069 07-09-2018 15:40:00 18.7 C 79 % 14.99 C
3070 07-09-2018 15:45:00 18.7 C 80 % 15.18 C
3071 07-09-2018 15:50:00 18.6 C 79 % 14.89 C
3072 07-09-2018 15:55:00 18.4 C 79 % 14.69 C
3073 07-09-2018 16:00:00 18.4 C 80 % 14.89 C
3074 07-09-2018 16:05:00 18.2 C 79 % 14.5 C
3075 07-09-2018 16:10:00 17.8 C 79 % 14.11 C
Sensor: Nr:Datum:Temp:Feuchte:Taupunkt:
Aussen-T/F 3076 07-09-2018 16:15:00 17.4 C 80 % 13.92 C
3077 07-09-2018 16:20:00 17.1 C 82 % 14 C
3078 07-09-2018 16:25:00 16.5 C 83 % 13.6 C
3079 07-09-2018 16:30:00 16.2 C 84 % 13.5 C
3080 07-09-2018 16:35:00 16 C 85 % 13.48 C
3081 07-09-2018 16:40:00 15.9 C 85 % 13.38 C
3082 07-09-2018 16:45:00 15.8 C 86 % 13.46 C
3083 07-09-2018 16:50:00 15.7 C 87 % 13.54 C
3084 07-09-2018 16:55:00 15.6 C 88 % 13.62 C
3085 07-09-2018 17:00:00 15.6 C 88 % 13.62 C
3086 07-09-2018 17:05:00 15.6 C 90 % 13.97 C
3087 07-09-2018 17:10:00 15.6 C 90 % 13.97 C
3088 07-09-2018 17:15:00 15.5 C 89 % 13.7 C
3089 07-09-2018 17:20:00 15.5 C 89 % 13.7 C
3090 07-09-2018 17:25:00 15.6 C 87 % 13.45 C
3091 07-09-2018 17:30:00 15.6 C 87 % 13.45 C
3092 07-09-2018 17:35:00 15.7 C 88 % 13.72 C
3093 07-09-2018 17:40:00 15.8 C 85 % 13.28 C
3094 07-09-2018 17:45:00 16 C 85 % 13.48 C
3095 07-09-2018 17:50:00 16.2 C 84 % 13.5 C
3096 07-09-2018 17:55:00 16.3 C 84 % 13.59 C
3097 07-09-2018 18:00:00 16.3 C 83 % 13.41 C
3098 07-09-2018 18:05:00 16.3 C 82 % 13.22 C
3099 07-09-2018 18:10:00 16.3 C 83 % 13.41 C
3100 07-09-2018 18:15:00 16.4 C 86 % 14.05 C
Sensor: Nr:Datum:Temp:Feuchte:Taupunkt:
Aussen-T/F 3101 07-09-2018 18:20:00 16.5 C 86 % 14.15 C
3102 07-09-2018 18:25:00 16.6 C 87 % 14.43 C
3103 07-09-2018 18:30:00 16.5 C 86 % 14.15 C
3104 07-09-2018 18:35:00 16.4 C 87 % 14.23 C
3105 07-09-2018 18:40:00 16.3 C 87 % 14.13 C
3106 07-09-2018 18:45:00 16.3 C 87 % 14.13 C
3107 07-09-2018 18:50:00 16.2 C 88 % 14.21 C
3108 07-09-2018 18:55:00 16.1 C 86 % 13.76 C
3109 07-09-2018 19:00:00 16 C 88 % 14.01 C
3110 07-09-2018 19:05:00 16 C 88 % 14.01 C
3111 07-09-2018 19:10:00 16.2 C 89 % 14.39 C
3112 07-09-2018 19:15:00 16.4 C 90 % 14.76 C
3113 07-09-2018 19:20:00 16.6 C 87 % 14.43 C
3114 07-09-2018 19:25:00 16.5 C 79 % 12.85 C
3115 07-09-2018 19:30:00 16.4 C 75 % 11.96 C
3116 07-09-2018 19:35:00 16.4 C 78 % 12.56 C
3117 07-09-2018 19:40:00 16.3 C 78 % 12.46 C
3118 07-09-2018 19:45:00 15.9 C 78 % 12.07 C
3119 07-09-2018 19:50:00 15.6 C 79 % 11.97 C
3120 07-09-2018 19:55:00 15.3 C 80 % 11.87 C
3121 07-09-2018 20:00:00 15.1 C 81 % 11.87 C
3122 07-09-2018 20:05:00 14.8 C 81 % 11.57 C
3123 07-09-2018 20:10:00 14.4 C 81 % 11.18 C
3124 07-09-2018 20:15:00 14.2 C 82 % 11.17 C
3125 07-09-2018 20:20:00 13.9 C 82 % 10.88 C
Sensor: Nr:Datum:Temp:Feuchte:Taupunkt:
Aussen-T/F 3126 07-09-2018 20:25:00 13.8 C 84 % 11.15 C
3127 07-09-2018 20:30:00 13.6 C 84 % 10.95 C
3128 07-09-2018 20:35:00 13.4 C 84 % 10.75 C
3129 07-09-2018 20:40:00 13.2 C 84 % 10.56 C
3130 07-09-2018 20:45:00 13.2 C 85 % 10.74 C
3131 07-09-2018 20:50:00 13.1 C 84 % 10.46 C
3132 07-09-2018 20:55:00 12.9 C 84 % 10.26 C
3133 07-09-2018 21:00:00 12.8 C 84 % 10.17 C
3134 07-09-2018 21:05:00 12.8 C 84 % 10.17 C
3135 07-09-2018 21:10:00 12.7 C 84 % 10.07 C
3136 07-09-2018 21:15:00 12.7 C 84 % 10.07 C
3137 07-09-2018 21:20:00 12.7 C 84 % 10.07 C
3138 07-09-2018 21:25:00 12.7 C 84 % 10.07 C
3139 07-09-2018 21:30:00 12.6 C 85 % 10.15 C
3140 07-09-2018 21:35:00 12.6 C 84 % 9.97 C
3141 07-09-2018 21:40:00 12.4 C 85 % 9.95 C
3142 07-09-2018 21:45:00 12.4 C 85 % 9.95 C
3143 07-09-2018 21:50:00 12.3 C 86 % 10.03 C
3144 07-09-2018 21:55:00 12.3 C 86 % 10.03 C
3145 07-09-2018 22:00:00 12.2 C 86 % 9.93 C
3146 07-09-2018 22:05:00 12.2 C 86 % 9.93 C
3147 07-09-2018 22:10:00 12.1 C 86 % 9.83 C
3148 07-09-2018 22:15:00 12 C 86 % 9.73 C
3149 07-09-2018 22:20:00 11.9 C 87 % 9.81 C
3150 07-09-2018 22:25:00 11.8 C 87 % 9.71 C
Sensor: Nr:Datum:Temp:Feuchte:Taupunkt:
Aussen-T/F 3151 07-09-2018 22:30:00 11.8 C 87 % 9.71 C
3152 07-09-2018 22:35:00 11.7 C 87 % 9.61 C
3153 07-09-2018 22:40:00 11.7 C 87 % 9.61 C
3154 07-09-2018 22:45:00 11.6 C 88 % 9.68 C
3155 07-09-2018 22:50:00 11.5 C 87 % 9.41 C
3156 07-09-2018 22:55:00 11.4 C 87 % 9.32 C
3157 07-09-2018 23:00:00 11.3 C 88 % 9.39 C
3158 07-09-2018 23:05:00 11.3 C 88 % 9.39 C
3159 07-09-2018 23:10:00 11.2 C 88 % 9.29 C
3160 07-09-2018 23:15:00 11.2 C 88 % 9.29 C
3161 07-09-2018 23:20:00 11.1 C 88 % 9.19 C
3162 07-09-2018 23:25:00 11 C 88 % 9.09 C
3163 07-09-2018 23:30:00 10.9 C 88 % 8.99 C
3164 07-09-2018 23:35:00 10.8 C 88 % 8.89 C
3165 07-09-2018 23:40:00 10.7 C 88 % 8.8 C
3166 07-09-2018 23:45:00 10.6 C 88 % 8.7 C
3167 07-09-2018 23:50:00 10.4 C 88 % 8.5 C
3168 07-09-2018 23:55:00 10.3 C 89 % 8.57 C
3169 08-09-2018 00:00:00 10.2 C 89 % 8.47 C
3170 08-09-2018 00:05:00 10.1 C 89 % 8.37 C
3171 08-09-2018 00:10:00 10.1 C 89 % 8.37 C
3172 08-09-2018 00:15:00 9.9 C 89 % 8.17 C
3173 08-09-2018 00:20:00 9.9 C 89 % 8.17 C
3174 08-09-2018 00:25:00 9.8 C 90 % 8.24 C
3175 08-09-2018 00:30:00 9.8 C 90 % 8.24 C
Sensor: Nr:Datum:Temp:Feuchte:Taupunkt:
Aussen-T/F 3176 08-09-2018 00:35:00 9.7 C 90 % 8.14 C
3177 08-09-2018 00:40:00 9.7 C 90 % 8.14 C
3178 08-09-2018 00:45:00 9.7 C 90 % 8.14 C
3179 08-09-2018 00:50:00 9.6 C 90 % 8.04 C
3180 08-09-2018 00:55:00 9.6 C 90 % 8.04 C
3181 08-09-2018 01:00:00 9.6 C 90 % 8.04 C
3182 08-09-2018 01:05:00 9.5 C 91 % 8.11 C
3183 08-09-2018 01:10:00 9.5 C 91 % 8.11 C
3184 08-09-2018 01:15:00 9.5 C 91 % 8.11 C
3185 08-09-2018 01:20:00 9.4 C 91 % 8.01 C
3186 08-09-2018 01:25:00 9.4 C 91 % 8.01 C
3187 08-09-2018 01:30:00 9.4 C 91 % 8.01 C
3188 08-09-2018 01:35:00 9.4 C 91 % 8.01 C
3189 08-09-2018 01:40:00 9.4 C 91 % 8.01 C
3190 08-09-2018 01:45:00 9.4 C 91 % 8.01 C
3191 08-09-2018 01:50:00 9.3 C 91 % 7.91 C
3192 08-09-2018 01:55:00 9.4 C 92 % 8.17 C
3193 08-09-2018 02:00:00 9.3 C 92 % 8.07 C
3194 08-09-2018 02:05:00 9.3 C 92 % 8.07 C
3195 08-09-2018 02:10:00 9.3 C 92 % 8.07 C
3196 08-09-2018 02:15:00 9.3 C 92 % 8.07 C
3197 08-09-2018 02:20:00 9.3 C 92 % 8.07 C
3198 08-09-2018 02:25:00 9.3 C 92 % 8.07 C
3199 08-09-2018 02:30:00 9.3 C 92 % 8.07 C
3200 08-09-2018 02:35:00 9.3 C 92 % 8.07 C
Sensor: Nr:Datum:Temp:Feuchte:Taupunkt:
Aussen-T/F 3201 08-09-2018 02:40:00 9.2 C 92 % 7.97 C
3202 08-09-2018 02:45:00 9.2 C 92 % 7.97 C
3203 08-09-2018 02:50:00 9.2 C 92 % 7.97 C
3204 08-09-2018 02:55:00 9.1 C 92 % 7.87 C
3205 08-09-2018 03:00:00 9.1 C 92 % 7.87 C
3206 08-09-2018 03:05:00 9 C 92 % 7.77 C
3207 08-09-2018 03:10:00 8.9 C 92 % 7.67 C
3208 08-09-2018 03:15:00 8.9 C 93 % 7.83 C
3209 08-09-2018 03:20:00 8.8 C 93 % 7.73 C
3210 08-09-2018 03:25:00 8.8 C 93 % 7.73 C
3211 08-09-2018 03:30:00 8.8 C 93 % 7.73 C
3212 08-09-2018 03:35:00 8.8 C 93 % 7.73 C
3213 08-09-2018 03:40:00 8.7 C 93 % 7.63 C
3214 08-09-2018 03:45:00 8.7 C 93 % 7.63 C
3215 08-09-2018 03:50:00 8.5 C 92 % 7.28 C
3216 08-09-2018 03:55:00 8.4 C 93 % 7.34 C
3217 08-09-2018 04:00:00 8.3 C 93 % 7.24 C
3218 08-09-2018 04:05:00 8.3 C 93 % 7.24 C
3219 08-09-2018 04:10:00 8.2 C 93 % 7.14 C
3220 08-09-2018 04:15:00 8.1 C 93 % 7.04 C
3221 08-09-2018 04:20:00 8.1 C 93 % 7.04 C
3222 08-09-2018 04:25:00 8 C 93 % 6.94 C
3223 08-09-2018 04:30:00 7.9 C 93 % 6.84 C
3224 08-09-2018 04:35:00 7.9 C 93 % 6.84 C
3225 08-09-2018 04:40:00 7.8 C 93 % 6.74 C
Sensor: Nr:Datum:Temp:Feuchte:Taupunkt:
Aussen-T/F 3226 08-09-2018 04:45:00 7.8 C 93 % 6.74 C
3227 08-09-2018 04:50:00 7.8 C 93 % 6.74 C
3228 08-09-2018 04:55:00 7.8 C 94 % 6.9 C
3229 08-09-2018 05:00:00 7.9 C 94 % 7 C
3230 08-09-2018 05:05:00 8 C 94 % 7.09 C
3231 08-09-2018 05:10:00 7.8 C 93 % 6.74 C
3232 08-09-2018 05:15:00 7.7 C 93 % 6.64 C
3233 08-09-2018 05:20:00 7.7 C 94 % 6.8 C
3234 08-09-2018 05:25:00 7.7 C 94 % 6.8 C
3235 08-09-2018 05:30:00 7.6 C 93 % 6.54 C
3236 08-09-2018 05:35:00 7.4 C 93 % 6.34 C
3237 08-09-2018 05:40:00 7.4 C 94 % 6.5 C
3238 08-09-2018 05:45:00 7.5 C 94 % 6.6 C
3239 08-09-2018 05:50:00 7.5 C 94 % 6.6 C
3240 08-09-2018 05:55:00 7.4 C 94 % 6.5 C
3241 08-09-2018 06:00:00 7.5 C 94 % 6.6 C
3242 08-09-2018 06:05:00 7.6 C 95 % 6.85 C
3243 08-09-2018 06:10:00 7.7 C 95 % 6.95 C
3244 08-09-2018 06:15:00 7.8 C 95 % 7.05 C
3245 08-09-2018 06:20:00 7.8 C 94 % 6.9 C
3246 08-09-2018 06:25:00 7.6 C 94 % 6.7 C
3247 08-09-2018 06:30:00 7.4 C 94 % 6.5 C
3248 08-09-2018 06:35:00 7.3 C 94 % 6.4 C
3249 08-09-2018 06:40:00 7.2 C 94 % 6.3 C
3250 08-09-2018 06:45:00 7.1 C 94 % 6.2 C
Sensor: Nr:Datum:Temp:Feuchte:Taupunkt:
Aussen-T/F 3251 08-09-2018 06:50:00 7 C 94 % 6.1 C
3252 08-09-2018 06:55:00 6.9 C 94 % 6 C
3253 08-09-2018 07:00:00 6.9 C 94 % 6 C
3254 08-09-2018 07:05:00 6.8 C 94 % 5.9 C
3255 08-09-2018 07:10:00 6.8 C 94 % 5.9 C
3256 08-09-2018 07:15:00 6.8 C 94 % 5.9 C
3257 08-09-2018 07:20:00 6.8 C 94 % 5.9 C
3258 08-09-2018 07:25:00 6.8 C 94 % 5.9 C
3259 08-09-2018 07:30:00 6.8 C 94 % 5.9 C
3260 08-09-2018 07:35:00 6.8 C 94 % 5.9 C
3261 08-09-2018 07:40:00 6.8 C 94 % 5.9 C
3262 08-09-2018 07:45:00 6.8 C 94 % 5.9 C
3263 08-09-2018 07:50:00 6.8 C 95 % 6.06 C
3264 08-09-2018 07:55:00 6.8 C 95 % 6.06 C
3265 08-09-2018 08:00:00 6.9 C 95 % 6.16 C
3266 08-09-2018 08:05:00 6.9 C 95 % 6.16 C
3267 08-09-2018 08:10:00 6.9 C 95 % 6.16 C
3268 08-09-2018 08:15:00 7 C 95 % 6.26 C
3269 08-09-2018 08:20:00 7 C 95 % 6.26 C
3270 08-09-2018 08:25:00 7.1 C 95 % 6.35 C
3271 08-09-2018 08:30:00 7.2 C 95 % 6.45 C
3272 08-09-2018 08:35:00 7.2 C 95 % 6.45 C
3273 08-09-2018 08:40:00 7.3 C 95 % 6.55 C
3274 08-09-2018 08:45:00 7.3 C 95 % 6.55 C
3275 08-09-2018 08:50:00 7.3 C 95 % 6.55 C
Sensor: Nr:Datum:Temp:Feuchte:Taupunkt:
Aussen-T/F 3276 08-09-2018 08:55:00 7.4 C 95 % 6.65 C
3277 08-09-2018 09:00:00 7.5 C 95 % 6.75 C
3278 08-09-2018 09:05:00 7.5 C 95 % 6.75 C
3279 08-09-2018 09:10:00 7.6 C 95 % 6.85 C
3280 08-09-2018 09:15:00 7.6 C 95 % 6.85 C
3281 08-09-2018 09:20:00 7.6 C 95 % 6.85 C
3282 08-09-2018 09:25:00 7.7 C 95 % 6.95 C
3283 08-09-2018 09:30:00 7.8 C 95 % 7.05 C
3284 08-09-2018 09:35:00 7.9 C 95 % 7.15 C
3285 08-09-2018 09:40:00 8.1 C 96 % 7.5 C
3286 08-09-2018 09:45:00 8.2 C 96 % 7.6 C
3287 08-09-2018 09:50:00 8.4 C 96 % 7.8 C
3288 08-09-2018 09:55:00 8.7 C 96 % 8.1 C
3289 08-09-2018 10:00:00 8.9 C 96 % 8.3 C
3290 08-09-2018 10:05:00 9.2 C 96 % 8.6 C
3291 08-09-2018 10:10:00 9.4 C 96 % 8.8 C
3292 08-09-2018 10:15:00 9.7 C 96 % 9.09 C
3293 08-09-2018 10:20:00 9.9 C 96 % 9.29 C
3294 08-09-2018 10:25:00 10.1 C 96 % 9.49 C
3295 08-09-2018 10:30:00 10.3 C 96 % 9.69 C
3296 08-09-2018 10:35:00 10.4 C 96 % 9.79 C
3297 08-09-2018 10:40:00 10.7 C 95 % 9.93 C
3298 08-09-2018 10:45:00 10.9 C 94 % 9.97 C
3299 08-09-2018 10:50:00 11.2 C 94 % 10.27 C
3300 08-09-2018 10:55:00 11.6 C 92 % 10.35 C
Sensor: Nr:Datum:Temp:Feuchte:Taupunkt:
Aussen-T/F 3301 08-09-2018 11:00:00 12 C 90 % 10.41 C
3302 08-09-2018 11:05:00 12.4 C 88 % 10.47 C
3303 08-09-2018 11:10:00 12.7 C 87 % 10.59 C
3304 08-09-2018 11:15:00 13.1 C 85 % 10.64 C
3305 08-09-2018 11:20:00 13.4 C 80 % 10.02 C
3306 08-09-2018 11:25:00 14 C 78 % 10.23 C
3307 08-09-2018 11:30:00 14.3 C 76 % 10.13 C
3308 08-09-2018 11:35:00 14.7 C 74 % 10.12 C
3309 08-09-2018 11:40:00 15 C 71 % 9.79 C
3310 08-09-2018 11:45:00 15.2 C 71 % 9.98 C
3311 08-09-2018 11:50:00 15.3 C 70 % 9.87 C
3312 08-09-2018 11:55:00 15.5 C 68 % 9.63 C
3313 08-09-2018 12:00:00 15.7 C 67 % 9.6 C
3314 08-09-2018 12:05:00 15.8 C 66 % 9.47 C
3315 08-09-2018 12:10:00 15.9 C 66 % 9.56 C
3316 08-09-2018 12:15:00 16.1 C 65 % 9.53 C
3317 08-09-2018 12:20:00 16.2 C 65 % 9.62 C
3318 08-09-2018 12:25:00 16.3 C 63 % 9.25 C
3319 08-09-2018 12:30:00 16.3 C 62 % 9.01 C
3320 08-09-2018 12:35:00 16.4 C 62 % 9.11 C
3321 08-09-2018 12:40:00 16.4 C 64 % 9.58 C
3322 08-09-2018 12:45:00 16.6 C 62 % 9.3 C
3323 08-09-2018 12:50:00 16.6 C 62 % 9.3 C
3324 08-09-2018 12:55:00 16.7 C 62 % 9.39 C
3325 08-09-2018 13:00:00 16.7 C 63 % 9.63 C
Sensor: Nr:Datum:Temp:Feuchte:Taupunkt:
Aussen-T/F 3326 08-09-2018 13:05:00 16.9 C 62 % 9.58 C
3327 08-09-2018 13:10:00 17.1 C 60 % 9.28 C
3328 08-09-2018 13:15:00 17.2 C 60 % 9.37 C
3329 08-09-2018 13:20:00 17.2 C 60 % 9.37 C
3330 08-09-2018 13:25:00 17.2 C 61 % 9.62 C
3331 08-09-2018 13:30:00 17.3 C 61 % 9.71 C
3332 08-09-2018 13:35:00 17.4 C 60 % 9.56 C
3333 08-09-2018 13:40:00 17.5 C 61 % 9.9 C
3334 08-09-2018 13:45:00 17.7 C 61 % 10.09 C
3335 08-09-2018 13:50:00 17.8 C 58 % 9.43 C
3336 08-09-2018 13:55:00 17.9 C 59 % 9.78 C
3337 08-09-2018 14:00:00 18.1 C 59 % 9.97 C
3338 08-09-2018 14:05:00 18.2 C 58 % 9.81 C
3339 08-09-2018 14:10:00 18.3 C 57 % 9.64 C
3340 08-09-2018 14:15:00 18.4 C 57 % 9.74 C
3341 08-09-2018 14:20:00 18.6 C 56 % 9.66 C
3342 08-09-2018 14:25:00 18.6 C 56 % 9.66 C
3343 08-09-2018 14:30:00 18.6 C 55 % 9.39 C
3344 08-09-2018 14:35:00 18.7 C 56 % 9.75 C
3345 08-09-2018 14:40:00 18.8 C 56 % 9.84 C
3346 08-09-2018 14:45:00 18.9 C 56 % 9.94 C
3347 08-09-2018 14:50:00 19.2 C 57 % 10.48 C
3348 08-09-2018 14:55:00 19.2 C 53 % 9.4 C
3349 08-09-2018 15:00:00 19.2 C 53 % 9.4 C
3350 08-09-2018 15:05:00 19.2 C 53 % 9.4 C
Sensor: Nr:Datum:Temp:Feuchte:Taupunkt:
Aussen-T/F 3351 08-09-2018 15:10:00 19.3 C 53 % 9.49 C
3352 08-09-2018 15:15:00 19.4 C 53 % 9.58 C
3353 08-09-2018 15:20:00 19.6 C 52 % 9.48 C
3354 08-09-2018 15:25:00 19.7 C 52 % 9.58 C
3355 08-09-2018 15:30:00 19.8 C 52 % 9.67 C
3356 08-09-2018 15:35:00 19.9 C 51 % 9.47 C
3357 08-09-2018 15:40:00 20.1 C 51 % 9.66 C
3358 08-09-2018 15:45:00 20.2 C 51 % 9.75 C
3359 08-09-2018 15:50:00 20.3 C 50 % 9.54 C
3360 08-09-2018 15:55:00 20.3 C 50 % 9.54 C
3361 08-09-2018 16:00:00 20.4 C 51 % 9.93 C
3362 08-09-2018 16:05:00 20.5 C 49 % 9.43 C
3363 08-09-2018 16:10:00 20.6 C 50 % 9.82 C
3364 08-09-2018 16:15:00 20.6 C 50 % 9.82 C
3365 08-09-2018 16:20:00 20.8 C 49 % 9.7 C
3366 08-09-2018 16:25:00 20.9 C 49 % 9.79 C
3367 08-09-2018 16:30:00 21 C 49 % 9.89 C
3368 08-09-2018 16:35:00 21.2 C 49 % 10.07 C
3369 08-09-2018 16:40:00 21.4 C 47 % 9.63 C
3370 08-09-2018 16:45:00 21.7 C 48 % 10.22 C
3371 08-09-2018 16:50:00 21.9 C 47 % 10.09 C
3372 08-09-2018 16:55:00 22.1 C 46 % 9.95 C
3373 08-09-2018 17:00:00 22.4 C 46 % 10.22 C
3374 08-09-2018 17:05:00 22.7 C 44 % 9.83 C
3375 08-09-2018 17:10:00 22.8 C 43 % 9.58 C
Sensor: Nr:Datum:Temp:Feuchte:Taupunkt:
Aussen-T/F 3376 08-09-2018 17:15:00 23.1 C 45 % 10.53 C
3377 08-09-2018 17:20:00 23.3 C 44 % 10.37 C
3378 08-09-2018 17:25:00 23.4 C 43 % 10.12 C
3379 08-09-2018 17:30:00 23.1 C 42 % 9.5 C
3380 08-09-2018 17:35:00 22.5 C 44 % 9.65 C
3381 08-09-2018 17:40:00 22.2 C 46 % 10.04 C
3382 08-09-2018 17:45:00 21.9 C 47 % 10.09 C
3383 08-09-2018 17:50:00 21.7 C 47 % 9.9 C
3384 08-09-2018 17:55:00 21.5 C 47 % 9.72 C
3385 08-09-2018 18:00:00 21.4 C 50 % 10.55 C
3386 08-09-2018 18:05:00 21.3 C 51 % 10.76 C
3387 08-09-2018 18:10:00 21.2 C 51 % 10.67 C
3388 08-09-2018 18:15:00 21.1 C 51 % 10.58 C
3389 08-09-2018 18:20:00 21.1 C 51 % 10.58 C
3390 08-09-2018 18:25:00 21.1 C 53 % 11.15 C
3391 08-09-2018 18:30:00 21.1 C 53 % 11.15 C
3392 08-09-2018 18:35:00 21.1 C 54 % 11.44 C
3393 08-09-2018 18:40:00 21.2 C 54 % 11.53 C
3394 08-09-2018 18:45:00 21.2 C 51 % 10.67 C
3395 08-09-2018 18:50:00 21.1 C 53 % 11.15 C
3396 08-09-2018 18:55:00 20.9 C 55 % 11.53 C
3397 08-09-2018 19:00:00 20.7 C 56 % 11.61 C
3398 08-09-2018 19:05:00 20.4 C 56 % 11.33 C
3399 08-09-2018 19:10:00 20.1 C 58 % 11.58 C
3400 08-09-2018 19:15:00 19.7 C 59 % 11.47 C
Sensor: Nr:Datum:Temp:Feuchte:Taupunkt:
Aussen-T/F 3401 08-09-2018 19:20:00 19.4 C 60 % 11.44 C
3402 08-09-2018 19:25:00 19.2 C 61 % 11.5 C
3403 08-09-2018 19:30:00 18.9 C 61 % 11.22 C
3404 08-09-2018 19:35:00 18.6 C 62 % 11.18 C
3405 08-09-2018 19:40:00 18.3 C 64 % 11.38 C
3406 08-09-2018 19:45:00 18.1 C 64 % 11.19 C
3407 08-09-2018 19:50:00 17.7 C 65 % 11.04 C
3408 08-09-2018 19:55:00 17.6 C 66 % 11.18 C
3409 08-09-2018 20:00:00 17.3 C 67 % 11.12 C
3410 08-09-2018 20:05:00 17.2 C 67 % 11.02 C
3411 08-09-2018 20:10:00 17 C 68 % 11.06 C
3412 08-09-2018 20:15:00 16.9 C 69 % 11.18 C
3413 08-09-2018 20:20:00 16.8 C 69 % 11.09 C
3414 08-09-2018 20:25:00 16.7 C 69 % 10.99 C
3415 08-09-2018 20:30:00 16.6 C 70 % 11.11 C
3416 08-09-2018 20:35:00 16.6 C 70 % 11.11 C
3417 08-09-2018 20:40:00 16.5 C 71 % 11.23 C
3418 08-09-2018 20:45:00 16.4 C 71 % 11.13 C
3419 08-09-2018 20:50:00 16.4 C 70 % 10.92 C
3420 08-09-2018 20:55:00 16.3 C 70 % 10.82 C
3421 08-09-2018 21:00:00 16.3 C 71 % 11.04 C
3422 08-09-2018 21:05:00 16.2 C 71 % 10.94 C
3423 08-09-2018 21:10:00 16.2 C 72 % 11.15 C
3424 08-09-2018 21:15:00 16.1 C 72 % 11.06 C
3425 08-09-2018 21:20:00 16 C 72 % 10.96 C
Sensor: Nr:Datum:Temp:Feuchte:Taupunkt:
Aussen-T/F 3426 08-09-2018 21:25:00 15.9 C 72 % 10.86 C
3427 08-09-2018 21:30:00 15.9 C 72 % 10.86 C
3428 08-09-2018 21:35:00 15.8 C 73 % 10.97 C
3429 08-09-2018 21:40:00 15.8 C 73 % 10.97 C
3430 08-09-2018 21:45:00 15.7 C 73 % 10.88 C
3431 08-09-2018 21:50:00 15.7 C 73 % 10.88 C
3432 08-09-2018 21:55:00 15.6 C 74 % 10.99 C
3433 08-09-2018 22:00:00 15.6 C 74 % 10.99 C
3434 08-09-2018 22:05:00 15.5 C 75 % 11.09 C
3435 08-09-2018 22:10:00 15.5 C 74 % 10.89 C
3436 08-09-2018 22:15:00 15.4 C 74 % 10.79 C
3437 08-09-2018 22:20:00 15.4 C 74 % 10.79 C
3438 08-09-2018 22:25:00 15.4 C 74 % 10.79 C
3439 08-09-2018 22:30:00 15.4 C 75 % 11 C
3440 08-09-2018 22:35:00 15.3 C 75 % 10.9 C
3441 08-09-2018 22:40:00 15.3 C 75 % 10.9 C
3442 08-09-2018 22:45:00 15.2 C 75 % 10.8 C
3443 08-09-2018 22:50:00 15.2 C 76 % 11 C
3444 08-09-2018 22:55:00 15.2 C 75 % 10.8 C
3445 08-09-2018 23:00:00 15.1 C 76 % 10.9 C
3446 08-09-2018 23:05:00 15 C 76 % 10.81 C
3447 08-09-2018 23:10:00 14.8 C 77 % 10.81 C
3448 08-09-2018 23:15:00 14.7 C 76 % 10.52 C
3449 08-09-2018 23:20:00 14.7 C 77 % 10.71 C
3450 08-09-2018 23:25:00 14.6 C 77 % 10.62 C
Sensor: Nr:Datum:Temp:Feuchte:Taupunkt:
Aussen-T/F 3451 08-09-2018 23:30:00 14.6 C 77 % 10.62 C
3452 08-09-2018 23:35:00 14.6 C 77 % 10.62 C
3453 08-09-2018 23:40:00 14.7 C 77 % 10.71 C
3454 08-09-2018 23:45:00 14.7 C 77 % 10.71 C
3455 08-09-2018 23:50:00 14.8 C 77 % 10.81 C
3456 08-09-2018 23:55:00 14.9 C 77 % 10.91 C
3457 09-09-2018 00:00:00 14.9 C 77 % 10.91 C
3458 09-09-2018 00:05:00 14.8 C 78 % 11 C
3459 09-09-2018 00:10:00 14.8 C 78 % 11 C
3460 09-09-2018 00:15:00 14.7 C 78 % 10.91 C
3461 09-09-2018 00:20:00 14.6 C 78 % 10.81 C
3462 09-09-2018 00:25:00 14.4 C 78 % 10.62 C
3463 09-09-2018 00:30:00 14.3 C 79 % 10.71 C
3464 09-09-2018 00:35:00 14.2 C 79 % 10.61 C
3465 09-09-2018 00:40:00 14.1 C 79 % 10.52 C
3466 09-09-2018 00:45:00 14 C 80 % 10.61 C
3467 09-09-2018 00:50:00 13.8 C 80 % 10.41 C
3468 09-09-2018 00:55:00 13.7 C 80 % 10.32 C
3469 09-09-2018 01:00:00 13.6 C 80 % 10.22 C
3470 09-09-2018 01:05:00 13.4 C 80 % 10.02 C
3471 09-09-2018 01:10:00 13.4 C 81 % 10.21 C
3472 09-09-2018 01:15:00 13.5 C 82 % 10.49 C
3473 09-09-2018 01:20:00 13.6 C 82 % 10.59 C
3474 09-09-2018 01:25:00 13.7 C 81 % 10.5 C
3475 09-09-2018 01:30:00 13.7 C 81 % 10.5 C
Sensor: Nr:Datum:Temp:Feuchte:Taupunkt:
Aussen-T/F 3476 09-09-2018 01:35:00 13.7 C 81 % 10.5 C
3477 09-09-2018 01:40:00 13.6 C 81 % 10.4 C
3478 09-09-2018 01:45:00 13.4 C 81 % 10.21 C
3479 09-09-2018 01:50:00 13.3 C 81 % 10.11 C
3480 09-09-2018 01:55:00 13.2 C 82 % 10.2 C
3481 09-09-2018 02:00:00 13.1 C 82 % 10.1 C
3482 09-09-2018 02:05:00 12.9 C 82 % 9.9 C
3483 09-09-2018 02:10:00 12.9 C 83 % 10.09 C
3484 09-09-2018 02:15:00 12.8 C 83 % 9.99 C
3485 09-09-2018 02:20:00 12.7 C 83 % 9.89 C
3486 09-09-2018 02:25:00 12.6 C 83 % 9.79 C
3487 09-09-2018 02:30:00 12.4 C 83 % 9.6 C
3488 09-09-2018 02:35:00 12.3 C 83 % 9.5 C
3489 09-09-2018 02:40:00 12.2 C 84 % 9.58 C
3490 09-09-2018 02:45:00 12.1 C 85 % 9.66 C
3491 09-09-2018 02:50:00 12.1 C 85 % 9.66 C
3492 09-09-2018 02:55:00 12.1 C 86 % 9.83 C
3493 09-09-2018 03:00:00 12.2 C 86 % 9.93 C
3494 09-09-2018 03:05:00 12.1 C 86 % 9.83 C
3495 09-09-2018 03:10:00 12.1 C 86 % 9.83 C
3496 09-09-2018 03:15:00 12 C 86 % 9.73 C
3497 09-09-2018 03:20:00 11.9 C 86 % 9.64 C
3498 09-09-2018 03:25:00 11.9 C 86 % 9.64 C
3499 09-09-2018 03:30:00 11.8 C 86 % 9.54 C
3500 09-09-2018 03:35:00 11.7 C 87 % 9.61 C
Sensor: Nr:Datum:Temp:Feuchte:Taupunkt:
Aussen-T/F 3501 09-09-2018 03:40:00 11.7 C 87 % 9.61 C
3502 09-09-2018 03:45:00 11.6 C 87 % 9.51 C
3503 09-09-2018 03:50:00 11.5 C 87 % 9.41 C
3504 09-09-2018 03:55:00 11.4 C 87 % 9.32 C
3505 09-09-2018 04:00:00 11.4 C 87 % 9.32 C
3506 09-09-2018 04:05:00 11.3 C 87 % 9.22 C
3507 09-09-2018 04:10:00 11.2 C 88 % 9.29 C
3508 09-09-2018 04:15:00 11.1 C 88 % 9.19 C
3509 09-09-2018 04:20:00 11.1 C 88 % 9.19 C
3510 09-09-2018 04:25:00 11.1 C 89 % 9.36 C
3511 09-09-2018 04:30:00 11.1 C 89 % 9.36 C
3512 09-09-2018 04:35:00 11.1 C 89 % 9.36 C
3513 09-09-2018 04:40:00 11.1 C 89 % 9.36 C
3514 09-09-2018 04:45:00 11.1 C 89 % 9.36 C
3515 09-09-2018 04:50:00 11.2 C 89 % 9.46 C
3516 09-09-2018 04:55:00 11.1 C 89 % 9.36 C
3517 09-09-2018 05:00:00 11 C 88 % 9.09 C
3518 09-09-2018 05:05:00 10.9 C 88 % 8.99 C
3519 09-09-2018 05:10:00 10.8 C 89 % 9.06 C
3520 09-09-2018 05:15:00 10.8 C 90 % 9.23 C
3521 09-09-2018 05:20:00 10.9 C 90 % 9.33 C
3522 09-09-2018 05:25:00 10.9 C 90 % 9.33 C
3523 09-09-2018 05:30:00 10.9 C 90 % 9.33 C
3524 09-09-2018 05:35:00 11 C 90 % 9.42 C
3525 09-09-2018 05:40:00 11.1 C 91 % 9.69 C
Sensor: Nr:Datum:Temp:Feuchte:Taupunkt:
Aussen-T/F 3526 09-09-2018 05:45:00 11.2 C 91 % 9.79 C
3527 09-09-2018 05:50:00 11.2 C 91 % 9.79 C
3528 09-09-2018 05:55:00 11.2 C 91 % 9.79 C
3529 09-09-2018 06:00:00 11.3 C 90 % 9.72 C
3530 09-09-2018 06:05:00 11.3 C 90 % 9.72 C
3531 09-09-2018 06:10:00 11.3 C 90 % 9.72 C
3532 09-09-2018 06:15:00 11.3 C 90 % 9.72 C
3533 09-09-2018 06:20:00 11.3 C 90 % 9.72 C
3534 09-09-2018 06:25:00 11.4 C 90 % 9.82 C
3535 09-09-2018 06:30:00 11.3 C 90 % 9.72 C
3536 09-09-2018 06:35:00 11.4 C 90 % 9.82 C
3537 09-09-2018 06:40:00 11.4 C 90 % 9.82 C
3538 09-09-2018 06:45:00 11.4 C 90 % 9.82 C
3539 09-09-2018 06:50:00 11.5 C 90 % 9.92 C
3540 09-09-2018 06:55:00 11.6 C 90 % 10.02 C
3541 09-09-2018 07:00:00 11.6 C 90 % 10.02 C
3542 09-09-2018 07:05:00 11.6 C 90 % 10.02 C
3543 09-09-2018 07:10:00 11.6 C 90 % 10.02 C
3544 09-09-2018 07:15:00 11.6 C 90 % 10.02 C
3545 09-09-2018 07:20:00 11.6 C 90 % 10.02 C
3546 09-09-2018 07:25:00 11.5 C 90 % 9.92 C
3547 09-09-2018 07:30:00 11.5 C 90 % 9.92 C
3548 09-09-2018 07:35:00 11.5 C 90 % 9.92 C
3549 09-09-2018 07:40:00 11.5 C 90 % 9.92 C
3550 09-09-2018 07:45:00 11.5 C 90 % 9.92 C
Sensor: Nr:Datum:Temp:Feuchte:Taupunkt:
Aussen-T/F 3551 09-09-2018 07:50:00 11.6 C 90 % 10.02 C
3552 09-09-2018 07:55:00 11.7 C 90 % 10.12 C
3553 09-09-2018 08:00:00 11.7 C 90 % 10.12 C
3554 09-09-2018 08:05:00 11.8 C 90 % 10.21 C
3555 09-09-2018 08:10:00 11.9 C 90 % 10.31 C
3556 09-09-2018 08:15:00 11.9 C 90 % 10.31 C
3557 09-09-2018 08:20:00 12.1 C 90 % 10.51 C
3558 09-09-2018 08:25:00 12.2 C 90 % 10.61 C
3559 09-09-2018 08:30:00 12.3 C 90 % 10.71 C
3560 09-09-2018 08:35:00 12.4 C 89 % 10.64 C
3561 09-09-2018 08:40:00 12.6 C 89 % 10.84 C
3562 09-09-2018 08:45:00 12.7 C 88 % 10.77 C
3563 09-09-2018 08:50:00 12.8 C 88 % 10.86 C
3564 09-09-2018 08:55:00 12.9 C 87 % 10.79 C
3565 09-09-2018 09:00:00 13.2 C 87 % 11.09 C
3566 09-09-2018 09:05:00 13.3 C 87 % 11.18 C
3567 09-09-2018 09:10:00 13.4 C 86 % 11.11 C
3568 09-09-2018 09:15:00 13.6 C 84 % 10.95 C
3569 09-09-2018 09:20:00 13.8 C 84 % 11.15 C
3570 09-09-2018 09:25:00 13.9 C 84 % 11.24 C
3571 09-09-2018 09:30:00 14.1 C 84 % 11.44 C
3572 09-09-2018 09:35:00 14.2 C 83 % 11.36 C
3573 09-09-2018 09:40:00 14.4 C 82 % 11.37 C
3574 09-09-2018 09:45:00 14.6 C 82 % 11.56 C
3575 09-09-2018 09:50:00 14.6 C 81 % 11.38 C
Sensor: Nr:Datum:Temp:Feuchte:Taupunkt:
Aussen-T/F 3576 09-09-2018 09:55:00 14.8 C 81 % 11.57 C
3577 09-09-2018 10:00:00 14.9 C 80 % 11.48 C
3578 09-09-2018 10:05:00 15 C 80 % 11.58 C
3579 09-09-2018 10:10:00 15.1 C 80 % 11.68 C
3580 09-09-2018 10:15:00 15.2 C 80 % 11.78 C
3581 09-09-2018 10:20:00 15.3 C 79 % 11.68 C
3582 09-09-2018 10:25:00 15.4 C 80 % 11.97 C
3583 09-09-2018 10:30:00 15.6 C 80 % 12.16 C
3584 09-09-2018 10:35:00 15.8 C 80 % 12.36 C
3585 09-09-2018 10:40:00 16.2 C 78 % 12.36 C
3586 09-09-2018 10:45:00 16.6 C 77 % 12.55 C
3587 09-09-2018 10:50:00 16.9 C 77 % 12.84 C
3588 09-09-2018 10:55:00 17.2 C 73 % 12.32 C
3589 09-09-2018 11:00:00 17.5 C 71 % 12.19 C
3590 09-09-2018 11:05:00 17.8 C 71 % 12.47 C
3591 09-09-2018 11:10:00 18 C 70 % 12.45 C
3592 09-09-2018 11:15:00 18.2 C 70 % 12.64 C
3593 09-09-2018 11:20:00 18.3 C 69 % 12.52 C
3594 09-09-2018 11:25:00 18.6 C 69 % 12.8 C
3595 09-09-2018 11:30:00 18.7 C 66 % 12.22 C
3596 09-09-2018 11:35:00 18.8 C 67 % 12.55 C
3597 09-09-2018 11:40:00 19 C 66 % 12.51 C
3598 09-09-2018 11:45:00 19.2 C 65 % 12.47 C
3599 09-09-2018 11:50:00 19.3 C 65 % 12.56 C
3600 09-09-2018 11:55:00 19.4 C 64 % 12.42 C
Sensor: Nr:Datum:Temp:Feuchte:Taupunkt:
Aussen-T/F 3601 09-09-2018 12:00:00 19.5 C 63 % 12.27 C
3602 09-09-2018 12:05:00 19.6 C 63 % 12.37 C
3603 09-09-2018 12:10:00 19.7 C 63 % 12.46 C
3604 09-09-2018 12:15:00 19.7 C 61 % 11.97 C
3605 09-09-2018 12:20:00 19.7 C 61 % 11.97 C
3606 09-09-2018 12:25:00 19.7 C 61 % 11.97 C
3607 09-09-2018 12:30:00 19.8 C 60 % 11.82 C
3608 09-09-2018 12:35:00 19.8 C 59 % 11.56 C
3609 09-09-2018 12:40:00 19.8 C 60 % 11.82 C
3610 09-09-2018 12:45:00 19.9 C 58 % 11.4 C
3611 09-09-2018 12:50:00 19.9 C 58 % 11.4 C
3612 09-09-2018 12:55:00 19.9 C 58 % 11.4 C
3613 09-09-2018 13:00:00 20.1 C 55 % 10.78 C
3614 09-09-2018 13:05:00 20.3 C 56 % 11.24 C
3615 09-09-2018 13:10:00 20.3 C 56 % 11.24 C
3616 09-09-2018 13:15:00 20.3 C 55 % 10.97 C
3617 09-09-2018 13:20:00 20.4 C 54 % 10.79 C
3618 09-09-2018 13:25:00 20.7 C 56 % 11.61 C
3619 09-09-2018 13:30:00 20.7 C 55 % 11.34 C
3620 09-09-2018 13:35:00 20.8 C 53 % 10.88 C
3621 09-09-2018 13:40:00 20.9 C 54 % 11.25 C
3622 09-09-2018 13:45:00 21.1 C 53 % 11.15 C
3623 09-09-2018 13:50:00 21.2 C 52 % 10.96 C
3624 09-09-2018 13:55:00 21.3 C 52 % 11.05 C
3625 09-09-2018 14:00:00 21.4 C 52 % 11.14 C
Sensor: Nr:Datum:Temp:Feuchte:Taupunkt:
Aussen-T/F 3626 09-09-2018 14:05:00 21.6 C 53 % 11.62 C
3627 09-09-2018 14:10:00 21.7 C 51 % 11.13 C
3628 09-09-2018 14:15:00 21.8 C 48 % 10.31 C
3629 09-09-2018 14:20:00 21.9 C 49 % 10.71 C
3630 09-09-2018 14:25:00 22.1 C 49 % 10.89 C
3631 09-09-2018 14:30:00 22.3 C 47 % 10.45 C
3632 09-09-2018 14:35:00 22.6 C 47 % 10.72 C
3633 09-09-2018 14:40:00 22.7 C 46 % 10.49 C
3634 09-09-2018 14:45:00 22.8 C 46 % 10.58 C
3635 09-09-2018 14:50:00 23.1 C 46 % 10.86 C
3636 09-09-2018 14:55:00 23.2 C 45 % 10.62 C
3637 09-09-2018 15:00:00 23.3 C 46 % 11.04 C
3638 09-09-2018 15:05:00 23.5 C 46 % 11.22 C
3639 09-09-2018 15:10:00 23.7 C 46 % 11.4 C
3640 09-09-2018 15:15:00 23.8 C 46 % 11.49 C
3641 09-09-2018 15:20:00 23.9 C 46 % 11.58 C
3642 09-09-2018 15:25:00 23.8 C 45 % 11.16 C
3643 09-09-2018 15:30:00 23.8 C 45 % 11.16 C
3644 09-09-2018 15:35:00 23.8 C 45 % 11.16 C
3645 09-09-2018 15:40:00 23.8 C 46 % 11.49 C
3646 09-09-2018 15:45:00 24.1 C 46 % 11.76 C
3647 09-09-2018 15:50:00 24.2 C 46 % 11.85 C
3648 09-09-2018 15:55:00 24.3 C 45 % 11.61 C
3649 09-09-2018 16:00:00 24.6 C 45 % 11.88 C
3650 09-09-2018 16:05:00 24.6 C 44 % 11.54 C
Sensor: Nr:Datum:Temp:Feuchte:Taupunkt:
Aussen-T/F 3651 09-09-2018 16:10:00 24.5 C 45 % 11.79 C
3652 09-09-2018 16:15:00 24.4 C 47 % 12.36 C
3653 09-09-2018 16:20:00 24.4 C 47 % 12.36 C
3654 09-09-2018 16:25:00 24.4 C 47 % 12.36 C
3655 09-09-2018 16:30:00 24.5 C 45 % 11.79 C
3656 09-09-2018 16:35:00 24.6 C 47 % 12.54 C
3657 09-09-2018 16:40:00 24.6 C 47 % 12.54 C
3658 09-09-2018 16:45:00 24.7 C 47 % 12.64 C
3659 09-09-2018 16:50:00 24.7 C 48 % 12.96 C
3660 09-09-2018 16:55:00 24.8 C 47 % 12.73 C
3661 09-09-2018 17:00:00 24.9 C 46 % 12.49 C
3662 09-09-2018 17:05:00 24.9 C 45 % 12.16 C
3663 09-09-2018 17:10:00 24.9 C 48 % 13.14 C
3664 09-09-2018 17:15:00 25 C 47 % 12.91 C
3665 09-09-2018 17:20:00 25.2 C 46 % 12.76 C
3666 09-09-2018 17:25:00 25.4 C 44 % 12.27 C
3667 09-09-2018 17:30:00 25.6 C 45 % 12.79 C
3668 09-09-2018 17:35:00 26.1 C 43 % 12.55 C
3669 09-09-2018 17:40:00 26.5 C 41 % 12.18 C
3670 09-09-2018 17:45:00 26.6 C 41 % 12.27 C
3671 09-09-2018 17:50:00 26.6 C 42 % 12.64 C
3672 09-09-2018 17:55:00 26.6 C 41 % 12.27 C
3673 09-09-2018 18:00:00 26.3 C 42 % 12.37 C
3674 09-09-2018 18:05:00 26.1 C 46 % 13.58 C
3675 09-09-2018 18:10:00 25.8 C 46 % 13.31 C
Sensor: Nr:Datum:Temp:Feuchte:Taupunkt:
Aussen-T/F 3676 09-09-2018 18:15:00 25.4 C 49 % 13.91 C
3677 09-09-2018 18:20:00 25 C 50 % 13.86 C
3678 09-09-2018 18:25:00 24.7 C 50 % 13.58 C
3679 09-09-2018 18:30:00 24.4 C 51 % 13.61 C
3680 09-09-2018 18:35:00 24.2 C 52 % 13.73 C
3681 09-09-2018 18:40:00 23.9 C 52 % 13.45 C
3682 09-09-2018 18:45:00 23.8 C 53 % 13.65 C
3683 09-09-2018 18:50:00 23.7 C 53 % 13.56 C
3684 09-09-2018 18:55:00 23.7 C 53 % 13.56 C
3685 09-09-2018 19:00:00 23.4 C 53 % 13.28 C
3686 09-09-2018 19:05:00 23.2 C 53 % 13.09 C
3687 09-09-2018 19:10:00 22.9 C 53 % 12.82 C
3688 09-09-2018 19:15:00 22.7 C 54 % 12.92 C
3689 09-09-2018 19:20:00 22.4 C 54 % 12.64 C
3690 09-09-2018 19:25:00 22.1 C 55 % 12.64 C
3691 09-09-2018 19:30:00 21.8 C 56 % 12.64 C
3692 09-09-2018 19:35:00 21.5 C 57 % 12.63 C
3693 09-09-2018 19:40:00 21.2 C 57 % 12.35 C
3694 09-09-2018 19:45:00 21 C 59 % 12.69 C
3695 09-09-2018 19:50:00 20.7 C 59 % 12.41 C
3696 09-09-2018 19:55:00 20.4 C 59 % 12.12 C
3697 09-09-2018 20:00:00 20.2 C 60 % 12.19 C
3698 09-09-2018 20:05:00 20.1 C 61 % 12.35 C
3699 09-09-2018 20:10:00 19.8 C 61 % 12.07 C
3700 09-09-2018 20:15:00 19.7 C 61 % 11.97 C
Sensor: Nr:Datum:Temp:Feuchte:Taupunkt:
Aussen-T/F 3701 09-09-2018 20:20:00 19.6 C 61 % 11.88 C
3702 09-09-2018 20:25:00 19.4 C 62 % 11.94 C
3703 09-09-2018 20:30:00 19.3 C 62 % 11.84 C
3704 09-09-2018 20:35:00 19.1 C 64 % 12.14 C
3705 09-09-2018 20:40:00 18.8 C 63 % 11.61 C
3706 09-09-2018 20:45:00 18.6 C 65 % 11.9 C
3707 09-09-2018 20:50:00 18.2 C 65 % 11.52 C
3708 09-09-2018 20:55:00 17.9 C 66 % 11.46 C
3709 09-09-2018 21:00:00 17.7 C 67 % 11.5 C
3710 09-09-2018 21:05:00 17.5 C 66 % 11.08 C
3711 09-09-2018 21:10:00 17.3 C 67 % 11.12 C
3712 09-09-2018 21:15:00 17.2 C 68 % 11.25 C
3713 09-09-2018 21:20:00 17 C 68 % 11.06 C
3714 09-09-2018 21:25:00 16.8 C 68 % 10.87 C
3715 09-09-2018 21:30:00 16.7 C 69 % 10.99 C
3716 09-09-2018 21:35:00 16.6 C 70 % 11.11 C
3717 09-09-2018 21:40:00 16.3 C 70 % 10.82 C
3718 09-09-2018 21:45:00 16.2 C 71 % 10.94 C
3719 09-09-2018 21:50:00 16 C 71 % 10.75 C
3720 09-09-2018 21:55:00 15.8 C 72 % 10.77 C
3721 09-09-2018 22:00:00 15.8 C 72 % 10.77 C
3722 09-09-2018 22:05:00 15.7 C 72 % 10.67 C
3723 09-09-2018 22:10:00 15.7 C 72 % 10.67 C
3724 09-09-2018 22:15:00 15.6 C 72 % 10.57 C
3725 09-09-2018 22:20:00 15.4 C 73 % 10.59 C
Sensor: Nr:Datum:Temp:Feuchte:Taupunkt:
Aussen-T/F 3726 09-09-2018 22:25:00 15.3 C 73 % 10.49 C
3727 09-09-2018 22:30:00 15.3 C 74 % 10.7 C
3728 09-09-2018 22:35:00 15.2 C 74 % 10.6 C
3729 09-09-2018 22:40:00 15 C 75 % 10.61 C
3730 09-09-2018 22:45:00 14.8 C 75 % 10.42 C
3731 09-09-2018 22:50:00 14.6 C 76 % 10.42 C
3732 09-09-2018 22:55:00 14.5 C 77 % 10.52 C
3733 09-09-2018 23:00:00 14.4 C 77 % 10.42 C
3734 09-09-2018 23:05:00 14.3 C 78 % 10.52 C
3735 09-09-2018 23:10:00 14.1 C 78 % 10.33 C
3736 09-09-2018 23:15:00 14.1 C 78 % 10.33 C
3737 09-09-2018 23:20:00 14 C 79 % 10.42 C
3738 09-09-2018 23:25:00 14.1 C 80 % 10.71 C
3739 09-09-2018 23:30:00 14.1 C 78 % 10.33 C
3740 09-09-2018 23:35:00 13.9 C 79 % 10.32 C
3741 09-09-2018 23:40:00 13.9 C 79 % 10.32 C
3742 09-09-2018 23:45:00 13.8 C 80 % 10.41 C
3743 09-09-2018 23:50:00 13.8 C 80 % 10.41 C
3744 09-09-2018 23:55:00 13.7 C 80 % 10.32 C
3745 10-09-2018 00:00:00 13.7 C 80 % 10.32 C
3746 10-09-2018 00:05:00 13.6 C 80 % 10.22 C
3747 10-09-2018 00:10:00 13.6 C 80 % 10.22 C
3748 10-09-2018 00:15:00 13.5 C 80 % 10.12 C
3749 10-09-2018 00:20:00 13.4 C 80 % 10.02 C
3750 10-09-2018 00:25:00 13.3 C 81 % 10.11 C
Sensor: Nr:Datum:Temp:Feuchte:Taupunkt:
Aussen-T/F 3751 10-09-2018 00:30:00 13.2 C 81 % 10.01 C
3752 10-09-2018 00:35:00 13.2 C 81 % 10.01 C
3753 10-09-2018 00:40:00 13.1 C 81 % 9.92 C
3754 10-09-2018 00:45:00 12.9 C 82 % 9.9 C
3755 10-09-2018 00:50:00 12.9 C 82 % 9.9 C
3756 10-09-2018 00:55:00 12.9 C 82 % 9.9 C
3757 10-09-2018 01:00:00 12.9 C 82 % 9.9 C
3758 10-09-2018 01:05:00 12.9 C 82 % 9.9 C
3759 10-09-2018 01:10:00 13 C 82 % 10 C
3760 10-09-2018 01:15:00 12.9 C 81 % 9.72 C
3761 10-09-2018 01:20:00 12.8 C 81 % 9.62 C
3762 10-09-2018 01:25:00 12.7 C 82 % 9.71 C
3763 10-09-2018 01:30:00 12.6 C 82 % 9.61 C
3764 10-09-2018 01:35:00 12.5 C 82 % 9.51 C
3765 10-09-2018 01:40:00 12.4 C 83 % 9.6 C
3766 10-09-2018 01:45:00 12.3 C 83 % 9.5 C
3767 10-09-2018 01:50:00 12.2 C 83 % 9.4 C
3768 10-09-2018 01:55:00 12.2 C 84 % 9.58 C
3769 10-09-2018 02:00:00 12.2 C 84 % 9.58 C
3770 10-09-2018 02:05:00 12.1 C 84 % 9.48 C
3771 10-09-2018 02:10:00 12.1 C 84 % 9.48 C
3772 10-09-2018 02:15:00 11.9 C 84 % 9.29 C
3773 10-09-2018 02:20:00 11.9 C 85 % 9.46 C
3774 10-09-2018 02:25:00 11.8 C 85 % 9.36 C
3775 10-09-2018 02:30:00 11.8 C 85 % 9.36 C
Sensor: Nr:Datum:Temp:Feuchte:Taupunkt:
Aussen-T/F 3776 10-09-2018 02:35:00 11.8 C 85 % 9.36 C
3777 10-09-2018 02:40:00 11.7 C 86 % 9.44 C
3778 10-09-2018 02:45:00 11.6 C 86 % 9.34 C
3779 10-09-2018 02:50:00 11.5 C 86 % 9.24 C
3780 10-09-2018 02:55:00 11.5 C 86 % 9.24 C
3781 10-09-2018 03:00:00 11.6 C 87 % 9.51 C
3782 10-09-2018 03:05:00 11.6 C 86 % 9.34 C
3783 10-09-2018 03:10:00 11.5 C 86 % 9.24 C
3784 10-09-2018 03:15:00 11.5 C 87 % 9.41 C
3785 10-09-2018 03:20:00 11.6 C 88 % 9.68 C
3786 10-09-2018 03:25:00 11.8 C 87 % 9.71 C
3787 10-09-2018 03:30:00 11.8 C 86 % 9.54 C
3788 10-09-2018 03:35:00 11.7 C 86 % 9.44 C
3789 10-09-2018 03:40:00 11.7 C 86 % 9.44 C
3790 10-09-2018 03:45:00 11.7 C 86 % 9.44 C
3791 10-09-2018 03:50:00 11.7 C 87 % 9.61 C
3792 10-09-2018 03:55:00 11.8 C 87 % 9.71 C
3793 10-09-2018 04:00:00 11.9 C 87 % 9.81 C
3794 10-09-2018 04:05:00 12.1 C 87 % 10 C
3795 10-09-2018 04:10:00 12.1 C 87 % 10 C
3796 10-09-2018 04:15:00 12.2 C 87 % 10.1 C
3797 10-09-2018 04:20:00 12.2 C 86 % 9.93 C
3798 10-09-2018 04:25:00 12.1 C 86 % 9.83 C
3799 10-09-2018 04:30:00 12.1 C 86 % 9.83 C
3800 10-09-2018 04:35:00 12.1 C 86 % 9.83 C
Sensor: Nr:Datum:Temp:Feuchte:Taupunkt:
Aussen-T/F 3801 10-09-2018 04:40:00 12.1 C 87 % 10 C
3802 10-09-2018 04:45:00 12 C 86 % 9.73 C
3803 10-09-2018 04:50:00 11.9 C 86 % 9.64 C
3804 10-09-2018 04:55:00 11.8 C 86 % 9.54 C
3805 10-09-2018 05:00:00 11.8 C 87 % 9.71 C
3806 10-09-2018 05:05:00 11.7 C 87 % 9.61 C
3807 10-09-2018 05:10:00 11.7 C 87 % 9.61 C
3808 10-09-2018 05:15:00 11.6 C 87 % 9.51 C
3809 10-09-2018 05:20:00 11.5 C 87 % 9.41 C
3810 10-09-2018 05:25:00 11.4 C 87 % 9.32 C
3811 10-09-2018 05:30:00 11.4 C 88 % 9.49 C
3812 10-09-2018 05:35:00 11.3 C 88 % 9.39 C
3813 10-09-2018 05:40:00 11.2 C 88 % 9.29 C
3814 10-09-2018 05:45:00 11.1 C 88 % 9.19 C
3815 10-09-2018 05:50:00 11 C 88 % 9.09 C
3816 10-09-2018 05:55:00 10.8 C 88 % 8.89 C
3817 10-09-2018 06:00:00 10.8 C 88 % 8.89 C
3818 10-09-2018 06:05:00 10.7 C 89 % 8.96 C
3819 10-09-2018 06:10:00 10.7 C 89 % 8.96 C
3820 10-09-2018 06:15:00 10.6 C 89 % 8.86 C
3821 10-09-2018 06:20:00 10.6 C 89 % 8.86 C
3822 10-09-2018 06:25:00 10.7 C 90 % 9.13 C
3823 10-09-2018 06:30:00 10.8 C 90 % 9.23 C
3824 10-09-2018 06:35:00 10.8 C 90 % 9.23 C
3825 10-09-2018 06:40:00 10.8 C 90 % 9.23 C
Sensor: Nr:Datum:Temp:Feuchte:Taupunkt:
Aussen-T/F 3826 10-09-2018 06:45:00 10.7 C 89 % 8.96 C
3827 10-09-2018 06:50:00 10.7 C 89 % 8.96 C
3828 10-09-2018 06:55:00 10.6 C 90 % 9.03 C
3829 10-09-2018 07:00:00 10.7 C 90 % 9.13 C
3830 10-09-2018 07:05:00 10.7 C 90 % 9.13 C
3831 10-09-2018 07:10:00 10.8 C 90 % 9.23 C
3832 10-09-2018 07:15:00 10.8 C 91 % 9.39 C
3833 10-09-2018 07:20:00 10.9 C 91 % 9.49 C
3834 10-09-2018 07:25:00 11 C 91 % 9.59 C
3835 10-09-2018 07:30:00 11.1 C 91 % 9.69 C
3836 10-09-2018 07:35:00 11.2 C 91 % 9.79 C
3837 10-09-2018 07:40:00 11.3 C 91 % 9.89 C
3838 10-09-2018 07:45:00 11.3 C 91 % 9.89 C
3839 10-09-2018 07:50:00 11.5 C 91 % 10.08 C
3840 10-09-2018 07:55:00 11.6 C 91 % 10.18 C
3841 10-09-2018 08:00:00 11.8 C 91 % 10.38 C
3842 10-09-2018 08:05:00 11.9 C 91 % 10.48 C
3843 10-09-2018 08:10:00 12.2 C 91 % 10.78 C
3844 10-09-2018 08:15:00 12.3 C 90 % 10.71 C
3845 10-09-2018 08:20:00 12.6 C 90 % 11 C
3846 10-09-2018 08:25:00 12.7 C 90 % 11.1 C
3847 10-09-2018 08:30:00 12.9 C 90 % 11.3 C
3848 10-09-2018 08:35:00 13.1 C 90 % 11.5 C
3849 10-09-2018 08:40:00 13.2 C 89 % 11.43 C
3850 10-09-2018 08:45:00 13.3 C 88 % 11.36 C
Sensor: Nr:Datum:Temp:Feuchte:Taupunkt:
Aussen-T/F 3851 10-09-2018 08:50:00 13.5 C 88 % 11.55 C
3852 10-09-2018 08:55:00 13.6 C 88 % 11.65 C
3853 10-09-2018 09:00:00 13.7 C 87 % 11.58 C
3854 10-09-2018 09:05:00 13.8 C 86 % 11.5 C
3855 10-09-2018 09:10:00 14 C 86 % 11.7 C
3856 10-09-2018 09:15:00 14.1 C 85 % 11.62 C
3857 10-09-2018 09:20:00 14.3 C 85 % 11.81 C
3858 10-09-2018 09:25:00 14.4 C 85 % 11.91 C
3859 10-09-2018 09:30:00 14.7 C 85 % 12.21 C
3860 10-09-2018 09:35:00 14.8 C 84 % 12.12 C
3861 10-09-2018 09:40:00 15 C 84 % 12.32 C
3862 10-09-2018 09:45:00 15.2 C 83 % 12.33 C
3863 10-09-2018 09:50:00 15.3 C 83 % 12.43 C
3864 10-09-2018 09:55:00 15.5 C 82 % 12.44 C
3865 10-09-2018 10:00:00 15.7 C 81 % 12.45 C
3866 10-09-2018 10:05:00 15.8 C 81 % 12.55 C
3867 10-09-2018 10:10:00 15.9 C 79 % 12.27 C
3868 10-09-2018 10:15:00 16 C 79 % 12.36 C
3869 10-09-2018 10:20:00 16.1 C 78 % 12.27 C
3870 10-09-2018 10:25:00 16.2 C 78 % 12.36 C
3871 10-09-2018 10:30:00 16.3 C 77 % 12.26 C
3872 10-09-2018 10:35:00 16.5 C 77 % 12.46 C
3873 10-09-2018 10:40:00 16.7 C 76 % 12.45 C
3874 10-09-2018 10:45:00 16.8 C 76 % 12.55 C
3875 10-09-2018 10:50:00 16.9 C 74 % 12.24 C
Sensor: Nr:Datum:Temp:Feuchte:Taupunkt:
Aussen-T/F 3876 10-09-2018 10:55:00 17.1 C 73 % 12.23 C
3877 10-09-2018 11:00:00 17.2 C 73 % 12.32 C
3878 10-09-2018 11:05:00 17.3 C 72 % 12.21 C
3879 10-09-2018 11:10:00 17.5 C 72 % 12.4 C
3880 10-09-2018 11:15:00